<?xml version='1.0' encoding='UTF-8'?><gpx version="1.1" creator="JPX - https://github.com/jenetics/jpx" xmlns="http://www.topografix.com/GPX/1/1"><trk><trkseg><trkpt lat="47.44599299189236" lon="0.31968638700646596"><ele>87.0</ele><time>2026-03-30T10:23:36.684Z</time></trkpt><trkpt lat="47.44606920556121" lon="0.3196145081277473"><ele>87.0</ele><time>2026-03-30T10:23:38.684Z</time></trkpt><trkpt lat="47.44614483457775" lon="0.3195466326593589"><ele>87.0</ele><time>2026-03-30T10:23:40.999Z</time></trkpt><trkpt lat="47.44621634466402" lon="0.31946956357209394"><ele>87.0</ele><time>2026-03-30T10:23:43.999Z</time></trkpt><trkpt lat="47.44629541641772" lon="0.31939311583655716"><ele>87.0</ele><time>2026-03-30T10:23:46.999Z</time></trkpt><trkpt lat="47.44635945308101" lon="0.3193310657469011"><ele>87.0</ele><time>2026-03-30T10:23:48.999Z</time></trkpt><trkpt lat="47.446435363806756" lon="0.3192748957178429"><ele>87.16666666666667</ele><time>2026-03-30T10:23:50.999Z</time></trkpt><trkpt lat="47.44651961782442" lon="0.31921490753469683"><ele>87.33333333333333</ele><time>2026-03-30T10:23:52.999Z</time></trkpt><trkpt lat="47.44660187611222" lon="0.31916018165930077"><ele>87.5</ele><time>2026-03-30T10:23:54.999Z</time></trkpt><trkpt lat="47.446673001880136" lon="0.31910829760027154"><ele>87.66666666666666</ele><time>2026-03-30T10:23:56.999Z</time></trkpt><trkpt lat="47.44674175047185" lon="0.31905986210408444"><ele>87.83333333333333</ele><time>2026-03-30T10:23:58.999Z</time></trkpt><trkpt lat="47.4467960818552" lon="0.3189953080821557"><ele>88.0</ele><time>2026-03-30T10:24:01Z</time></trkpt><trkpt lat="47.44686755189304" lon="0.3189259653657402"><ele>87.83333333333333</ele><time>2026-03-30T10:24:04Z</time></trkpt><trkpt lat="47.446942471525254" lon="0.31886476274842923"><ele>87.66666666666666</ele><time>2026-03-30T10:24:06Z</time></trkpt><trkpt lat="47.447025960433365" lon="0.3188076965610726"><ele>87.5</ele><time>2026-03-30T10:24:08Z</time></trkpt><trkpt lat="47.447086837846136" lon="0.3187383410847944"><ele>87.33333333333333</ele><time>2026-03-30T10:24:10Z</time></trkpt><trkpt lat="47.44717027959076" lon="0.31868052050913875"><ele>87.16666666666667</ele><time>2026-03-30T10:24:12Z</time></trkpt><trkpt lat="47.44724973149961" lon="0.31862633367705123"><ele>87.0</ele><time>2026-03-30T10:24:14Z</time></trkpt><trkpt lat="47.44731586195501" lon="0.31858247920178195"><ele>87.0</ele><time>2026-03-30T10:24:16Z</time></trkpt><trkpt lat="47.447407983235095" lon="0.318552071328783"><ele>87.0</ele><time>2026-03-30T10:24:18Z</time></trkpt><trkpt lat="47.447522325632946" lon="0.3185753871540762"><ele>87.0</ele><time>2026-03-30T10:24:20Z</time></trkpt><trkpt lat="47.44761761402033" lon="0.31867348175974"><ele>87.0</ele><time>2026-03-30T10:24:22Z</time></trkpt><trkpt lat="47.447705962394025" lon="0.31876774698299604"><ele>87.0</ele><time>2026-03-30T10:24:24Z</time></trkpt><trkpt lat="47.44780191460533" lon="0.3188617070137624"><ele>87.19999999999999</ele><time>2026-03-30T10:24:26Z</time></trkpt><trkpt lat="47.44789118624807" lon="0.3189505268508938"><ele>87.4</ele><time>2026-03-30T10:24:28Z</time></trkpt><trkpt lat="47.44798676385948" lon="0.31902543651050863"><ele>87.6</ele><time>2026-03-30T10:24:30Z</time></trkpt><trkpt lat="47.44809713798791" lon="0.3191374826397723"><ele>87.80000000000001</ele><time>2026-03-30T10:24:32Z</time></trkpt><trkpt lat="47.44818088593065" lon="0.31920416433425813"><ele>88.0</ele><time>2026-03-30T10:24:34Z</time></trkpt><trkpt lat="47.44824400926466" lon="0.3192792775944574"><ele>88.4</ele><time>2026-03-30T10:24:36Z</time></trkpt><trkpt lat="47.448181160070625" lon="0.31938208963762676"><ele>88.80000000000001</ele><time>2026-03-30T10:24:37Z</time></trkpt><trkpt lat="47.448199604297166" lon="0.31951271596257524"><ele>89.2</ele><time>2026-03-30T10:24:39Z</time></trkpt><trkpt lat="47.44822076186308" lon="0.3196509996871571"><ele>89.6</ele><time>2026-03-30T10:24:41Z</time></trkpt><trkpt lat="47.44823877797006" lon="0.3197811434932949"><ele>90.0</ele><time>2026-03-30T10:24:43Z</time></trkpt><trkpt lat="47.44825569173654" lon="0.3199225309832485"><ele>90.0</ele><time>2026-03-30T10:24:45Z</time></trkpt><trkpt lat="47.44827407900682" lon="0.3200762357597819"><ele>90.0</ele><time>2026-03-30T10:24:47Z</time></trkpt><trkpt lat="47.44834524230959" lon="0.3202004692779504"><ele>90.0</ele><time>2026-03-30T10:24:49Z</time></trkpt><trkpt lat="47.44836535151233" lon="0.3203479897819633"><ele>90.0</ele><time>2026-03-30T10:24:51Z</time></trkpt><trkpt lat="47.4483214650058" lon="0.32049435896963485"><ele>90.0</ele><time>2026-03-30T10:24:53Z</time></trkpt><trkpt lat="47.44833216327065" lon="0.32062639682096944"><ele>90.0</ele><time>2026-03-30T10:24:55Z</time></trkpt><trkpt lat="47.44838272664082" lon="0.3207166444611089"><ele>90.0</ele><time>2026-03-30T10:24:56Z</time></trkpt><trkpt lat="47.44840148861491" lon="0.3208642673996975"><ele>90.0</ele><time>2026-03-30T10:24:58Z</time></trkpt><trkpt lat="47.44841863553773" lon="0.32100800702200194"><ele>90.0</ele><time>2026-03-30T10:25:00Z</time></trkpt><trkpt lat="47.448437698629974" lon="0.3211453146961442"><ele>90.0</ele><time>2026-03-30T10:25:02Z</time></trkpt><trkpt lat="47.44846293423325" lon="0.32126797366493154"><ele>90.0</ele><time>2026-03-30T10:25:04Z</time></trkpt><trkpt lat="47.4484972016901" lon="0.3213982001958854"><ele>90.0</ele><time>2026-03-30T10:25:06Z</time></trkpt><trkpt lat="47.44852983273716" lon="0.32152933566048225"><ele>90.0</ele><time>2026-03-30T10:25:08Z</time></trkpt><trkpt lat="47.44856098334841" lon="0.3216574288029843"><ele>90.0</ele><time>2026-03-30T10:25:10Z</time></trkpt><trkpt lat="47.44858934366214" lon="0.3217896008203855"><ele>90.0</ele><time>2026-03-30T10:25:12Z</time></trkpt><trkpt lat="47.44862206473902" lon="0.3219366431561991"><ele>89.8</ele><time>2026-03-30T10:25:14Z</time></trkpt><trkpt lat="47.44860518594023" lon="0.3220686625501357"><ele>89.6</ele><time>2026-03-30T10:25:16Z</time></trkpt><trkpt lat="47.44863628039779" lon="0.32220878038856104"><ele>89.4</ele><time>2026-03-30T10:25:18Z</time></trkpt><trkpt lat="47.44865088807127" lon="0.32237147421412643"><ele>89.2</ele><time>2026-03-30T10:25:20Z</time></trkpt><trkpt lat="47.448672399618445" lon="0.32251318412508384"><ele>89.0</ele><time>2026-03-30T10:25:22Z</time></trkpt><trkpt lat="47.44869617482526" lon="0.3226706122358778"><ele>89.0</ele><time>2026-03-30T10:25:24Z</time></trkpt><trkpt lat="47.448719176622326" lon="0.3228229189731514"><ele>89.0</ele><time>2026-03-30T10:25:26Z</time></trkpt><trkpt lat="47.44874451428304" lon="0.32297814803015645"><ele>89.0</ele><time>2026-03-30T10:25:28Z</time></trkpt><trkpt lat="47.44877764970972" lon="0.3231327652562582"><ele>89.0</ele><time>2026-03-30T10:25:30Z</time></trkpt><trkpt lat="47.44881672418715" lon="0.32328911504102675"><ele>89.0</ele><time>2026-03-30T10:25:32Z</time></trkpt><trkpt lat="47.44886360970236" lon="0.32344669340151716"><ele>89.2</ele><time>2026-03-30T10:25:34Z</time></trkpt><trkpt lat="47.44891121796214" lon="0.32358833113085456"><ele>89.4</ele><time>2026-03-30T10:25:36Z</time></trkpt><trkpt lat="47.448956088096665" lon="0.3237189989143333"><ele>89.6</ele><time>2026-03-30T10:25:38Z</time></trkpt><trkpt lat="47.4490007813205" lon="0.3238037937797399"><ele>89.8</ele><time>2026-03-30T10:25:40Z</time></trkpt><trkpt lat="47.44904645017224" lon="0.32392947722849497"><ele>90.0</ele><time>2026-03-30T10:25:42Z</time></trkpt><trkpt lat="47.44909220449429" lon="0.32405064759902347"><ele>90.33333333333333</ele><time>2026-03-30T10:25:44Z</time></trkpt><trkpt lat="47.44913017611309" lon="0.32416261570455746"><ele>90.66666666666667</ele><time>2026-03-30T10:25:46Z</time></trkpt><trkpt lat="47.44916607357669" lon="0.3242876627699136"><ele>91.0</ele><time>2026-03-30T10:25:48Z</time></trkpt><trkpt lat="47.449231142822676" lon="0.32439004248126535"><ele>91.33333333333334</ele><time>2026-03-30T10:25:50Z</time></trkpt><trkpt lat="47.449241017154705" lon="0.32450020153740894"><ele>91.66666666666667</ele><time>2026-03-30T10:25:52Z</time></trkpt><trkpt lat="47.44926746856241" lon="0.32459696445386615"><ele>92.0</ele><time>2026-03-30T10:25:54Z</time></trkpt><trkpt lat="47.44931629123966" lon="0.3246904881430161"><ele>91.6</ele><time>2026-03-30T10:25:56Z</time></trkpt><trkpt lat="47.44940014623776" lon="0.32478247738109445"><ele>91.19999999999999</ele><time>2026-03-30T10:25:58Z</time></trkpt><trkpt lat="47.44946840288316" lon="0.32488400916434157"><ele>90.8</ele><time>2026-03-30T10:26:00Z</time></trkpt><trkpt lat="47.4495367596962" lon="0.32499816726414843"><ele>90.4</ele><time>2026-03-30T10:26:02Z</time></trkpt><trkpt lat="47.449605046173495" lon="0.3251256251686622"><ele>90.0</ele><time>2026-03-30T10:26:04Z</time></trkpt><trkpt lat="47.44959862306841" lon="0.3252345187328812"><ele>90.16666666666667</ele><time>2026-03-30T10:26:05Z</time></trkpt><trkpt lat="47.44966883895644" lon="0.3253606467239776"><ele>90.33333333333333</ele><time>2026-03-30T10:26:07Z</time></trkpt><trkpt lat="47.449721877969075" lon="0.32545592011572677"><ele>90.5</ele><time>2026-03-30T10:26:09Z</time></trkpt><trkpt lat="47.449762010687394" lon="0.32552801008825266"><ele>90.66666666666666</ele><time>2026-03-30T10:26:10Z</time></trkpt><trkpt lat="47.44985375409167" lon="0.3256568911712545"><ele>90.83333333333333</ele><time>2026-03-30T10:26:12Z</time></trkpt><trkpt lat="47.449890545870204" lon="0.32573243067529695"><ele>91.0</ele><time>2026-03-30T10:26:13Z</time></trkpt><trkpt lat="47.44992855293916" lon="0.32580915093624496"><ele>91.0</ele><time>2026-03-30T10:26:14Z</time></trkpt><trkpt lat="47.4500102465078" lon="0.32595277489960806"><ele>91.0</ele><time>2026-03-30T10:26:16Z</time></trkpt><trkpt lat="47.45008636844533" lon="0.32608947772519287"><ele>91.0</ele><time>2026-03-30T10:26:18Z</time></trkpt><trkpt lat="47.450165989308786" lon="0.3262302637884195"><ele>91.0</ele><time>2026-03-30T10:26:20Z</time></trkpt><trkpt lat="47.45020959453778" lon="0.3263038268705482"><ele>91.0</ele><time>2026-03-30T10:26:21Z</time></trkpt><trkpt lat="47.45027868956109" lon="0.3264368515459691"><ele>90.8</ele><time>2026-03-30T10:26:23Z</time></trkpt><trkpt lat="47.450347684256435" lon="0.3265805489693424"><ele>90.6</ele><time>2026-03-30T10:26:25Z</time></trkpt><trkpt lat="47.45042979815668" lon="0.3267188437048811"><ele>90.4</ele><time>2026-03-30T10:26:27Z</time></trkpt><trkpt lat="47.450466565594475" lon="0.32679961477594244"><ele>90.2</ele><time>2026-03-30T10:26:28Z</time></trkpt><trkpt lat="47.45051005149153" lon="0.32696150722054795"><ele>90.0</ele><time>2026-03-30T10:26:30Z</time></trkpt><trkpt lat="47.45056581353357" lon="0.3271139892933831"><ele>90.4</ele><time>2026-03-30T10:26:32Z</time></trkpt><trkpt lat="47.45063313308322" lon="0.3272649548111472"><ele>90.8</ele><time>2026-03-30T10:26:34Z</time></trkpt><trkpt lat="47.45068977430325" lon="0.3274305424588243"><ele>91.19999999999999</ele><time>2026-03-30T10:26:36Z</time></trkpt><trkpt lat="47.45072271449222" lon="0.3275174599600377"><ele>91.6</ele><time>2026-03-30T10:26:37Z</time></trkpt><trkpt lat="47.45078818623267" lon="0.3276746909704054"><ele>92.0</ele><time>2026-03-30T10:26:39Z</time></trkpt><trkpt lat="47.45080958088223" lon="0.32776257033360595"><ele>92.0</ele><time>2026-03-30T10:26:40Z</time></trkpt><trkpt lat="47.450879563236995" lon="0.3278953924584285"><ele>92.0</ele><time>2026-03-30T10:26:42Z</time></trkpt><trkpt lat="47.45093144127852" lon="0.3280473366729371"><ele>92.0</ele><time>2026-03-30T10:26:44Z</time></trkpt><trkpt lat="47.45098620308259" lon="0.32818001232539923"><ele>92.0</ele><time>2026-03-30T10:26:46Z</time></trkpt><trkpt lat="47.45102645816409" lon="0.3282952473434766"><ele>92.0</ele><time>2026-03-30T10:26:48Z</time></trkpt><trkpt lat="47.45105771688137" lon="0.3283991762602317"><ele>91.8</ele><time>2026-03-30T10:26:50Z</time></trkpt><trkpt lat="47.45108787069564" lon="0.32850200576953176"><ele>91.6</ele><time>2026-03-30T10:26:52Z</time></trkpt><trkpt lat="47.45120734705872" lon="0.32847820948224354"><ele>91.39999999999999</ele><time>2026-03-30T10:26:53Z</time></trkpt><trkpt lat="47.45129278513653" lon="0.3285504875536377"><ele>91.19999999999999</ele><time>2026-03-30T10:26:55Z</time></trkpt><trkpt lat="47.45138254313907" lon="0.32863460935659516"><ele>91.0</ele><time>2026-03-30T10:26:57Z</time></trkpt><trkpt lat="47.451472813599125" lon="0.3287141203905455"><ele>91.0</ele><time>2026-03-30T10:26:59Z</time></trkpt><trkpt lat="47.45156132719843" lon="0.3287853575178763"><ele>91.0</ele><time>2026-03-30T10:27:01Z</time></trkpt><trkpt lat="47.4516503422658" lon="0.32886738132533394"><ele>91.0</ele><time>2026-03-30T10:27:03Z</time></trkpt><trkpt lat="47.45174544746585" lon="0.32894000411938856"><ele>91.0</ele><time>2026-03-30T10:27:05Z</time></trkpt><trkpt lat="47.451833493184324" lon="0.32901031977503764"><ele>91.0</ele><time>2026-03-30T10:27:07Z</time></trkpt><trkpt lat="47.45193248812758" lon="0.32908156695515645"><ele>91.0</ele><time>2026-03-30T10:27:09Z</time></trkpt><trkpt lat="47.45201835738357" lon="0.32915511252032975"><ele>91.0</ele><time>2026-03-30T10:27:11Z</time></trkpt><trkpt lat="47.45208064700463" lon="0.32919709636322814"><ele>91.0</ele><time>2026-03-30T10:27:12Z</time></trkpt><trkpt lat="47.45217510940009" lon="0.3292597859847285"><ele>91.0</ele><time>2026-03-30T10:27:14Z</time></trkpt><trkpt lat="47.45230440187394" lon="0.32937950771689567"><ele>91.0</ele><time>2026-03-30T10:27:16Z</time></trkpt><trkpt lat="47.45240350173091" lon="0.3294487804988284"><ele>91.0</ele><time>2026-03-30T10:27:18Z</time></trkpt><trkpt lat="47.452506229006445" lon="0.329514128624673"><ele>91.0</ele><time>2026-03-30T10:27:20Z</time></trkpt><trkpt lat="47.452609007512116" lon="0.32957625184081785"><ele>91.0</ele><time>2026-03-30T10:27:22Z</time></trkpt><trkpt lat="47.4527113242989" lon="0.32963800268882315"><ele>91.0</ele><time>2026-03-30T10:27:24Z</time></trkpt><trkpt lat="47.45281676485671" lon="0.3296985061936121"><ele>91.0</ele><time>2026-03-30T10:27:26Z</time></trkpt><trkpt lat="47.45292627928013" lon="0.32975623572979434"><ele>91.19999999999999</ele><time>2026-03-30T10:27:28Z</time></trkpt><trkpt lat="47.4530338875092" lon="0.32981084714305386"><ele>91.39999999999999</ele><time>2026-03-30T10:27:30Z</time></trkpt><trkpt lat="47.45313600864369" lon="0.3298602944087201"><ele>91.6</ele><time>2026-03-30T10:27:32Z</time></trkpt><trkpt lat="47.45324274194276" lon="0.3299099113291067"><ele>91.8</ele><time>2026-03-30T10:27:34Z</time></trkpt><trkpt lat="47.453308037942925" lon="0.329940075988184"><ele>92.0</ele><time>2026-03-30T10:27:36Z</time></trkpt><trkpt lat="47.45341971070223" lon="0.32999166521569595"><ele>92.0</ele><time>2026-03-30T10:27:38Z</time></trkpt><trkpt lat="47.45352703829248" lon="0.3300158502320299"><ele>92.0</ele><time>2026-03-30T10:27:40Z</time></trkpt><trkpt lat="47.453625651407215" lon="0.33008680357271836"><ele>92.0</ele><time>2026-03-30T10:27:42Z</time></trkpt><trkpt lat="47.453746748711374" lon="0.3301063613324816"><ele>92.0</ele><time>2026-03-30T10:27:44Z</time></trkpt><trkpt lat="47.453850393905164" lon="0.3301602680446448"><ele>92.6</ele><time>2026-03-30T10:27:46Z</time></trkpt><trkpt lat="47.453954033393245" lon="0.33020650020700276"><ele>93.19999999999999</ele><time>2026-03-30T10:27:48.001Z</time></trkpt><trkpt lat="47.45405314543287" lon="0.3302484194427382"><ele>93.8</ele><time>2026-03-30T10:27:50.001Z</time></trkpt><trkpt lat="47.454160426256045" lon="0.33030039115974685"><ele>94.4</ele><time>2026-03-30T10:27:52.001Z</time></trkpt><trkpt lat="47.454262686600266" lon="0.3303511177615256"><ele>95.0</ele><time>2026-03-30T10:27:54.001Z</time></trkpt><trkpt lat="47.45436914322292" lon="0.3303972344529138"><ele>95.0</ele><time>2026-03-30T10:27:56.001Z</time></trkpt><trkpt lat="47.454479976428374" lon="0.33044921843463276"><ele>95.0</ele><time>2026-03-30T10:27:58.001Z</time></trkpt><trkpt lat="47.45458912015848" lon="0.33049314092172566"><ele>95.0</ele><time>2026-03-30T10:28:00.001Z</time></trkpt><trkpt lat="47.45469397721128" lon="0.3305387974750076"><ele>95.0</ele><time>2026-03-30T10:28:02.001Z</time></trkpt><trkpt lat="47.45480573315245" lon="0.33058291997268247"><ele>94.75</ele><time>2026-03-30T10:28:04Z</time></trkpt><trkpt lat="47.454911604202856" lon="0.3306302996461928"><ele>94.5</ele><time>2026-03-30T10:28:06Z</time></trkpt><trkpt lat="47.455022665075646" lon="0.3306857580962519"><ele>94.25</ele><time>2026-03-30T10:28:08Z</time></trkpt><trkpt lat="47.45513543274387" lon="0.3307423774333055"><ele>94.0</ele><time>2026-03-30T10:28:10Z</time></trkpt><trkpt lat="47.45525254947316" lon="0.330795386092793"><ele>94.0</ele><time>2026-03-30T10:28:12Z</time></trkpt><trkpt lat="47.45536607870801" lon="0.3308419659331736"><ele>94.0</ele><time>2026-03-30T10:28:14Z</time></trkpt><trkpt lat="47.45547969202781" lon="0.3308995277935933"><ele>94.0</ele><time>2026-03-30T10:28:16Z</time></trkpt><trkpt lat="47.45559199676129" lon="0.33095275056156387"><ele>94.0</ele><time>2026-03-30T10:28:18Z</time></trkpt><trkpt lat="47.455653558998264" lon="0.3309732057234505"><ele>94.0</ele><time>2026-03-30T10:28:19Z</time></trkpt><trkpt lat="47.45576364379742" lon="0.3310319241553101"><ele>94.0</ele><time>2026-03-30T10:28:21Z</time></trkpt><trkpt lat="47.45587888141595" lon="0.33108517779855606"><ele>94.0</ele><time>2026-03-30T10:28:23Z</time></trkpt><trkpt lat="47.455941310861775" lon="0.3311011739431224"><ele>94.0</ele><time>2026-03-30T10:28:24Z</time></trkpt><trkpt lat="47.456006290606574" lon="0.33112794711999416"><ele>94.0</ele><time>2026-03-30T10:28:25Z</time></trkpt><trkpt lat="47.456067657222725" lon="0.3311493091082631"><ele>94.0</ele><time>2026-03-30T10:28:26Z</time></trkpt><trkpt lat="47.45613431976591" lon="0.331179481592936"><ele>94.0</ele><time>2026-03-30T10:28:27Z</time></trkpt><trkpt lat="47.456196471403025" lon="0.3312241842951256"><ele>93.80000000000001</ele><time>2026-03-30T10:28:28Z</time></trkpt><trkpt lat="47.45631054860954" lon="0.3312498427205084"><ele>93.60000000000001</ele><time>2026-03-30T10:28:30Z</time></trkpt><trkpt lat="47.45642171204007" lon="0.3313123673836657"><ele>93.4</ele><time>2026-03-30T10:28:32Z</time></trkpt><trkpt lat="47.4565368260368" lon="0.33135601967730366"><ele>93.2</ele><time>2026-03-30T10:28:34Z</time></trkpt><trkpt lat="47.45659406537427" lon="0.3314027205747569"><ele>93.0</ele><time>2026-03-30T10:28:35Z</time></trkpt><trkpt lat="47.45671031417281" lon="0.3314535479829873"><ele>93.0</ele><time>2026-03-30T10:28:37Z</time></trkpt><trkpt lat="47.45682294984505" lon="0.33150370221272135"><ele>93.0</ele><time>2026-03-30T10:28:39Z</time></trkpt><trkpt lat="47.4569291108937" lon="0.3315509714765049"><ele>93.0</ele><time>2026-03-30T10:28:41Z</time></trkpt><trkpt lat="47.45703596114738" lon="0.3315729704167782"><ele>93.0</ele><time>2026-03-30T10:28:43Z</time></trkpt><trkpt lat="47.45714239300809" lon="0.33160350301919467"><ele>93.0</ele><time>2026-03-30T10:28:45Z</time></trkpt><trkpt lat="47.4572378996881" lon="0.33165384767970985"><ele>92.75</ele><time>2026-03-30T10:28:47Z</time></trkpt><trkpt lat="47.45734292722686" lon="0.33170799694255554"><ele>92.5</ele><time>2026-03-30T10:28:49Z</time></trkpt><trkpt lat="47.45745605053767" lon="0.3317523545711485"><ele>92.25</ele><time>2026-03-30T10:28:51Z</time></trkpt><trkpt lat="47.45756723829258" lon="0.33179848087574726"><ele>92.0</ele><time>2026-03-30T10:28:53Z</time></trkpt><trkpt lat="47.45766696967439" lon="0.33185112382080406"><ele>92.0</ele><time>2026-03-30T10:28:55Z</time></trkpt><trkpt lat="47.4577720018069" lon="0.3319038474752792"><ele>92.0</ele><time>2026-03-30T10:28:57Z</time></trkpt><trkpt lat="47.45788120638956" lon="0.33197507638571294"><ele>92.0</ele><time>2026-03-30T10:28:59Z</time></trkpt><trkpt lat="47.457982398130035" lon="0.33202051072356087"><ele>92.0</ele><time>2026-03-30T10:29:01Z</time></trkpt><trkpt lat="47.458061965074776" lon="0.3320402463578331"><ele>92.0</ele><time>2026-03-30T10:29:03Z</time></trkpt><trkpt lat="47.45829059678665" lon="0.33215888961564727"><ele>92.0</ele><time>2026-03-30T10:29:06Z</time></trkpt><trkpt lat="47.45835553454761" lon="0.332188046185693"><ele>92.0</ele><time>2026-03-30T10:29:07Z</time></trkpt><trkpt lat="47.45846782652708" lon="0.3322382929213539"><ele>92.0</ele><time>2026-03-30T10:29:09Z</time></trkpt><trkpt lat="47.4585777061785" lon="0.3322866053027772"><ele>92.0</ele><time>2026-03-30T10:29:11Z</time></trkpt><trkpt lat="47.458684515112814" lon="0.3323335675356811"><ele>92.0</ele><time>2026-03-30T10:29:13Z</time></trkpt><trkpt lat="47.458785599710716" lon="0.3323780128659309"><ele>92.75</ele><time>2026-03-30T10:29:15Z</time></trkpt><trkpt lat="47.45889851165829" lon="0.3324276584984266"><ele>93.5</ele><time>2026-03-30T10:29:17Z</time></trkpt><trkpt lat="47.45901293587698" lon="0.3324779690535875"><ele>94.25</ele><time>2026-03-30T10:29:19Z</time></trkpt><trkpt lat="47.45912908464419" lon="0.332529325745001"><ele>95.0</ele><time>2026-03-30T10:29:21Z</time></trkpt><trkpt lat="47.45924409971431" lon="0.332580896923882"><ele>95.0</ele><time>2026-03-30T10:29:23Z</time></trkpt><trkpt lat="47.459315969529335" lon="0.33261312236518703"><ele>95.0</ele><time>2026-03-30T10:29:25Z</time></trkpt><trkpt lat="47.45941323500522" lon="0.33265673486915953"><ele>95.0</ele><time>2026-03-30T10:29:27Z</time></trkpt><trkpt lat="47.45952972965931" lon="0.33268478209163804"><ele>95.0</ele><time>2026-03-30T10:29:29Z</time></trkpt><trkpt lat="47.459592924040706" lon="0.3327124044126388"><ele>95.0</ele><time>2026-03-30T10:29:30Z</time></trkpt><trkpt lat="47.45968858592649" lon="0.3327644847377939"><ele>94.75</ele><time>2026-03-30T10:29:32Z</time></trkpt><trkpt lat="47.45980247314622" lon="0.3328078156862258"><ele>94.5</ele><time>2026-03-30T10:29:34Z</time></trkpt><trkpt lat="47.45991201139736" lon="0.3328553067466611"><ele>94.25</ele><time>2026-03-30T10:29:36Z</time></trkpt><trkpt lat="47.46001786257233" lon="0.3329263557858201"><ele>94.0</ele><time>2026-03-30T10:29:38Z</time></trkpt><trkpt lat="47.46012540947487" lon="0.33295651152994227"><ele>94.0</ele><time>2026-03-30T10:29:40Z</time></trkpt><trkpt lat="47.4602382009631" lon="0.33302283153437506"><ele>94.0</ele><time>2026-03-30T10:29:42Z</time></trkpt><trkpt lat="47.460355849170234" lon="0.3330743441126401"><ele>94.0</ele><time>2026-03-30T10:29:44Z</time></trkpt><trkpt lat="47.460472783522626" lon="0.3331255441286242"><ele>94.0</ele><time>2026-03-30T10:29:46Z</time></trkpt><trkpt lat="47.460536437722176" lon="0.33315341529207404"><ele>94.0</ele><time>2026-03-30T10:29:47Z</time></trkpt><trkpt lat="47.46065502543173" lon="0.3331843152673918"><ele>93.80000000000001</ele><time>2026-03-30T10:29:49Z</time></trkpt><trkpt lat="47.46071342551277" lon="0.33323090986651316"><ele>93.60000000000001</ele><time>2026-03-30T10:29:50Z</time></trkpt><trkpt lat="47.4607808172884" lon="0.33326041753427443"><ele>93.4</ele><time>2026-03-30T10:29:51Z</time></trkpt><trkpt lat="47.46084210743164" lon="0.33328725358511113"><ele>93.2</ele><time>2026-03-30T10:29:52Z</time></trkpt><trkpt lat="47.46096576577358" lon="0.3333413977188755"><ele>93.0</ele><time>2026-03-30T10:29:54.001Z</time></trkpt><trkpt lat="47.46108184256081" lon="0.3333922222471759"><ele>93.0</ele><time>2026-03-30T10:29:56.001Z</time></trkpt><trkpt lat="47.46114253691035" lon="0.33341879742838754"><ele>93.0</ele><time>2026-03-30T10:29:57.001Z</time></trkpt><trkpt lat="47.46126318462844" lon="0.33347290859870365"><ele>93.0</ele><time>2026-03-30T10:29:59.001Z</time></trkpt><trkpt lat="47.461325603164774" lon="0.3335007890776218"><ele>93.0</ele><time>2026-03-30T10:30:00.001Z</time></trkpt><trkpt lat="47.461387425015026" lon="0.3335284030344011"><ele>93.0</ele><time>2026-03-30T10:30:01.001Z</time></trkpt><trkpt lat="47.46150012520854" lon="0.33357874490694794"><ele>93.0</ele><time>2026-03-30T10:30:03.001Z</time></trkpt><trkpt lat="47.46161306080133" lon="0.3336297113000487"><ele>92.0</ele><time>2026-03-30T10:30:05.001Z</time></trkpt><trkpt lat="47.46173031952722" lon="0.3336828392603984"><ele>91.0</ele><time>2026-03-30T10:30:07.001Z</time></trkpt><trkpt lat="47.46184884009135" lon="0.3337128944415468"><ele>90.0</ele><time>2026-03-30T10:30:09.001Z</time></trkpt><trkpt lat="47.461956348731945" lon="0.33376466749824074"><ele>89.0</ele><time>2026-03-30T10:30:11.001Z</time></trkpt><trkpt lat="47.46207297620315" lon="0.3338244947484209"><ele>89.0</ele><time>2026-03-30T10:30:13.001Z</time></trkpt><trkpt lat="47.462184515667126" lon="0.3338771440764487"><ele>89.0</ele><time>2026-03-30T10:30:15Z</time></trkpt><trkpt lat="47.46229883172535" lon="0.3339249260572725"><ele>89.0</ele><time>2026-03-30T10:30:17Z</time></trkpt><trkpt lat="47.462410196136865" lon="0.3339738117835161"><ele>89.0</ele><time>2026-03-30T10:30:19Z</time></trkpt><trkpt lat="47.46252788173053" lon="0.33401871560153273"><ele>89.0</ele><time>2026-03-30T10:30:21Z</time></trkpt><trkpt lat="47.46263747764416" lon="0.33407065198097385"><ele>89.0</ele><time>2026-03-30T10:30:23Z</time></trkpt><trkpt lat="47.46275319515616" lon="0.33412109774837906"><ele>89.0</ele><time>2026-03-30T10:30:25Z</time></trkpt><trkpt lat="47.46286586443049" lon="0.3341794313126218"><ele>89.0</ele><time>2026-03-30T10:30:27Z</time></trkpt><trkpt lat="47.46298264478471" lon="0.3342287966693127"><ele>89.0</ele><time>2026-03-30T10:30:29Z</time></trkpt><trkpt lat="47.463094870582616" lon="0.3342783033706818"><ele>89.0</ele><time>2026-03-30T10:30:31Z</time></trkpt><trkpt lat="47.463206983767" lon="0.3343273169713205"><ele>89.0</ele><time>2026-03-30T10:30:33Z</time></trkpt><trkpt lat="47.463322088244375" lon="0.33437176449743544"><ele>89.0</ele><time>2026-03-30T10:30:35Z</time></trkpt><trkpt lat="47.463435680288256" lon="0.33442635935276316"><ele>89.0</ele><time>2026-03-30T10:30:37Z</time></trkpt><trkpt lat="47.463539149267014" lon="0.3344933270186761"><ele>89.0</ele><time>2026-03-30T10:30:39Z</time></trkpt><trkpt lat="47.463646819770844" lon="0.3345414290744068"><ele>89.0</ele><time>2026-03-30T10:30:41Z</time></trkpt><trkpt lat="47.46375644708207" lon="0.3345896521884515"><ele>89.0</ele><time>2026-03-30T10:30:43Z</time></trkpt><trkpt lat="47.46386538577587" lon="0.3346375723920879"><ele>89.0</ele><time>2026-03-30T10:30:45Z</time></trkpt><trkpt lat="47.46397429572505" lon="0.3346854799488417"><ele>89.0</ele><time>2026-03-30T10:30:47Z</time></trkpt><trkpt lat="47.464083862072314" lon="0.3347336762396807"><ele>89.0</ele><time>2026-03-30T10:30:49Z</time></trkpt><trkpt lat="47.46419246437756" lon="0.3347814484725237"><ele>89.0</ele><time>2026-03-30T10:30:51Z</time></trkpt><trkpt lat="47.46429965126781" lon="0.3348031902730373"><ele>89.0</ele><time>2026-03-30T10:30:53Z</time></trkpt><trkpt lat="47.46439428763541" lon="0.3348706524492345"><ele>89.0</ele><time>2026-03-30T10:30:55Z</time></trkpt><trkpt lat="47.46450662096585" lon="0.33489588133136683"><ele>89.0</ele><time>2026-03-30T10:30:57Z</time></trkpt><trkpt lat="47.46460979635557" lon="0.33496534055732435"><ele>89.0</ele><time>2026-03-30T10:30:59Z</time></trkpt><trkpt lat="47.464722048447804" lon="0.3349926338621909"><ele>89.0</ele><time>2026-03-30T10:31:01Z</time></trkpt><trkpt lat="47.464822046186306" lon="0.3350586440858172"><ele>89.0</ele><time>2026-03-30T10:31:03Z</time></trkpt><trkpt lat="47.464931270832714" lon="0.33508968450853815"><ele>89.0</ele><time>2026-03-30T10:31:05Z</time></trkpt><trkpt lat="47.46503990383538" lon="0.3351328110923325"><ele>89.0</ele><time>2026-03-30T10:31:07Z</time></trkpt><trkpt lat="47.46514483277396" lon="0.33517824007471464"><ele>89.0</ele><time>2026-03-30T10:31:09Z</time></trkpt><trkpt lat="47.465248234033275" lon="0.3352222651915772"><ele>89.0</ele><time>2026-03-30T10:31:11Z</time></trkpt><trkpt lat="47.46534585654619" lon="0.3352888825721089"><ele>88.75</ele><time>2026-03-30T10:31:13Z</time></trkpt><trkpt lat="47.46554175672134" lon="0.33537495635132464"><ele>88.5</ele><time>2026-03-30T10:31:16Z</time></trkpt><trkpt lat="47.465642826011305" lon="0.33541936375604814"><ele>88.25</ele><time>2026-03-30T10:31:18Z</time></trkpt><trkpt lat="47.465745896164286" lon="0.33546465027857736"><ele>88.0</ele><time>2026-03-30T10:31:20Z</time></trkpt><trkpt lat="47.46584387465266" lon="0.3355078786265821"><ele>88.0</ele><time>2026-03-30T10:31:22Z</time></trkpt><trkpt lat="47.46594201220252" lon="0.3355515961653112"><ele>88.0</ele><time>2026-03-30T10:31:24Z</time></trkpt><trkpt lat="47.46604134061574" lon="0.33559584420987576"><ele>88.0</ele><time>2026-03-30T10:31:26Z</time></trkpt><trkpt lat="47.4661453303088" lon="0.33564216872343006"><ele>88.0</ele><time>2026-03-30T10:31:28Z</time></trkpt><trkpt lat="47.4662438530881" lon="0.3356860578778238"><ele>88.0</ele><time>2026-03-30T10:31:30Z</time></trkpt><trkpt lat="47.46633835964565" lon="0.33572816009362566"><ele>88.2</ele><time>2026-03-30T10:31:32Z</time></trkpt><trkpt lat="47.466437949726625" lon="0.33577252470440966"><ele>88.4</ele><time>2026-03-30T10:31:34Z</time></trkpt><trkpt lat="47.466536292969906" lon="0.33581633388524496"><ele>88.60000000000001</ele><time>2026-03-30T10:31:36Z</time></trkpt><trkpt lat="47.46659965557786" lon="0.335819585667068"><ele>88.80000000000001</ele><time>2026-03-30T10:31:38Z</time></trkpt><trkpt lat="47.46670086880359" lon="0.33588964784185193"><ele>89.0</ele><time>2026-03-30T10:31:40Z</time></trkpt><trkpt lat="47.46679142055905" lon="0.33592998608425717"><ele>89.0</ele><time>2026-03-30T10:31:42Z</time></trkpt><trkpt lat="47.46688540323435" lon="0.33597185274531155"><ele>89.0</ele><time>2026-03-30T10:31:44Z</time></trkpt><trkpt lat="47.466983523057145" lon="0.33601533085318985"><ele>89.0</ele><time>2026-03-30T10:31:46Z</time></trkpt><trkpt lat="47.467084375741216" lon="0.3360595670460294"><ele>89.0</ele><time>2026-03-30T10:31:48Z</time></trkpt><trkpt lat="47.46718749480151" lon="0.33610479735059634"><ele>89.0</ele><time>2026-03-30T10:31:50Z</time></trkpt><trkpt lat="47.46728456319681" lon="0.3361473736504623"><ele>89.2</ele><time>2026-03-30T10:31:52Z</time></trkpt><trkpt lat="47.46742481020074" lon="0.3361506841890086"><ele>89.4</ele><time>2026-03-30T10:31:54Z</time></trkpt><trkpt lat="47.467523347465196" lon="0.33619592499730294"><ele>89.6</ele><time>2026-03-30T10:31:56Z</time></trkpt><trkpt lat="47.46761586671655" lon="0.33624223890480837"><ele>89.8</ele><time>2026-03-30T10:31:58Z</time></trkpt><trkpt lat="47.46771100933365" lon="0.33628286325010426"><ele>90.0</ele><time>2026-03-30T10:32:00.001Z</time></trkpt><trkpt lat="47.467805900711134" lon="0.33632630775462025"><ele>90.0</ele><time>2026-03-30T10:32:02.001Z</time></trkpt><trkpt lat="47.46789472683492" lon="0.33638195236222956"><ele>90.0</ele><time>2026-03-30T10:32:04.001Z</time></trkpt><trkpt lat="47.46798961989466" lon="0.336428213337435"><ele>90.0</ele><time>2026-03-30T10:32:06.001Z</time></trkpt><trkpt lat="47.46808272179534" lon="0.3364709831622005"><ele>90.0</ele><time>2026-03-30T10:32:08.001Z</time></trkpt><trkpt lat="47.46817872625263" lon="0.33651159247770407"><ele>90.0</ele><time>2026-03-30T10:32:10.001Z</time></trkpt><trkpt lat="47.46827006280039" lon="0.33655510161367047"><ele>89.8</ele><time>2026-03-30T10:32:12.001Z</time></trkpt><trkpt lat="47.46836024691069" lon="0.336589413529693"><ele>89.6</ele><time>2026-03-30T10:32:14.001Z</time></trkpt><trkpt lat="47.46845359591007" lon="0.33665502928179625"><ele>89.4</ele><time>2026-03-30T10:32:17.001Z</time></trkpt><trkpt lat="47.46857393813275" lon="0.3367107192013166"><ele>89.2</ele><time>2026-03-30T10:32:20Z</time></trkpt><trkpt lat="47.468635751361084" lon="0.3367389958197155"><ele>89.0</ele><time>2026-03-30T10:32:21Z</time></trkpt><trkpt lat="47.46872411201814" lon="0.33676029067299723"><ele>89.16666666666667</ele><time>2026-03-30T10:32:22Z</time></trkpt><trkpt lat="47.46880195476097" lon="0.33682395457731135"><ele>89.33333333333334</ele><time>2026-03-30T10:32:24Z</time></trkpt><trkpt lat="47.46886835038394" lon="0.3368538714132123"><ele>89.5</ele><time>2026-03-30T10:32:26Z</time></trkpt><trkpt lat="47.4689441524811" lon="0.33688865729004336"><ele>89.66666666666667</ele><time>2026-03-30T10:32:28Z</time></trkpt><trkpt lat="47.46903559187477" lon="0.33693197750184967"><ele>89.83333333333333</ele><time>2026-03-30T10:32:30Z</time></trkpt><trkpt lat="47.46913697423674" lon="0.3369819619320866"><ele>90.0</ele><time>2026-03-30T10:32:32Z</time></trkpt><trkpt lat="47.46924265255332" lon="0.337029333680437"><ele>90.0</ele><time>2026-03-30T10:32:34Z</time></trkpt><trkpt lat="47.46935560182092" lon="0.33707901520930783"><ele>90.0</ele><time>2026-03-30T10:32:36Z</time></trkpt><trkpt lat="47.46946863871453" lon="0.33712873525581355"><ele>90.0</ele><time>2026-03-30T10:32:38Z</time></trkpt><trkpt lat="47.469582989994635" lon="0.3371790334598101"><ele>90.0</ele><time>2026-03-30T10:32:40Z</time></trkpt><trkpt lat="47.46965423762576" lon="0.3371884986930092"><ele>90.0</ele><time>2026-03-30T10:32:42Z</time></trkpt><trkpt lat="47.469760190550936" lon="0.337233840956013"><ele>90.25</ele><time>2026-03-30T10:32:44Z</time></trkpt><trkpt lat="47.46985856632567" lon="0.3372929113448007"><ele>90.5</ele><time>2026-03-30T10:32:46Z</time></trkpt><trkpt lat="47.46997215814726" lon="0.33733711933982585"><ele>90.75</ele><time>2026-03-30T10:32:48Z</time></trkpt><trkpt lat="47.47008762304193" lon="0.33739155539479204"><ele>91.0</ele><time>2026-03-30T10:32:50Z</time></trkpt><trkpt lat="47.47020139217968" lon="0.33744175386616143"><ele>91.0</ele><time>2026-03-30T10:32:52Z</time></trkpt><trkpt lat="47.47031312341337" lon="0.3374844892783883"><ele>91.0</ele><time>2026-03-30T10:32:54Z</time></trkpt><trkpt lat="47.47042661491814" lon="0.33753461113217786"><ele>91.0</ele><time>2026-03-30T10:32:56Z</time></trkpt><trkpt lat="47.47053745471946" lon="0.337582224938889"><ele>91.0</ele><time>2026-03-30T10:32:58Z</time></trkpt><trkpt lat="47.47064230278425" lon="0.3376252307851954"><ele>91.0</ele><time>2026-03-30T10:33:00Z</time></trkpt><trkpt lat="47.470731541037075" lon="0.33768837194548534"><ele>91.0</ele><time>2026-03-30T10:33:02Z</time></trkpt><trkpt lat="47.4708211943051" lon="0.33770504111883537"><ele>91.0</ele><time>2026-03-30T10:33:05Z</time></trkpt><trkpt lat="47.47094232792024" lon="0.33778248674823297"><ele>91.0</ele><time>2026-03-30T10:33:06Z</time></trkpt><trkpt lat="47.47102543615156" lon="0.33781993661315673"><ele>91.0</ele><time>2026-03-30T10:33:08Z</time></trkpt><trkpt lat="47.47110046782246" lon="0.33785314574869635"><ele>91.0</ele><time>2026-03-30T10:33:10Z</time></trkpt><trkpt lat="47.47119330034207" lon="0.3378945279364761"><ele>91.0</ele><time>2026-03-30T10:33:12Z</time></trkpt><trkpt lat="47.47128784631568" lon="0.33793667611472505"><ele>91.0</ele><time>2026-03-30T10:33:14Z</time></trkpt><trkpt lat="47.4713843567388" lon="0.33797969777243786"><ele>91.0</ele><time>2026-03-30T10:33:16Z</time></trkpt><trkpt lat="47.47148054550912" lon="0.33802257603804436"><ele>91.0</ele><time>2026-03-30T10:33:18Z</time></trkpt><trkpt lat="47.47157572757491" lon="0.3380650056069205"><ele>91.33333333333333</ele><time>2026-03-30T10:33:20Z</time></trkpt><trkpt lat="47.47167855346899" lon="0.3381108425515025"><ele>91.66666666666666</ele><time>2026-03-30T10:33:22Z</time></trkpt><trkpt lat="47.471759635614035" lon="0.3381469868147552"><ele>92.0</ele><time>2026-03-30T10:33:24Z</time></trkpt><trkpt lat="47.47184455821418" lon="0.33816699637877357"><ele>92.33333333333333</ele><time>2026-03-30T10:33:27Z</time></trkpt><trkpt lat="47.471912173254346" lon="0.3381910665733259"><ele>92.66666666666667</ele><time>2026-03-30T10:33:29Z</time></trkpt><trkpt lat="47.47197786916012" lon="0.33822412622775627"><ele>93.0</ele><time>2026-03-30T10:33:31Z</time></trkpt><trkpt lat="47.472040264902034" lon="0.3382535612111188"><ele>92.75</ele><time>2026-03-30T10:33:33Z</time></trkpt><trkpt lat="47.472199030879004" lon="0.3383428570704012"><ele>92.5</ele><time>2026-03-30T10:33:35Z</time></trkpt><trkpt lat="47.47229222450207" lon="0.33838440014274446"><ele>92.25</ele><time>2026-03-30T10:33:37Z</time></trkpt><trkpt lat="47.472388101082494" lon="0.3384271392615204"><ele>92.0</ele><time>2026-03-30T10:33:39Z</time></trkpt><trkpt lat="47.47248191030078" lon="0.3384689568506717"><ele>92.0</ele><time>2026-03-30T10:33:41Z</time></trkpt><trkpt lat="47.47256323064006" lon="0.33850520721736416"><ele>92.0</ele><time>2026-03-30T10:33:43Z</time></trkpt><trkpt lat="47.47264155211067" lon="0.33854012076168505"><ele>92.0</ele><time>2026-03-30T10:33:45Z</time></trkpt><trkpt lat="47.47272795913681" lon="0.33857860038144366"><ele>92.0</ele><time>2026-03-30T10:33:47Z</time></trkpt><trkpt lat="47.47281686318995" lon="0.3386181827017258"><ele>92.0</ele><time>2026-03-30T10:33:49Z</time></trkpt><trkpt lat="47.47290455906204" lon="0.3386164229834764"><ele>92.0</ele><time>2026-03-30T10:33:51Z</time></trkpt><trkpt lat="47.47298670608594" lon="0.3386820698881616"><ele>92.39999999999999</ele><time>2026-03-30T10:33:54Z</time></trkpt><trkpt lat="47.473128050113026" lon="0.3387272067181206"><ele>92.8</ele><time>2026-03-30T10:33:56Z</time></trkpt><trkpt lat="47.4732222840199" lon="0.3387670073163142"><ele>93.2</ele><time>2026-03-30T10:33:58Z</time></trkpt><trkpt lat="47.473319381806014" lon="0.33879730875942227"><ele>93.6</ele><time>2026-03-30T10:34:00Z</time></trkpt><trkpt lat="47.47341102933507" lon="0.3388453639814648"><ele>94.0</ele><time>2026-03-30T10:34:02Z</time></trkpt><trkpt lat="47.47349955300005" lon="0.3388822172950055"><ele>94.0</ele><time>2026-03-30T10:34:04Z</time></trkpt><trkpt lat="47.473593742056714" lon="0.33892855579050224"><ele>94.0</ele><time>2026-03-30T10:34:06.001Z</time></trkpt><trkpt lat="47.473687234745924" lon="0.33896801479266786"><ele>94.0</ele><time>2026-03-30T10:34:08.001Z</time></trkpt><trkpt lat="47.47377356398304" lon="0.3390232088627528"><ele>94.0</ele><time>2026-03-30T10:34:10.001Z</time></trkpt><trkpt lat="47.47386626120925" lon="0.3390589724818811"><ele>94.0</ele><time>2026-03-30T10:34:12.001Z</time></trkpt><trkpt lat="47.47395984116235" lon="0.3390987938705464"><ele>94.0</ele><time>2026-03-30T10:34:14.001Z</time></trkpt><trkpt lat="47.47405063976547" lon="0.33914107984601355"><ele>94.0</ele><time>2026-03-30T10:34:16.001Z</time></trkpt><trkpt lat="47.474131759688134" lon="0.3391925137606997"><ele>94.0</ele><time>2026-03-30T10:34:19Z</time></trkpt><trkpt lat="47.474227121614256" lon="0.33922271606924487"><ele>94.0</ele><time>2026-03-30T10:34:20Z</time></trkpt><trkpt lat="47.47431859796277" lon="0.33925797824178894"><ele>94.0</ele><time>2026-03-30T10:34:22Z</time></trkpt><trkpt lat="47.47440869903543" lon="0.33930559345064876"><ele>94.0</ele><time>2026-03-30T10:34:24Z</time></trkpt><trkpt lat="47.47449774949337" lon="0.3393458135246468"><ele>94.0</ele><time>2026-03-30T10:34:26Z</time></trkpt><trkpt lat="47.47458926982486" lon="0.33938052249083417"><ele>94.0</ele><time>2026-03-30T10:34:28Z</time></trkpt><trkpt lat="47.47468024424726" lon="0.33941632896140655"><ele>94.0</ele><time>2026-03-30T10:34:30Z</time></trkpt><trkpt lat="47.4747716452402" lon="0.3394639656995036"><ele>94.0</ele><time>2026-03-30T10:34:32Z</time></trkpt><trkpt lat="47.47486805103042" lon="0.33950182398894424"><ele>94.0</ele><time>2026-03-30T10:34:34Z</time></trkpt><trkpt lat="47.47495877174322" lon="0.3395442276210448"><ele>94.0</ele><time>2026-03-30T10:34:36Z</time></trkpt><trkpt lat="47.47505170124569" lon="0.3395847491825681"><ele>94.0</ele><time>2026-03-30T10:34:38Z</time></trkpt><trkpt lat="47.475115027178184" lon="0.3396137894747046"><ele>94.0</ele><time>2026-03-30T10:34:40Z</time></trkpt><trkpt lat="47.47521503112445" lon="0.3396446134323412"><ele>94.0</ele><time>2026-03-30T10:34:42Z</time></trkpt><trkpt lat="47.475295384589096" lon="0.3396988482725329"><ele>94.0</ele><time>2026-03-30T10:34:44Z</time></trkpt><trkpt lat="47.47538145704095" lon="0.3397505947562002"><ele>94.4</ele><time>2026-03-30T10:34:46Z</time></trkpt><trkpt lat="47.475472777920686" lon="0.3397954040288486"><ele>94.80000000000001</ele><time>2026-03-30T10:34:48Z</time></trkpt><trkpt lat="47.47556728499803" lon="0.33983816944012396"><ele>95.19999999999999</ele><time>2026-03-30T10:34:50Z</time></trkpt><trkpt lat="47.47566310413675" lon="0.3398862411506147"><ele>95.6</ele><time>2026-03-30T10:34:52Z</time></trkpt><trkpt lat="47.475757249684285" lon="0.3399289825265024"><ele>96.0</ele><time>2026-03-30T10:34:54Z</time></trkpt><trkpt lat="47.475852771620644" lon="0.33997457702721745"><ele>96.0</ele><time>2026-03-30T10:34:56Z</time></trkpt><trkpt lat="47.4759487257016" lon="0.3400263780092921"><ele>96.0</ele><time>2026-03-30T10:34:58Z</time></trkpt><trkpt lat="47.4760463256125" lon="0.3400710529245728"><ele>96.0</ele><time>2026-03-30T10:35:00Z</time></trkpt><trkpt lat="47.47614817855882" lon="0.34011029934640497"><ele>96.0</ele><time>2026-03-30T10:35:02Z</time></trkpt><trkpt lat="47.4762499924219" lon="0.3401609792939006"><ele>96.0</ele><time>2026-03-30T10:35:04Z</time></trkpt><trkpt lat="47.476352241044246" lon="0.3402124189677837"><ele>95.8</ele><time>2026-03-30T10:35:06Z</time></trkpt><trkpt lat="47.476457602960146" lon="0.34026535149030723"><ele>95.6</ele><time>2026-03-30T10:35:08Z</time></trkpt><trkpt lat="47.47656007773063" lon="0.3403157549006075"><ele>95.4</ele><time>2026-03-30T10:35:10Z</time></trkpt><trkpt lat="47.47667158818904" lon="0.34035466566187844"><ele>95.2</ele><time>2026-03-30T10:35:12Z</time></trkpt><trkpt lat="47.47677020330591" lon="0.34042004276210525"><ele>95.0</ele><time>2026-03-30T10:35:14Z</time></trkpt><trkpt lat="47.47688022211412" lon="0.34046969987608183"><ele>95.0</ele><time>2026-03-30T10:35:16Z</time></trkpt><trkpt lat="47.476985856789724" lon="0.3405309615709988"><ele>95.0</ele><time>2026-03-30T10:35:18Z</time></trkpt><trkpt lat="47.47709068438142" lon="0.34058335667782547"><ele>95.0</ele><time>2026-03-30T10:35:20Z</time></trkpt><trkpt lat="47.477198467259335" lon="0.3406353383031817"><ele>95.0</ele><time>2026-03-30T10:35:22Z</time></trkpt><trkpt lat="47.47730579515144" lon="0.34069269947351566"><ele>94.8</ele><time>2026-03-30T10:35:24Z</time></trkpt><trkpt lat="47.477412666587384" lon="0.34074593724652"><ele>94.6</ele><time>2026-03-30T10:35:26Z</time></trkpt><trkpt lat="47.4775179887178" lon="0.3407953718102769"><ele>94.4</ele><time>2026-03-30T10:35:28Z</time></trkpt><trkpt lat="47.4776169236786" lon="0.34084143177498355"><ele>94.2</ele><time>2026-03-30T10:35:30Z</time></trkpt><trkpt lat="47.47770739399785" lon="0.34087786198730674"><ele>94.0</ele><time>2026-03-30T10:35:32Z</time></trkpt><trkpt lat="47.477787536354725" lon="0.3409249856746269"><ele>94.0</ele><time>2026-03-30T10:35:34Z</time></trkpt><trkpt lat="47.47786149853105" lon="0.3409615016856707"><ele>94.0</ele><time>2026-03-30T10:35:36Z</time></trkpt><trkpt lat="47.47793157220802" lon="0.34100774966170627"><ele>94.0</ele><time>2026-03-30T10:35:38Z</time></trkpt><trkpt lat="47.47801137107002" lon="0.3410379868624533"><ele>94.0</ele><time>2026-03-30T10:35:40Z</time></trkpt><trkpt lat="47.4781025899606" lon="0.3410531377820139"><ele>94.0</ele><time>2026-03-30T10:35:42Z</time></trkpt><trkpt lat="47.47819562553064" lon="0.3410677574399867"><ele>94.0</ele><time>2026-03-30T10:35:44Z</time></trkpt><trkpt lat="47.4782947850264" lon="0.3410870291532484"><ele>94.2</ele><time>2026-03-30T10:35:46Z</time></trkpt><trkpt lat="47.47839454695899" lon="0.34110632931649515"><ele>94.4</ele><time>2026-03-30T10:35:48Z</time></trkpt><trkpt lat="47.47849746935292" lon="0.3411241574547695"><ele>94.6</ele><time>2026-03-30T10:35:50Z</time></trkpt><trkpt lat="47.47860071297275" lon="0.34114293309706045"><ele>94.8</ele><time>2026-03-30T10:35:52Z</time></trkpt><trkpt lat="47.47871081957672" lon="0.34115649595258735"><ele>95.0</ele><time>2026-03-30T10:35:54Z</time></trkpt><trkpt lat="47.47881369054748" lon="0.34117538046665236"><ele>95.0</ele><time>2026-03-30T10:35:56Z</time></trkpt><trkpt lat="47.47891797863397" lon="0.34119059876899827"><ele>95.0</ele><time>2026-03-30T10:35:58Z</time></trkpt><trkpt lat="47.47902833184292" lon="0.34119301661299695"><ele>95.0</ele><time>2026-03-30T10:36:00Z</time></trkpt><trkpt lat="47.479133703011826" lon="0.3412161432484677"><ele>95.0</ele><time>2026-03-30T10:36:02Z</time></trkpt><trkpt lat="47.479244944040914" lon="0.34123393816553077"><ele>95.0</ele><time>2026-03-30T10:36:04Z</time></trkpt><trkpt lat="47.47935736473447" lon="0.34125647089501543"><ele>95.0</ele><time>2026-03-30T10:36:06Z</time></trkpt><trkpt lat="47.47949605995856" lon="0.34125824516492526"><ele>95.0</ele><time>2026-03-30T10:36:08Z</time></trkpt><trkpt lat="47.479609517263754" lon="0.34129552942361985"><ele>95.0</ele><time>2026-03-30T10:36:10Z</time></trkpt><trkpt lat="47.479675865523554" lon="0.3413008467454968"><ele>95.0</ele><time>2026-03-30T10:36:11Z</time></trkpt><trkpt lat="47.4797978650567" lon="0.34132671550166116"><ele>95.0</ele><time>2026-03-30T10:36:13Z</time></trkpt><trkpt lat="47.47986069126438" lon="0.3413336549721543"><ele>95.25</ele><time>2026-03-30T10:36:14Z</time></trkpt><trkpt lat="47.47998204280643" lon="0.34136276374225294"><ele>95.5</ele><time>2026-03-30T10:36:16Z</time></trkpt><trkpt lat="47.48010529159969" lon="0.3413790206318895"><ele>95.75</ele><time>2026-03-30T10:36:18Z</time></trkpt><trkpt lat="47.48022545063899" lon="0.34140139728451124"><ele>96.0</ele><time>2026-03-30T10:36:20Z</time></trkpt><trkpt lat="47.48034969892244" lon="0.3414302715277503"><ele>96.0</ele><time>2026-03-30T10:36:22Z</time></trkpt><trkpt lat="47.48046882436494" lon="0.34143959018655934"><ele>96.0</ele><time>2026-03-30T10:36:24Z</time></trkpt><trkpt lat="47.48058262546505" lon="0.3414686734636892"><ele>96.0</ele><time>2026-03-30T10:36:26Z</time></trkpt><trkpt lat="47.48069870560534" lon="0.3414917615807139"><ele>96.0</ele><time>2026-03-30T10:36:28Z</time></trkpt><trkpt lat="47.48080912035736" lon="0.34151263017255684"><ele>96.0</ele><time>2026-03-30T10:36:30Z</time></trkpt><trkpt lat="47.480926043028354" lon="0.34153214352818023"><ele>96.0</ele><time>2026-03-30T10:36:32Z</time></trkpt><trkpt lat="47.48103879236654" lon="0.34154630800421765"><ele>96.0</ele><time>2026-03-30T10:36:34Z</time></trkpt><trkpt lat="47.48114459967682" lon="0.3415745935136765"><ele>96.0</ele><time>2026-03-30T10:36:36Z</time></trkpt><trkpt lat="47.481251894782794" lon="0.341589291443627"><ele>96.0</ele><time>2026-03-30T10:36:38Z</time></trkpt><trkpt lat="47.4813609763403" lon="0.3416085287295076"><ele>97.0</ele><time>2026-03-30T10:36:40Z</time></trkpt><trkpt lat="47.481474171888806" lon="0.34162891249471516"><ele>98.0</ele><time>2026-03-30T10:36:42Z</time></trkpt><trkpt lat="47.48158932399322" lon="0.341637373642069"><ele>99.0</ele><time>2026-03-30T10:36:44Z</time></trkpt><trkpt lat="47.48170146816322" lon="0.3416588407456824"><ele>100.0</ele><time>2026-03-30T10:36:46Z</time></trkpt><trkpt lat="47.481814145585496" lon="0.34167507530617613"><ele>100.0</ele><time>2026-03-30T10:36:48Z</time></trkpt><trkpt lat="47.48192231250269" lon="0.341692115573724"><ele>100.0</ele><time>2026-03-30T10:36:50Z</time></trkpt><trkpt lat="47.48202845048424" lon="0.34170522668102365"><ele>100.0</ele><time>2026-03-30T10:36:52Z</time></trkpt><trkpt lat="47.48213687222753" lon="0.34171843248121325"><ele>100.0</ele><time>2026-03-30T10:36:54Z</time></trkpt><trkpt lat="47.48224558994304" lon="0.34173533346459506"><ele>100.0</ele><time>2026-03-30T10:36:56Z</time></trkpt><trkpt lat="47.48235919209381" lon="0.3417627535544928"><ele>100.0</ele><time>2026-03-30T10:36:58Z</time></trkpt><trkpt lat="47.48247930184306" lon="0.3417758396415582"><ele>100.0</ele><time>2026-03-30T10:37:00Z</time></trkpt><trkpt lat="47.48259691967762" lon="0.34179024147672843"><ele>100.0</ele><time>2026-03-30T10:37:02Z</time></trkpt><trkpt lat="47.48271440275792" lon="0.3418080007304621"><ele>100.0</ele><time>2026-03-30T10:37:04Z</time></trkpt><trkpt lat="47.48282990460387" lon="0.3418413136064266"><ele>99.0</ele><time>2026-03-30T10:37:06Z</time></trkpt><trkpt lat="47.48294652153495" lon="0.34185996841181654"><ele>98.0</ele><time>2026-03-30T10:37:08Z</time></trkpt><trkpt lat="47.48305874703448" lon="0.3418866961690837"><ele>97.0</ele><time>2026-03-30T10:37:10Z</time></trkpt><trkpt lat="47.483169852309565" lon="0.34190932186121187"><ele>96.0</ele><time>2026-03-30T10:37:12Z</time></trkpt><trkpt lat="47.483285047681285" lon="0.3419297179351007"><ele>96.0</ele><time>2026-03-30T10:37:14Z</time></trkpt><trkpt lat="47.48339806534644" lon="0.341955264421617"><ele>96.0</ele><time>2026-03-30T10:37:16Z</time></trkpt><trkpt lat="47.483508987854826" lon="0.34197196337604197"><ele>96.0</ele><time>2026-03-30T10:37:18Z</time></trkpt><trkpt lat="47.48361597477099" lon="0.34199868729934074"><ele>96.0</ele><time>2026-03-30T10:37:20Z</time></trkpt><trkpt lat="47.4837233246914" lon="0.342012122869259"><ele>96.0</ele><time>2026-03-30T10:37:22Z</time></trkpt><trkpt lat="47.48383365340054" lon="0.34203893012785014"><ele>96.0</ele><time>2026-03-30T10:37:24Z</time></trkpt><trkpt lat="47.48393797105525" lon="0.3420584261806908"><ele>96.0</ele><time>2026-03-30T10:37:26Z</time></trkpt><trkpt lat="47.48403858237585" lon="0.3420747909203877"><ele>96.0</ele><time>2026-03-30T10:37:28Z</time></trkpt><trkpt lat="47.48414113134931" lon="0.3420962887587338"><ele>96.0</ele><time>2026-03-30T10:37:30Z</time></trkpt><trkpt lat="47.48424227353115" lon="0.3421116350396336"><ele>96.0</ele><time>2026-03-30T10:37:32Z</time></trkpt><trkpt lat="47.484342759908216" lon="0.3421322674975446"><ele>96.0</ele><time>2026-03-30T10:37:34Z</time></trkpt><trkpt lat="47.48444031571876" lon="0.3421518264639727"><ele>96.0</ele><time>2026-03-30T10:37:36Z</time></trkpt><trkpt lat="47.48454122892679" lon="0.34216657358679964"><ele>96.0</ele><time>2026-03-30T10:37:38Z</time></trkpt><trkpt lat="47.4846460533046" lon="0.34218737825298584"><ele>96.0</ele><time>2026-03-30T10:37:40Z</time></trkpt><trkpt lat="47.484754830247745" lon="0.3422093043177797"><ele>96.0</ele><time>2026-03-30T10:37:42Z</time></trkpt><trkpt lat="47.48486494670103" lon="0.3422278648948935"><ele>96.4</ele><time>2026-03-30T10:37:44Z</time></trkpt><trkpt lat="47.48497601844067" lon="0.3422485535584841"><ele>96.8</ele><time>2026-03-30T10:37:46Z</time></trkpt><trkpt lat="47.48508759536103" lon="0.34226543553163624"><ele>97.2</ele><time>2026-03-30T10:37:48Z</time></trkpt><trkpt lat="47.48519705020549" lon="0.3422823544531777"><ele>97.60000000000001</ele><time>2026-03-30T10:37:50Z</time></trkpt><trkpt lat="47.485306934346866" lon="0.3422938029165594"><ele>98.0</ele><time>2026-03-30T10:37:52Z</time></trkpt><trkpt lat="47.48541834220195" lon="0.3423220068903995"><ele>97.80000000000001</ele><time>2026-03-30T10:37:54Z</time></trkpt><trkpt lat="47.48552823143018" lon="0.3423366490379268"><ele>97.6</ele><time>2026-03-30T10:37:56Z</time></trkpt><trkpt lat="47.48563724767548" lon="0.3423509869633626"><ele>97.4</ele><time>2026-03-30T10:37:58Z</time></trkpt><trkpt lat="47.485748836379244" lon="0.3423729501147369"><ele>97.19999999999999</ele><time>2026-03-30T10:38:00Z</time></trkpt><trkpt lat="47.48586481088236" lon="0.3423905555176481"><ele>97.0</ele><time>2026-03-30T10:38:02Z</time></trkpt><trkpt lat="47.48598206117673" lon="0.3424143690124648"><ele>97.0</ele><time>2026-03-30T10:38:04Z</time></trkpt><trkpt lat="47.48610195720986" lon="0.3424347928356781"><ele>97.0</ele><time>2026-03-30T10:38:06Z</time></trkpt><trkpt lat="47.48622141160076" lon="0.34245312902990005"><ele>97.0</ele><time>2026-03-30T10:38:08Z</time></trkpt><trkpt lat="47.48628431898788" lon="0.3424652941919477"><ele>97.0</ele><time>2026-03-30T10:38:09Z</time></trkpt><trkpt lat="47.486404140717326" lon="0.3424834345713469"><ele>97.0</ele><time>2026-03-30T10:38:10.999Z</time></trkpt><trkpt lat="47.48652103421443" lon="0.3424986920911757"><ele>97.0</ele><time>2026-03-30T10:38:12.999Z</time></trkpt><trkpt lat="47.48663885375056" lon="0.3425188705063792"><ele>97.0</ele><time>2026-03-30T10:38:14.999Z</time></trkpt><trkpt lat="47.486760511236" lon="0.3425403921548944"><ele>97.0</ele><time>2026-03-30T10:38:16.999Z</time></trkpt><trkpt lat="47.48687545330733" lon="0.3425543848256582"><ele>97.0</ele><time>2026-03-30T10:38:19Z</time></trkpt><trkpt lat="47.48699065784595" lon="0.34256323094719315"><ele>96.75</ele><time>2026-03-30T10:38:21Z</time></trkpt><trkpt lat="47.48710624753767" lon="0.3425726205775509"><ele>96.5</ele><time>2026-03-30T10:38:23Z</time></trkpt><trkpt lat="47.48721809802894" lon="0.3425881674482548"><ele>96.25</ele><time>2026-03-30T10:38:25Z</time></trkpt><trkpt lat="47.48733421751173" lon="0.3425813409647681"><ele>96.0</ele><time>2026-03-30T10:38:27Z</time></trkpt><trkpt lat="47.48744881763376" lon="0.3425818740836683"><ele>96.0</ele><time>2026-03-30T10:38:29Z</time></trkpt><trkpt lat="47.48756541960202" lon="0.34258399805579826"><ele>96.0</ele><time>2026-03-30T10:38:31Z</time></trkpt><trkpt lat="47.487680292216936" lon="0.3425851282199825"><ele>96.0</ele><time>2026-03-30T10:38:33Z</time></trkpt><trkpt lat="47.48779155502948" lon="0.3425841237328174"><ele>96.0</ele><time>2026-03-30T10:38:35Z</time></trkpt><trkpt lat="47.48790165839116" lon="0.342589017304782"><ele>96.0</ele><time>2026-03-30T10:38:37Z</time></trkpt><trkpt lat="47.48801336023806" lon="0.3425815006185841"><ele>96.0</ele><time>2026-03-30T10:38:39Z</time></trkpt><trkpt lat="47.488121292268005" lon="0.3425876889707045"><ele>96.0</ele><time>2026-03-30T10:38:41Z</time></trkpt><trkpt lat="47.48823020841999" lon="0.34259248769889844"><ele>96.0</ele><time>2026-03-30T10:38:43Z</time></trkpt><trkpt lat="47.488337666469135" lon="0.34259567336690455"><ele>96.0</ele><time>2026-03-30T10:38:45Z</time></trkpt><trkpt lat="47.48844604033927" lon="0.3425842607485478"><ele>96.0</ele><time>2026-03-30T10:38:47Z</time></trkpt><trkpt lat="47.488551488309255" lon="0.34258632515472287"><ele>96.0</ele><time>2026-03-30T10:38:49Z</time></trkpt><trkpt lat="47.488654097445334" lon="0.3425865444584032"><ele>96.0</ele><time>2026-03-30T10:38:51Z</time></trkpt><trkpt lat="47.48875664161368" lon="0.3425791460611469"><ele>96.0</ele><time>2026-03-30T10:38:53Z</time></trkpt><trkpt lat="47.488856902916694" lon="0.34258302854224615"><ele>96.0</ele><time>2026-03-30T10:38:55Z</time></trkpt><trkpt lat="47.48895687479744" lon="0.34258272117929595"><ele>96.0</ele><time>2026-03-30T10:38:57Z</time></trkpt><trkpt lat="47.48905819154717" lon="0.34257918698809575"><ele>96.0</ele><time>2026-03-30T10:38:59Z</time></trkpt><trkpt lat="47.48915659553464" lon="0.3425710896505752"><ele>96.0</ele><time>2026-03-30T10:39:01Z</time></trkpt><trkpt lat="47.48925781769702" lon="0.3425646259673106"><ele>96.0</ele><time>2026-03-30T10:39:03Z</time></trkpt><trkpt lat="47.489353243778794" lon="0.34256446969912374"><ele>96.0</ele><time>2026-03-30T10:39:05Z</time></trkpt><trkpt lat="47.489447824064804" lon="0.34256118094494764"><ele>96.0</ele><time>2026-03-30T10:39:07Z</time></trkpt><trkpt lat="47.48954331486483" lon="0.3425615099957624"><ele>96.0</ele><time>2026-03-30T10:39:09Z</time></trkpt><trkpt lat="47.48963989031794" lon="0.34255696799713925"><ele>96.0</ele><time>2026-03-30T10:39:11Z</time></trkpt><trkpt lat="47.48973647794882" lon="0.3425524737395349"><ele>96.0</ele><time>2026-03-30T10:39:13Z</time></trkpt><trkpt lat="47.48983494494868" lon="0.342550751889734"><ele>96.0</ele><time>2026-03-30T10:39:15Z</time></trkpt><trkpt lat="47.489939637786264" lon="0.34254553599137827"><ele>96.0</ele><time>2026-03-30T10:39:17Z</time></trkpt><trkpt lat="47.49004535272681" lon="0.3425428931211462"><ele>96.0</ele><time>2026-03-30T10:39:19Z</time></trkpt><trkpt lat="47.4901495954155" lon="0.3425386499356345"><ele>96.0</ele><time>2026-03-30T10:39:21Z</time></trkpt><trkpt lat="47.49025173327721" lon="0.34252762683731086"><ele>96.0</ele><time>2026-03-30T10:39:23Z</time></trkpt><trkpt lat="47.49035705600887" lon="0.3425224222303371"><ele>96.0</ele><time>2026-03-30T10:39:25Z</time></trkpt><trkpt lat="47.49046109788489" lon="0.3425150161568077"><ele>96.19999999999999</ele><time>2026-03-30T10:39:27Z</time></trkpt><trkpt lat="47.490564198410354" lon="0.3425054568027727"><ele>96.39999999999999</ele><time>2026-03-30T10:39:29Z</time></trkpt><trkpt lat="47.49066298621126" lon="0.34250253472539244"><ele>96.6</ele><time>2026-03-30T10:39:31Z</time></trkpt><trkpt lat="47.49075770025504" lon="0.3424756677504711"><ele>96.8</ele><time>2026-03-30T10:39:33Z</time></trkpt><trkpt lat="47.49085437651398" lon="0.34243392018989616"><ele>97.0</ele><time>2026-03-30T10:39:35Z</time></trkpt><trkpt lat="47.49094860071957" lon="0.3423855951727221"><ele>97.0</ele><time>2026-03-30T10:39:37Z</time></trkpt><trkpt lat="47.491048410252" lon="0.34233568627828553"><ele>97.0</ele><time>2026-03-30T10:39:39Z</time></trkpt><trkpt lat="47.49114160261933" lon="0.34226986600305404"><ele>97.0</ele><time>2026-03-30T10:39:41Z</time></trkpt><trkpt lat="47.49123725440719" lon="0.34219832175552"><ele>97.0</ele><time>2026-03-30T10:39:43Z</time></trkpt><trkpt lat="47.49133708234894" lon="0.3421181270730621"><ele>97.0</ele><time>2026-03-30T10:39:45Z</time></trkpt><trkpt lat="47.49144316701326" lon="0.3420459546388501"><ele>96.6</ele><time>2026-03-30T10:39:47Z</time></trkpt><trkpt lat="47.491546138215554" lon="0.3419707682545988"><ele>96.19999999999999</ele><time>2026-03-30T10:39:49Z</time></trkpt><trkpt lat="47.49164343346185" lon="0.3418928737449766"><ele>95.8</ele><time>2026-03-30T10:39:51Z</time></trkpt><trkpt lat="47.49173446640196" lon="0.3418120795317908"><ele>95.4</ele><time>2026-03-30T10:39:53Z</time></trkpt><trkpt lat="47.491833675960414" lon="0.3417409202094011"><ele>95.0</ele><time>2026-03-30T10:39:55Z</time></trkpt><trkpt lat="47.49192126977481" lon="0.34164092445991295"><ele>95.0</ele><time>2026-03-30T10:39:57Z</time></trkpt><trkpt lat="47.49200862797646" lon="0.3415405523722215"><ele>95.0</ele><time>2026-03-30T10:39:59Z</time></trkpt><trkpt lat="47.49209285282391" lon="0.3414296829161774"><ele>95.0</ele><time>2026-03-30T10:40:01Z</time></trkpt><trkpt lat="47.492170384006826" lon="0.341314767379013"><ele>95.0</ele><time>2026-03-30T10:40:03Z</time></trkpt><trkpt lat="47.492249168473045" lon="0.34118925145889006"><ele>95.0</ele><time>2026-03-30T10:40:04.999Z</time></trkpt><trkpt lat="47.49232329514143" lon="0.34105395817308104"><ele>94.75</ele><time>2026-03-30T10:40:06.999Z</time></trkpt><trkpt lat="47.492400727772925" lon="0.3409164470835557"><ele>94.5</ele><time>2026-03-30T10:40:08.999Z</time></trkpt><trkpt lat="47.492488701208735" lon="0.3407845975614657"><ele>94.25</ele><time>2026-03-30T10:40:10.999Z</time></trkpt><trkpt lat="47.4925663173806" lon="0.3406479568094549"><ele>94.0</ele><time>2026-03-30T10:40:12.999Z</time></trkpt><trkpt lat="47.49264825798389" lon="0.3405115491986662"><ele>93.83333333333333</ele><time>2026-03-30T10:40:14.999Z</time></trkpt><trkpt lat="47.49269131203795" lon="0.34044316051087864"><ele>93.66666666666666</ele><time>2026-03-30T10:40:15.999Z</time></trkpt><trkpt lat="47.492735080859525" lon="0.34037541794254367"><ele>93.5</ele><time>2026-03-30T10:40:16.999Z</time></trkpt><trkpt lat="47.49278094582569" lon="0.3403109035939065"><ele>93.33333333333333</ele><time>2026-03-30T10:40:17.999Z</time></trkpt><trkpt lat="47.49282198692903" lon="0.3402393398431014"><ele>93.16666666666667</ele><time>2026-03-30T10:40:18.999Z</time></trkpt><trkpt lat="47.4929010458497" lon="0.34010028977133244"><ele>93.0</ele><time>2026-03-30T10:40:20.999Z</time></trkpt><trkpt lat="47.492983509772976" lon="0.33996774700872967"><ele>93.4</ele><time>2026-03-30T10:40:22.999Z</time></trkpt><trkpt lat="47.493059156113816" lon="0.33983807158976165"><ele>93.80000000000001</ele><time>2026-03-30T10:40:25Z</time></trkpt><trkpt lat="47.49312811069764" lon="0.33971825401894307"><ele>94.2</ele><time>2026-03-30T10:40:27Z</time></trkpt><trkpt lat="47.4932022489738" lon="0.33960569785714445"><ele>94.6</ele><time>2026-03-30T10:40:29Z</time></trkpt><trkpt lat="47.49327305816261" lon="0.3394912635479238"><ele>95.0</ele><time>2026-03-30T10:40:31Z</time></trkpt><trkpt lat="47.493339735525616" lon="0.33938213939730544"><ele>95.0</ele><time>2026-03-30T10:40:33Z</time></trkpt><trkpt lat="47.493398896705976" lon="0.3392780875058776"><ele>95.0</ele><time>2026-03-30T10:40:35Z</time></trkpt><trkpt lat="47.49345938187226" lon="0.3391870086372204"><ele>95.0</ele><time>2026-03-30T10:40:37Z</time></trkpt><trkpt lat="47.49351273212715" lon="0.33909851780129097"><ele>95.0</ele><time>2026-03-30T10:40:39Z</time></trkpt><trkpt lat="47.493558124794895" lon="0.3390068441030787"><ele>95.0</ele><time>2026-03-30T10:40:41Z</time></trkpt><trkpt lat="47.493607612722904" lon="0.33892394394055836"><ele>95.0</ele><time>2026-03-30T10:40:43Z</time></trkpt><trkpt lat="47.493658441051025" lon="0.3388442667768178"><ele>95.14285714285714</ele><time>2026-03-30T10:40:45Z</time></trkpt><trkpt lat="47.49370820650593" lon="0.3387639655011575"><ele>95.28571428571429</ele><time>2026-03-30T10:40:47Z</time></trkpt><trkpt lat="47.49375928030148" lon="0.33868185412275265"><ele>95.42857142857142</ele><time>2026-03-30T10:40:49Z</time></trkpt><trkpt lat="47.493810409223244" lon="0.33860105358747566"><ele>95.57142857142857</ele><time>2026-03-30T10:40:51Z</time></trkpt><trkpt lat="47.49385829747162" lon="0.3385149797255135"><ele>95.71428571428571</ele><time>2026-03-30T10:40:53Z</time></trkpt><trkpt lat="47.49390816416598" lon="0.33844010431621274"><ele>95.85714285714285</ele><time>2026-03-30T10:40:55Z</time></trkpt><trkpt lat="47.493953137300444" lon="0.338360167078473"><ele>96.0</ele><time>2026-03-30T10:40:57Z</time></trkpt><trkpt lat="47.49399871014363" lon="0.3382818706102723"><ele>96.0</ele><time>2026-03-30T10:40:59Z</time></trkpt><trkpt lat="47.49404898594802" lon="0.3382078875824273"><ele>96.0</ele><time>2026-03-30T10:41:01Z</time></trkpt><trkpt lat="47.49409575098399" lon="0.3381218154106266"><ele>96.0</ele><time>2026-03-30T10:41:03Z</time></trkpt><trkpt lat="47.494146698595706" lon="0.3380380776001046"><ele>96.0</ele><time>2026-03-30T10:41:05Z</time></trkpt><trkpt lat="47.49420505226134" lon="0.3379541185785078"><ele>96.0</ele><time>2026-03-30T10:41:07Z</time></trkpt><trkpt lat="47.49425936556067" lon="0.3378653899007235"><ele>96.0</ele><time>2026-03-30T10:41:09Z</time></trkpt><trkpt lat="47.49430773632212" lon="0.33777321602350646"><ele>95.99999999999999</ele><time>2026-03-30T10:41:11Z</time></trkpt><trkpt lat="47.494363494415175" lon="0.33768740517589785"><ele>96.0</ele><time>2026-03-30T10:41:13Z</time></trkpt><trkpt lat="47.49441053042486" lon="0.3376027055028035"><ele>96.0</ele><time>2026-03-30T10:41:15Z</time></trkpt><trkpt lat="47.49445539330199" lon="0.3375218491839375"><ele>96.0</ele><time>2026-03-30T10:41:17Z</time></trkpt><trkpt lat="47.49449962713793" lon="0.33745097085606157"><ele>96.0</ele><time>2026-03-30T10:41:19Z</time></trkpt><trkpt lat="47.49454859785411" lon="0.33736701189402984"><ele>95.99999999999999</ele><time>2026-03-30T10:41:21Z</time></trkpt><trkpt lat="47.49459283653585" lon="0.33729562267713986"><ele>96.0</ele><time>2026-03-30T10:41:23Z</time></trkpt><trkpt lat="47.49465347271958" lon="0.3371933255845138"><ele>95.8</ele><time>2026-03-30T10:41:25Z</time></trkpt><trkpt lat="47.494708005333244" lon="0.337091159241532"><ele>95.6</ele><time>2026-03-30T10:41:27Z</time></trkpt><trkpt lat="47.49477105828844" lon="0.33699463130743273"><ele>95.4</ele><time>2026-03-30T10:41:29Z</time></trkpt><trkpt lat="47.494835803865314" lon="0.3368952177514568"><ele>95.2</ele><time>2026-03-30T10:41:31Z</time></trkpt><trkpt lat="47.494898163419265" lon="0.3367908775114928"><ele>95.0</ele><time>2026-03-30T10:41:33Z</time></trkpt><trkpt lat="47.49496541839154" lon="0.3366870327272664"><ele>95.0</ele><time>2026-03-30T10:41:35Z</time></trkpt><trkpt lat="47.49502279097805" lon="0.3365872461543182"><ele>95.0</ele><time>2026-03-30T10:41:37Z</time></trkpt><trkpt lat="47.49508601573313" lon="0.3364862413804614"><ele>95.0</ele><time>2026-03-30T10:41:39Z</time></trkpt><trkpt lat="47.49514603068082" lon="0.3363867084853378"><ele>95.0</ele><time>2026-03-30T10:41:41Z</time></trkpt><trkpt lat="47.49528367970748" lon="0.3361989406154334"><ele>94.83333333333334</ele><time>2026-03-30T10:41:45Z</time></trkpt><trkpt lat="47.49532763110688" lon="0.3361175898863545"><ele>94.66666666666667</ele><time>2026-03-30T10:41:47Z</time></trkpt><trkpt lat="47.49538126475781" lon="0.3360580837857595"><ele>94.5</ele><time>2026-03-30T10:41:49Z</time></trkpt><trkpt lat="47.49545201272953" lon="0.33596515627702467"><ele>94.33333333333333</ele><time>2026-03-30T10:41:52Z</time></trkpt><trkpt lat="47.4955066904303" lon="0.3358852698799693"><ele>94.16666666666666</ele><time>2026-03-30T10:41:54Z</time></trkpt><trkpt lat="47.49556367951766" lon="0.33579827475713014"><ele>94.0</ele><time>2026-03-30T10:41:56Z</time></trkpt><trkpt lat="47.49562365939199" lon="0.33571316453795397"><ele>94.4</ele><time>2026-03-30T10:41:58Z</time></trkpt><trkpt lat="47.495686173508815" lon="0.3356338600270944"><ele>94.80000000000001</ele><time>2026-03-30T10:41:59.999Z</time></trkpt><trkpt lat="47.4957424272099" lon="0.335509732452848"><ele>95.19999999999999</ele><time>2026-03-30T10:42:02.999Z</time></trkpt><trkpt lat="47.49580709587644" lon="0.3354120043047997"><ele>95.6</ele><time>2026-03-30T10:42:04.999Z</time></trkpt><trkpt lat="47.4958796125305" lon="0.33532617113871627"><ele>96.0</ele><time>2026-03-30T10:42:06.999Z</time></trkpt><trkpt lat="47.49594895873982" lon="0.335236007604908"><ele>96.0</ele><time>2026-03-30T10:42:08.999Z</time></trkpt><trkpt lat="47.496016366862406" lon="0.33514962917039726"><ele>96.0</ele><time>2026-03-30T10:42:10.999Z</time></trkpt><trkpt lat="47.496082224448806" lon="0.3350602307445204"><ele>96.0</ele><time>2026-03-30T10:42:12.999Z</time></trkpt><trkpt lat="47.4961481932018" lon="0.3349761861183055"><ele>96.0</ele><time>2026-03-30T10:42:14.999Z</time></trkpt><trkpt lat="47.496211281476846" lon="0.3348895839440433"><ele>96.0</ele><time>2026-03-30T10:42:16.999Z</time></trkpt><trkpt lat="47.49628597377522" lon="0.3348126060320073"><ele>96.0</ele><time>2026-03-30T10:42:18.999Z</time></trkpt><trkpt lat="47.49635079906066" lon="0.3347346869592591"><ele>96.0</ele><time>2026-03-30T10:42:20.999Z</time></trkpt><trkpt lat="47.496415158212" lon="0.33464878782372054"><ele>96.0</ele><time>2026-03-30T10:42:22.999Z</time></trkpt><trkpt lat="47.49647785729129" lon="0.3345480128027314"><ele>96.0</ele><time>2026-03-30T10:42:24.999Z</time></trkpt><trkpt lat="47.49654347169679" lon="0.33445535400262727"><ele>96.0</ele><time>2026-03-30T10:42:26.999Z</time></trkpt><trkpt lat="47.496608955380566" lon="0.33437736424566844"><ele>96.0</ele><time>2026-03-30T10:42:28.999Z</time></trkpt><trkpt lat="47.49666536694068" lon="0.3342934783947917"><ele>96.0</ele><time>2026-03-30T10:42:31Z</time></trkpt><trkpt lat="47.49673363558586" lon="0.3342221674298353"><ele>96.0</ele><time>2026-03-30T10:42:33Z</time></trkpt><trkpt lat="47.496799358569554" lon="0.3341435000141585"><ele>96.0</ele><time>2026-03-30T10:42:35Z</time></trkpt><trkpt lat="47.49686310588445" lon="0.33406589324280483"><ele>96.0</ele><time>2026-03-30T10:42:37Z</time></trkpt><trkpt lat="47.496927149225485" lon="0.33398555937731894"><ele>96.0</ele><time>2026-03-30T10:42:39Z</time></trkpt><trkpt lat="47.49698817076824" lon="0.33390321293690967"><ele>96.0</ele><time>2026-03-30T10:42:41Z</time></trkpt><trkpt lat="47.49705154715196" lon="0.33382781208390605"><ele>96.0</ele><time>2026-03-30T10:42:43Z</time></trkpt><trkpt lat="47.497112691776245" lon="0.3337480878697879"><ele>96.16666666666667</ele><time>2026-03-30T10:42:45Z</time></trkpt><trkpt lat="47.49717705487083" lon="0.33366896844411326"><ele>96.33333333333334</ele><time>2026-03-30T10:42:47Z</time></trkpt><trkpt lat="47.4972362960316" lon="0.3335861459314695"><ele>96.5</ele><time>2026-03-30T10:42:49Z</time></trkpt><trkpt lat="47.49729634390799" lon="0.3335170859497407"><ele>96.66666666666667</ele><time>2026-03-30T10:42:51Z</time></trkpt><trkpt lat="47.49735984492515" lon="0.33344129409087286"><ele>96.83333333333334</ele><time>2026-03-30T10:42:53Z</time></trkpt><trkpt lat="47.49741890978981" lon="0.333360441878459"><ele>97.0</ele><time>2026-03-30T10:42:55Z</time></trkpt><trkpt lat="47.497481132043326" lon="0.3332842860373117"><ele>97.00000000000001</ele><time>2026-03-30T10:42:57Z</time></trkpt><trkpt lat="47.497539976804134" lon="0.33320234199599885"><ele>97.0</ele><time>2026-03-30T10:42:59Z</time></trkpt><trkpt lat="47.49759925999982" lon="0.3331275326898804"><ele>97.0</ele><time>2026-03-30T10:43:01Z</time></trkpt><trkpt lat="47.49765769003677" lon="0.33304602385408405"><ele>97.0</ele><time>2026-03-30T10:43:03Z</time></trkpt><trkpt lat="47.49771846849257" lon="0.3329667266183073"><ele>97.00000000000001</ele><time>2026-03-30T10:43:05Z</time></trkpt><trkpt lat="47.49777897691728" lon="0.3328802629386941"><ele>97.0</ele><time>2026-03-30T10:43:07Z</time></trkpt><trkpt lat="47.49784890238291" lon="0.33280144630317665"><ele>97.16666666666667</ele><time>2026-03-30T10:43:09Z</time></trkpt><trkpt lat="47.49791429540527" lon="0.3327164230955915"><ele>97.33333333333334</ele><time>2026-03-30T10:43:11Z</time></trkpt><trkpt lat="47.497980321633335" lon="0.33263766532315037"><ele>97.5</ele><time>2026-03-30T10:43:13Z</time></trkpt><trkpt lat="47.498046621332655" lon="0.3325552945200421"><ele>97.66666666666666</ele><time>2026-03-30T10:43:15Z</time></trkpt><trkpt lat="47.49811281515858" lon="0.3324715112519833"><ele>97.83333333333333</ele><time>2026-03-30T10:43:17Z</time></trkpt><trkpt lat="47.4981767571117" lon="0.33238652614862"><ele>98.0</ele><time>2026-03-30T10:43:19Z</time></trkpt><trkpt lat="47.498239693393494" lon="0.3323019630628949"><ele>97.99999999999999</ele><time>2026-03-30T10:43:21Z</time></trkpt><trkpt lat="47.4983067338144" lon="0.3322231486743176"><ele>98.0</ele><time>2026-03-30T10:43:23Z</time></trkpt><trkpt lat="47.498370207311524" lon="0.33214055766388884"><ele>98.0</ele><time>2026-03-30T10:43:25Z</time></trkpt><trkpt lat="47.49843833071121" lon="0.3320554965761818"><ele>98.0</ele><time>2026-03-30T10:43:27Z</time></trkpt><trkpt lat="47.49850637317251" lon="0.3319687939247169"><ele>97.99999999999999</ele><time>2026-03-30T10:43:29Z</time></trkpt><trkpt lat="47.4985748305792" lon="0.3318853478064633"><ele>98.0</ele><time>2026-03-30T10:43:31Z</time></trkpt><trkpt lat="47.498639815768875" lon="0.33179180063237224"><ele>97.99999999999999</ele><time>2026-03-30T10:43:33Z</time></trkpt><trkpt lat="47.4987083775463" lon="0.3316988784648768"><ele>98.0</ele><time>2026-03-30T10:43:35Z</time></trkpt><trkpt lat="47.49877471707339" lon="0.3316193070161734"><ele>98.0</ele><time>2026-03-30T10:43:37Z</time></trkpt><trkpt lat="47.49883872966867" lon="0.3315342975259034"><ele>98.0</ele><time>2026-03-30T10:43:39Z</time></trkpt><trkpt lat="47.49889868537235" lon="0.3314521408721715"><ele>97.99999999999999</ele><time>2026-03-30T10:43:41Z</time></trkpt><trkpt lat="47.498962817314315" lon="0.3313754334049671"><ele>98.0</ele><time>2026-03-30T10:43:43Z</time></trkpt><trkpt lat="47.499021933818085" lon="0.33129046574197585"><ele>98.28571428571429</ele><time>2026-03-30T10:43:45Z</time></trkpt><trkpt lat="47.49908043224869" lon="0.33121731005119276"><ele>98.57142857142857</ele><time>2026-03-30T10:43:47Z</time></trkpt><trkpt lat="47.49913918630464" lon="0.3311507902497667"><ele>98.85714285714286</ele><time>2026-03-30T10:43:49Z</time></trkpt><trkpt lat="47.49919589134604" lon="0.3310796513381238"><ele>99.14285714285714</ele><time>2026-03-30T10:43:51Z</time></trkpt><trkpt lat="47.49925211761012" lon="0.331004907426253"><ele>99.42857142857143</ele><time>2026-03-30T10:43:53Z</time></trkpt><trkpt lat="47.499305466805" lon="0.3309297716272114"><ele>99.71428571428572</ele><time>2026-03-30T10:43:55Z</time></trkpt><trkpt lat="47.4993643309035" lon="0.3308641129229447"><ele>100.0</ele><time>2026-03-30T10:43:57Z</time></trkpt><trkpt lat="47.49941548200491" lon="0.3307993457238479"><ele>100.00000000000001</ele><time>2026-03-30T10:43:59Z</time></trkpt><trkpt lat="47.4994633244033" lon="0.3307369762781173"><ele>100.0</ele><time>2026-03-30T10:44:00.999Z</time></trkpt><trkpt lat="47.49952163332313" lon="0.33066803845953247"><ele>100.0</ele><time>2026-03-30T10:44:02.999Z</time></trkpt><trkpt lat="47.49957331974278" lon="0.3305965506376872"><ele>100.0</ele><time>2026-03-30T10:44:04.999Z</time></trkpt><trkpt lat="47.49963064760029" lon="0.33052899796309254"><ele>100.0</ele><time>2026-03-30T10:44:06.999Z</time></trkpt><trkpt lat="47.499682839849925" lon="0.33046190964005"><ele>100.00000000000001</ele><time>2026-03-30T10:44:08.999Z</time></trkpt><trkpt lat="47.49974001567453" lon="0.33038832120849543"><ele>100.0</ele><time>2026-03-30T10:44:10.999Z</time></trkpt><trkpt lat="47.49979654223119" lon="0.3303135774767508"><ele>99.83333333333334</ele><time>2026-03-30T10:44:12.999Z</time></trkpt><trkpt lat="47.499860089967335" lon="0.3302333055420294"><ele>99.66666666666667</ele><time>2026-03-30T10:44:14.999Z</time></trkpt><trkpt lat="47.499919602408816" lon="0.3301527727570998"><ele>99.5</ele><time>2026-03-30T10:44:16.999Z</time></trkpt><trkpt lat="47.49998361050983" lon="0.33007264554286075"><ele>99.33333333333334</ele><time>2026-03-30T10:44:18.999Z</time></trkpt><trkpt lat="47.500049944495835" lon="0.32998898151266787"><ele>99.16666666666667</ele><time>2026-03-30T10:44:20.999Z</time></trkpt><trkpt lat="47.50011092632993" lon="0.32990124260315684"><ele>99.0</ele><time>2026-03-30T10:44:22.999Z</time></trkpt><trkpt lat="47.50017383587539" lon="0.3298171796317915"><ele>99.0</ele><time>2026-03-30T10:44:24.999Z</time></trkpt><trkpt lat="47.500233806092375" lon="0.3297343999556161"><ele>99.0</ele><time>2026-03-30T10:44:26.999Z</time></trkpt><trkpt lat="47.50029477414764" lon="0.32965250260169143"><ele>99.0</ele><time>2026-03-30T10:44:28.999Z</time></trkpt><trkpt lat="47.50035318461284" lon="0.32957403040683997"><ele>99.0</ele><time>2026-03-30T10:44:30.999Z</time></trkpt><trkpt lat="47.5004100670642" lon="0.3294882781991029"><ele>99.0</ele><time>2026-03-30T10:44:32.999Z</time></trkpt><trkpt lat="47.5004770029365" lon="0.3294091381269492"><ele>99.0</ele><time>2026-03-30T10:44:34.999Z</time></trkpt><trkpt lat="47.50053476381747" lon="0.32931040123903055"><ele>99.0</ele><time>2026-03-30T10:44:37Z</time></trkpt><trkpt lat="47.5005981106433" lon="0.32922192936742634"><ele>99.0</ele><time>2026-03-30T10:44:39Z</time></trkpt><trkpt lat="47.50066710366394" lon="0.3291460364669062"><ele>99.0</ele><time>2026-03-30T10:44:41Z</time></trkpt><trkpt lat="47.50072480338704" lon="0.3290527201916928"><ele>99.0</ele><time>2026-03-30T10:44:43Z</time></trkpt><trkpt lat="47.50078456398044" lon="0.3289540525018315"><ele>99.0</ele><time>2026-03-30T10:44:45Z</time></trkpt><trkpt lat="47.50084402020086" lon="0.3288646401651875"><ele>99.0</ele><time>2026-03-30T10:44:47Z</time></trkpt><trkpt lat="47.500902544080326" lon="0.3287760907743937"><ele>98.83333333333333</ele><time>2026-03-30T10:44:49Z</time></trkpt><trkpt lat="47.50096996731394" lon="0.32868349206065195"><ele>98.66666666666666</ele><time>2026-03-30T10:44:51Z</time></trkpt><trkpt lat="47.50102420763404" lon="0.3285864696358413"><ele>98.5</ele><time>2026-03-30T10:44:53Z</time></trkpt><trkpt lat="47.50108389486953" lon="0.32849112463848884"><ele>98.33333333333333</ele><time>2026-03-30T10:44:55Z</time></trkpt><trkpt lat="47.50114470482308" lon="0.32840259450463755"><ele>98.16666666666666</ele><time>2026-03-30T10:44:57Z</time></trkpt><trkpt lat="47.50118810343659" lon="0.32832004415055505"><ele>98.0</ele><time>2026-03-30T10:45:00Z</time></trkpt><trkpt lat="47.501231911680804" lon="0.3282495796900579"><ele>98.2</ele><time>2026-03-30T10:45:01Z</time></trkpt><trkpt lat="47.501294985600886" lon="0.3281507033993014"><ele>98.4</ele><time>2026-03-30T10:45:03Z</time></trkpt><trkpt lat="47.50135198048494" lon="0.3280527911581647"><ele>98.60000000000001</ele><time>2026-03-30T10:45:05Z</time></trkpt><trkpt lat="47.50141006987739" lon="0.3279444079892542"><ele>98.80000000000001</ele><time>2026-03-30T10:45:07Z</time></trkpt><trkpt lat="47.50149689787373" lon="0.3278152117990716"><ele>99.0</ele><time>2026-03-30T10:45:10Z</time></trkpt><trkpt lat="47.50165862625567" lon="0.32764025238042055"><ele>99.0</ele><time>2026-03-30T10:45:13Z</time></trkpt><trkpt lat="47.50172883982251" lon="0.32753525425217694"><ele>99.0</ele><time>2026-03-30T10:45:15Z</time></trkpt><trkpt lat="47.50180333655324" lon="0.32742998714639027"><ele>99.0</ele><time>2026-03-30T10:45:17Z</time></trkpt><trkpt lat="47.50187178893189" lon="0.3273271997897617"><ele>99.0</ele><time>2026-03-30T10:45:19Z</time></trkpt><trkpt lat="47.50193874093068" lon="0.3272062496525762"><ele>99.0</ele><time>2026-03-30T10:45:21Z</time></trkpt><trkpt lat="47.50201695927696" lon="0.32709873615390855"><ele>98.80000000000001</ele><time>2026-03-30T10:45:23Z</time></trkpt><trkpt lat="47.502090678144576" lon="0.3269761566819317"><ele>98.60000000000001</ele><time>2026-03-30T10:45:25Z</time></trkpt><trkpt lat="47.50217158085819" lon="0.3268556481970595"><ele>98.4</ele><time>2026-03-30T10:45:27Z</time></trkpt><trkpt lat="47.502247925292586" lon="0.3267416997432086"><ele>98.2</ele><time>2026-03-30T10:45:29Z</time></trkpt><trkpt lat="47.50228073449818" lon="0.3266116320725362"><ele>98.0</ele><time>2026-03-30T10:45:31Z</time></trkpt><trkpt lat="47.50230004695325" lon="0.3264905581871195"><ele>98.0</ele><time>2026-03-30T10:45:33Z</time></trkpt><trkpt lat="47.50237688830517" lon="0.32643845909621294"><ele>98.0</ele><time>2026-03-30T10:45:34Z</time></trkpt><trkpt lat="47.50246462743138" lon="0.3263278864665393"><ele>98.0</ele><time>2026-03-30T10:45:36Z</time></trkpt><trkpt lat="47.50255069584761" lon="0.3262123485890143"><ele>98.0</ele><time>2026-03-30T10:45:38Z</time></trkpt><trkpt lat="47.502624364600734" lon="0.3260895215988327"><ele>98.0</ele><time>2026-03-30T10:45:40Z</time></trkpt><trkpt lat="47.502694345046" lon="0.32597494785837344"><ele>98.0</ele><time>2026-03-30T10:45:42Z</time></trkpt><trkpt lat="47.50276687641831" lon="0.3258671253380616"><ele>98.0</ele><time>2026-03-30T10:45:44Z</time></trkpt><trkpt lat="47.50283512268837" lon="0.3257561018965772"><ele>98.0</ele><time>2026-03-30T10:45:46Z</time></trkpt><trkpt lat="47.50290752488167" lon="0.32565669100927247"><ele>98.0</ele><time>2026-03-30T10:45:48Z</time></trkpt><trkpt lat="47.5029870337675" lon="0.32554528459318616"><ele>98.0</ele><time>2026-03-30T10:45:50Z</time></trkpt><trkpt lat="47.50305916082126" lon="0.32542507549284766"><ele>98.0</ele><time>2026-03-30T10:45:52Z</time></trkpt><trkpt lat="47.50313771057131" lon="0.3253043589355961"><ele>98.0</ele><time>2026-03-30T10:45:54Z</time></trkpt><trkpt lat="47.503212773571576" lon="0.3251865579123127"><ele>98.0</ele><time>2026-03-30T10:45:56Z</time></trkpt><trkpt lat="47.5032822362333" lon="0.3250727792300043"><ele>98.0</ele><time>2026-03-30T10:45:58Z</time></trkpt><trkpt lat="47.503351868911274" lon="0.3249620553567184"><ele>98.0</ele><time>2026-03-30T10:46:00Z</time></trkpt><trkpt lat="47.503421713996424" lon="0.32485187041272745"><ele>98.0</ele><time>2026-03-30T10:46:02Z</time></trkpt><trkpt lat="47.5034936458448" lon="0.3247335964876903"><ele>98.0</ele><time>2026-03-30T10:46:04Z</time></trkpt><trkpt lat="47.50355594512676" lon="0.3246414386305769"><ele>98.0</ele><time>2026-03-30T10:46:06Z</time></trkpt><trkpt lat="47.50362532232854" lon="0.32452969734492565"><ele>98.0</ele><time>2026-03-30T10:46:07.999Z</time></trkpt><trkpt lat="47.503692697202" lon="0.3244217747537558"><ele>98.0</ele><time>2026-03-30T10:46:09.999Z</time></trkpt><trkpt lat="47.503763099377444" lon="0.3243107797172478"><ele>98.0</ele><time>2026-03-30T10:46:11.999Z</time></trkpt><trkpt lat="47.50383402614797" lon="0.32420208935786016"><ele>98.0</ele><time>2026-03-30T10:46:13.999Z</time></trkpt><trkpt lat="47.50390564302103" lon="0.3240951194277936"><ele>98.0</ele><time>2026-03-30T10:46:15.999Z</time></trkpt><trkpt lat="47.5039746114696" lon="0.32399060021844855"><ele>98.0</ele><time>2026-03-30T10:46:17.999Z</time></trkpt><trkpt lat="47.50403799894081" lon="0.323885642211683"><ele>98.0</ele><time>2026-03-30T10:46:19.999Z</time></trkpt><trkpt lat="47.504111121362996" lon="0.3237861000605773"><ele>98.0</ele><time>2026-03-30T10:46:21.999Z</time></trkpt><trkpt lat="47.50417440004514" lon="0.3236862044444247"><ele>98.0</ele><time>2026-03-30T10:46:23.999Z</time></trkpt><trkpt lat="47.5042372002814" lon="0.32358652837222895"><ele>98.0</ele><time>2026-03-30T10:46:25.999Z</time></trkpt><trkpt lat="47.50429624223838" lon="0.32349489379793"><ele>98.0</ele><time>2026-03-30T10:46:27.999Z</time></trkpt><trkpt lat="47.50436504248241" lon="0.3234007213419517"><ele>98.0</ele><time>2026-03-30T10:46:29.999Z</time></trkpt><trkpt lat="47.50443037778811" lon="0.3232955508683446"><ele>98.0</ele><time>2026-03-30T10:46:31.999Z</time></trkpt><trkpt lat="47.50449688998665" lon="0.32318320497300973"><ele>98.0</ele><time>2026-03-30T10:46:33.999Z</time></trkpt><trkpt lat="47.50456510456466" lon="0.32308320832902576"><ele>98.0</ele><time>2026-03-30T10:46:35.999Z</time></trkpt><trkpt lat="47.504631314400875" lon="0.3229731437962211"><ele>98.0</ele><time>2026-03-30T10:46:37.999Z</time></trkpt><trkpt lat="47.50470321905684" lon="0.3228761205450454"><ele>98.0</ele><time>2026-03-30T10:46:39.999Z</time></trkpt><trkpt lat="47.50477249305235" lon="0.32277163873502435"><ele>97.60000000000001</ele><time>2026-03-30T10:46:42Z</time></trkpt><trkpt lat="47.50484108327815" lon="0.32266785132981013"><ele>97.2</ele><time>2026-03-30T10:46:44Z</time></trkpt><trkpt lat="47.50490522222797" lon="0.32254762416728017"><ele>96.8</ele><time>2026-03-30T10:46:46Z</time></trkpt><trkpt lat="47.50498012938393" lon="0.32244838205547605"><ele>96.4</ele><time>2026-03-30T10:46:48Z</time></trkpt><trkpt lat="47.505045586073166" lon="0.32233425632599033"><ele>96.0</ele><time>2026-03-30T10:46:50Z</time></trkpt><trkpt lat="47.505118649356206" lon="0.3222256939148365"><ele>96.0</ele><time>2026-03-30T10:46:52Z</time></trkpt><trkpt lat="47.505188254772804" lon="0.3221165109486215"><ele>96.0</ele><time>2026-03-30T10:46:54Z</time></trkpt><trkpt lat="47.5052500205039" lon="0.32201674760310395"><ele>96.0</ele><time>2026-03-30T10:46:56Z</time></trkpt><trkpt lat="47.50531860747921" lon="0.3219137049616408"><ele>96.0</ele><time>2026-03-30T10:46:58Z</time></trkpt><trkpt lat="47.50538824018463" lon="0.32181529945475773"><ele>96.0</ele><time>2026-03-30T10:47:00Z</time></trkpt><trkpt lat="47.505448852639404" lon="0.3217185636155238"><ele>96.16666666666667</ele><time>2026-03-30T10:47:02Z</time></trkpt><trkpt lat="47.50550847051802" lon="0.3216361163787982"><ele>96.33333333333334</ele><time>2026-03-30T10:47:04Z</time></trkpt><trkpt lat="47.50556728104003" lon="0.3215405008339899"><ele>96.5</ele><time>2026-03-30T10:47:06Z</time></trkpt><trkpt lat="47.50563113096095" lon="0.3214402575464164"><ele>96.66666666666667</ele><time>2026-03-30T10:47:08Z</time></trkpt><trkpt lat="47.505692089809315" lon="0.32134811873174884"><ele>96.83333333333334</ele><time>2026-03-30T10:47:10Z</time></trkpt><trkpt lat="47.50574546273787" lon="0.32126493016526725"><ele>97.0</ele><time>2026-03-30T10:47:12Z</time></trkpt><trkpt lat="47.50580454878629" lon="0.32117155560571164"><ele>97.00000000000001</ele><time>2026-03-30T10:47:14Z</time></trkpt><trkpt lat="47.505868110951" lon="0.32107449869966526"><ele>97.0</ele><time>2026-03-30T10:47:16Z</time></trkpt><trkpt lat="47.50592529752301" lon="0.3209846464181281"><ele>97.0</ele><time>2026-03-30T10:47:18Z</time></trkpt><trkpt lat="47.50599030590804" lon="0.32091056449857025"><ele>97.0</ele><time>2026-03-30T10:47:20Z</time></trkpt><trkpt lat="47.506049064646504" lon="0.32081646755551774"><ele>97.00000000000001</ele><time>2026-03-30T10:47:22Z</time></trkpt><trkpt lat="47.50611136648056" lon="0.32072509659792314"><ele>97.0</ele><time>2026-03-30T10:47:24Z</time></trkpt><trkpt lat="47.50618283352956" lon="0.3206509842712305"><ele>96.8</ele><time>2026-03-30T10:47:26Z</time></trkpt><trkpt lat="47.50625734488282" lon="0.320575105015233"><ele>96.6</ele><time>2026-03-30T10:47:28Z</time></trkpt><trkpt lat="47.50633416975351" lon="0.32050209298494486"><ele>96.39999999999999</ele><time>2026-03-30T10:47:30Z</time></trkpt><trkpt lat="47.50641435472624" lon="0.32043508053324604"><ele>96.19999999999999</ele><time>2026-03-30T10:47:32Z</time></trkpt><trkpt lat="47.50649718461041" lon="0.32036937265536114"><ele>96.0</ele><time>2026-03-30T10:47:34Z</time></trkpt><trkpt lat="47.50658610090969" lon="0.32032766493806386"><ele>96.0</ele><time>2026-03-30T10:47:36Z</time></trkpt><trkpt lat="47.50667640642318" lon="0.32028430853082485"><ele>96.0</ele><time>2026-03-30T10:47:38Z</time></trkpt><trkpt lat="47.50676490864931" lon="0.32024256102839455"><ele>96.0</ele><time>2026-03-30T10:47:40Z</time></trkpt><trkpt lat="47.506856819342424" lon="0.3202014005711833"><ele>96.0</ele><time>2026-03-30T10:47:42Z</time></trkpt><trkpt lat="47.50694562359986" lon="0.32015851365459436"><ele>96.0</ele><time>2026-03-30T10:47:44Z</time></trkpt><trkpt lat="47.50704273748211" lon="0.3201243645227114"><ele>96.16666666666667</ele><time>2026-03-30T10:47:46Z</time></trkpt><trkpt lat="47.5071173686174" lon="0.32009199207810146"><ele>96.33333333333334</ele><time>2026-03-30T10:47:48Z</time></trkpt><trkpt lat="47.50719827782914" lon="0.3200974509972651"><ele>96.5</ele><time>2026-03-30T10:47:50Z</time></trkpt><trkpt lat="47.507271593167026" lon="0.3200685853044356"><ele>96.66666666666667</ele><time>2026-03-30T10:47:53Z</time></trkpt><trkpt lat="47.507350555135915" lon="0.3200374964021567"><ele>96.83333333333334</ele><time>2026-03-30T10:47:54Z</time></trkpt><trkpt lat="47.50743123260452" lon="0.3199595655008582"><ele>97.0</ele><time>2026-03-30T10:47:56Z</time></trkpt><trkpt lat="47.50751384128754" lon="0.3199159032156984"><ele>97.0</ele><time>2026-03-30T10:47:58Z</time></trkpt><trkpt lat="47.50759839662253" lon="0.3198773769801104"><ele>97.0</ele><time>2026-03-30T10:48:00Z</time></trkpt><trkpt lat="47.50765767671608" lon="0.3198408979789341"><ele>97.0</ele><time>2026-03-30T10:48:02Z</time></trkpt><trkpt lat="47.50784516970401" lon="0.3197966539118692"><ele>97.0</ele><time>2026-03-30T10:48:04Z</time></trkpt><trkpt lat="47.50794319619758" lon="0.3197623749016943"><ele>97.0</ele><time>2026-03-30T10:48:06Z</time></trkpt><trkpt lat="47.50803622235515" lon="0.31972434252744164"><ele>96.8</ele><time>2026-03-30T10:48:08Z</time></trkpt><trkpt lat="47.50812526576318" lon="0.31967723804333714"><ele>96.6</ele><time>2026-03-30T10:48:09.999Z</time></trkpt><trkpt lat="47.508215083413255" lon="0.3196424981769882"><ele>96.39999999999999</ele><time>2026-03-30T10:48:11.999Z</time></trkpt><trkpt lat="47.50831388988632" lon="0.3195958610197457"><ele>96.19999999999999</ele><time>2026-03-30T10:48:13.999Z</time></trkpt><trkpt lat="47.508422242427415" lon="0.3195539440580649"><ele>96.0</ele><time>2026-03-30T10:48:15.999Z</time></trkpt><trkpt lat="47.508523466488306" lon="0.31951213727359923"><ele>96.0</ele><time>2026-03-30T10:48:17.999Z</time></trkpt><trkpt lat="47.508627996746306" lon="0.319473488572153"><ele>96.0</ele><time>2026-03-30T10:48:19.999Z</time></trkpt><trkpt lat="47.50872876331498" lon="0.3194366258092889"><ele>96.0</ele><time>2026-03-30T10:48:21.999Z</time></trkpt><trkpt lat="47.5088298455171" lon="0.31939759910393667"><ele>96.0</ele><time>2026-03-30T10:48:24.999Z</time></trkpt><trkpt lat="47.50890842384393" lon="0.31933798809025854"><ele>96.0</ele><time>2026-03-30T10:48:26.999Z</time></trkpt><trkpt lat="47.50900701812217" lon="0.31931012590868485"><ele>96.0</ele><time>2026-03-30T10:48:28.999Z</time></trkpt><trkpt lat="47.50911456173703" lon="0.31929740326433304"><ele>96.0</ele><time>2026-03-30T10:48:29.999Z</time></trkpt><trkpt lat="47.50920420107248" lon="0.3192630494609608"><ele>96.0</ele><time>2026-03-30T10:48:31.999Z</time></trkpt><trkpt lat="47.50929732050715" lon="0.3192344846564591"><ele>96.0</ele><time>2026-03-30T10:48:33.999Z</time></trkpt><trkpt lat="47.50938868251829" lon="0.319200017765448"><ele>96.0</ele><time>2026-03-30T10:48:35.999Z</time></trkpt><trkpt lat="47.50947852375319" lon="0.31915955354920067"><ele>96.0</ele><time>2026-03-30T10:48:37.999Z</time></trkpt><trkpt lat="47.5095636959004" lon="0.31913148669090136"><ele>96.0</ele><time>2026-03-30T10:48:39.999Z</time></trkpt><trkpt lat="47.509642685266925" lon="0.3190948960293512"><ele>96.0</ele><time>2026-03-30T10:48:41.999Z</time></trkpt><trkpt lat="47.509712198621784" lon="0.31906841831163757"><ele>96.0</ele><time>2026-03-30T10:48:43.999Z</time></trkpt><trkpt lat="47.50977629042688" lon="0.3190507117618396"><ele>96.0</ele><time>2026-03-30T10:48:45.999Z</time></trkpt><trkpt lat="47.50984698588155" lon="0.3190295238750819"><ele>96.0</ele><time>2026-03-30T10:48:48Z</time></trkpt><trkpt lat="47.50992499325753" lon="0.3189601803354603"><ele>96.0</ele><time>2026-03-30T10:48:51Z</time></trkpt><trkpt lat="47.509991630933904" lon="0.31894813398282157"><ele>96.0</ele><time>2026-03-30T10:48:53Z</time></trkpt><trkpt lat="47.510057629051424" lon="0.3189154413276715"><ele>96.0</ele><time>2026-03-30T10:48:55Z</time></trkpt><trkpt lat="47.51014414553083" lon="0.3188731642992358"><ele>96.0</ele><time>2026-03-30T10:48:58Z</time></trkpt><trkpt lat="47.510225414738464" lon="0.31883234650885506"><ele>96.0</ele><time>2026-03-30T10:49:01Z</time></trkpt><trkpt lat="47.510286840942186" lon="0.31880033969916777"><ele>96.0</ele><time>2026-03-30T10:49:03Z</time></trkpt><trkpt lat="47.51036225359744" lon="0.31877411320872673"><ele>95.83333333333333</ele><time>2026-03-30T10:49:05Z</time></trkpt><trkpt lat="47.51044089688914" lon="0.31874180576513866"><ele>95.66666666666667</ele><time>2026-03-30T10:49:07Z</time></trkpt><trkpt lat="47.51051874314135" lon="0.3187127757823157"><ele>95.5</ele><time>2026-03-30T10:49:09Z</time></trkpt><trkpt lat="47.51058839214051" lon="0.3186768664326874"><ele>95.33333333333334</ele><time>2026-03-30T10:49:11Z</time></trkpt><trkpt lat="47.51066794947215" lon="0.31865598680561663"><ele>95.16666666666667</ele><time>2026-03-30T10:49:13Z</time></trkpt><trkpt lat="47.510753425007636" lon="0.31862742052053394"><ele>95.0</ele><time>2026-03-30T10:49:15Z</time></trkpt><trkpt lat="47.51084298807568" lon="0.3185964410296937"><ele>95.0</ele><time>2026-03-30T10:49:17Z</time></trkpt><trkpt lat="47.51093327992954" lon="0.3185577561008245"><ele>95.0</ele><time>2026-03-30T10:49:19Z</time></trkpt><trkpt lat="47.51101661287651" lon="0.3185289049265597"><ele>95.0</ele><time>2026-03-30T10:49:21Z</time></trkpt><trkpt lat="47.51109136001191" lon="0.31849550296214774"><ele>95.0</ele><time>2026-03-30T10:49:23Z</time></trkpt><trkpt lat="47.511163598025135" lon="0.31846612793951456"><ele>95.0</ele><time>2026-03-30T10:49:25Z</time></trkpt><trkpt lat="47.511230366484206" lon="0.3184398443288696"><ele>95.0</ele><time>2026-03-30T10:49:27Z</time></trkpt><trkpt lat="47.51129241457842" lon="0.31841411625643684"><ele>95.33333333333334</ele><time>2026-03-30T10:49:29Z</time></trkpt><trkpt lat="47.51136573673278" lon="0.3183872112845854"><ele>95.66666666666667</ele><time>2026-03-30T10:49:31Z</time></trkpt><trkpt lat="47.51144549491997" lon="0.3183542538820769"><ele>96.0</ele><time>2026-03-30T10:49:33Z</time></trkpt><trkpt lat="47.511527374062176" lon="0.31832051031215597"><ele>96.33333333333334</ele><time>2026-03-30T10:49:35Z</time></trkpt><trkpt lat="47.511608554689325" lon="0.31828619830024174"><ele>96.66666666666667</ele><time>2026-03-30T10:49:37Z</time></trkpt><trkpt lat="47.5116881463073" lon="0.31824936417234256"><ele>97.0</ele><time>2026-03-30T10:49:39Z</time></trkpt><trkpt lat="47.51177372278321" lon="0.31822439888150983"><ele>97.00000000000001</ele><time>2026-03-30T10:49:41Z</time></trkpt><trkpt lat="47.51185742465493" lon="0.3181840690553256"><ele>97.0</ele><time>2026-03-30T10:49:43Z</time></trkpt><trkpt lat="47.51193661387588" lon="0.31815922949415093"><ele>97.0</ele><time>2026-03-30T10:49:45Z</time></trkpt><trkpt lat="47.51201402775977" lon="0.3181261490322677"><ele>97.0</ele><time>2026-03-30T10:49:47Z</time></trkpt><trkpt lat="47.51209003049866" lon="0.31808767982379127"><ele>97.00000000000001</ele><time>2026-03-30T10:49:49Z</time></trkpt><trkpt lat="47.51217223093762" lon="0.31806362254314324"><ele>97.0</ele><time>2026-03-30T10:49:51Z</time></trkpt><trkpt lat="47.51226132877889" lon="0.31802696044103773"><ele>96.39999999999999</ele><time>2026-03-30T10:49:53Z</time></trkpt><trkpt lat="47.51235105362289" lon="0.3179871265897259"><ele>95.8</ele><time>2026-03-30T10:49:55Z</time></trkpt><trkpt lat="47.512454950749444" lon="0.31793295923482623"><ele>95.2</ele><time>2026-03-30T10:49:57Z</time></trkpt><trkpt lat="47.512569571238764" lon="0.3178746149291312"><ele>94.6</ele><time>2026-03-30T10:49:59Z</time></trkpt><trkpt lat="47.512639398628195" lon="0.31789679334944676"><ele>94.0</ele><time>2026-03-30T10:50:00Z</time></trkpt><trkpt lat="47.51270169991918" lon="0.31787096826552286"><ele>94.0</ele><time>2026-03-30T10:50:01Z</time></trkpt><trkpt lat="47.5127631007828" lon="0.3178455164563362"><ele>94.0</ele><time>2026-03-30T10:50:02Z</time></trkpt><trkpt lat="47.51282579611098" lon="0.3178188926926915"><ele>94.0</ele><time>2026-03-30T10:50:03Z</time></trkpt><trkpt lat="47.51294492968944" lon="0.3177662269315224"><ele>94.0</ele><time>2026-03-30T10:50:05Z</time></trkpt><trkpt lat="47.51305239544449" lon="0.31769991327292296"><ele>94.0</ele><time>2026-03-30T10:50:07Z</time></trkpt><trkpt lat="47.51315624734383" lon="0.317648288739056"><ele>93.6</ele><time>2026-03-30T10:50:09Z</time></trkpt><trkpt lat="47.51325743634892" lon="0.31760969738647327"><ele>93.2</ele><time>2026-03-30T10:50:11Z</time></trkpt><trkpt lat="47.51335977464694" lon="0.31755770281981366"><ele>92.8</ele><time>2026-03-30T10:50:13Z</time></trkpt><trkpt lat="47.51346784795489" lon="0.317517604501199"><ele>92.39999999999999</ele><time>2026-03-30T10:50:15Z</time></trkpt><trkpt lat="47.51356933968232" lon="0.31747694088683703"><ele>92.0</ele><time>2026-03-30T10:50:17Z</time></trkpt><trkpt lat="47.51366796369062" lon="0.31743123646309773"><ele>92.33333333333334</ele><time>2026-03-30T10:50:19Z</time></trkpt><trkpt lat="47.5137559381646" lon="0.31739452709676086"><ele>92.66666666666667</ele><time>2026-03-30T10:50:21Z</time></trkpt><trkpt lat="47.513838032796365" lon="0.3173655853544819"><ele>93.0</ele><time>2026-03-30T10:50:23Z</time></trkpt><trkpt lat="47.51392118626453" lon="0.317330372571726"><ele>93.33333333333333</ele><time>2026-03-30T10:50:25Z</time></trkpt><trkpt lat="47.51400454222746" lon="0.31729117311059013"><ele>93.66666666666666</ele><time>2026-03-30T10:50:26.999Z</time></trkpt><trkpt lat="47.514083217086416" lon="0.3172646313016551"><ele>94.0</ele><time>2026-03-30T10:50:28.999Z</time></trkpt><trkpt lat="47.51415938712333" lon="0.3172323402077071"><ele>94.5</ele><time>2026-03-30T10:50:30.999Z</time></trkpt><trkpt lat="47.51422382127314" lon="0.31719239511053077"><ele>95.0</ele><time>2026-03-30T10:50:32.999Z</time></trkpt><trkpt lat="47.5143063656717" lon="0.31716173205901604"><ele>95.5</ele><time>2026-03-30T10:50:34.999Z</time></trkpt><trkpt lat="47.51437572622436" lon="0.3171402783102106"><ele>96.0</ele><time>2026-03-30T10:50:36.999Z</time></trkpt><trkpt lat="47.51443985935239" lon="0.3171133295978797"><ele>96.50000000000001</ele><time>2026-03-30T10:50:38.999Z</time></trkpt><trkpt lat="47.514530049198186" lon="0.3170716102224846"><ele>97.0</ele><time>2026-03-30T10:50:41.999Z</time></trkpt><trkpt lat="47.51460312739362" lon="0.3170385007252195"><ele>97.33333333333334</ele><time>2026-03-30T10:50:44.999Z</time></trkpt><trkpt lat="47.51468233052472" lon="0.3170066243674658"><ele>97.66666666666667</ele><time>2026-03-30T10:50:47.999Z</time></trkpt><trkpt lat="47.514765357320485" lon="0.3169737527785405"><ele>98.0</ele><time>2026-03-30T10:50:50.999Z</time></trkpt><trkpt lat="47.51485542889376" lon="0.31692694380252867"><ele>98.33333333333334</ele><time>2026-03-30T10:50:54Z</time></trkpt><trkpt lat="47.51494106721545" lon="0.31689916756846453"><ele>98.66666666666667</ele><time>2026-03-30T10:50:56Z</time></trkpt><trkpt lat="47.51500593459245" lon="0.3168752244109653"><ele>99.0</ele><time>2026-03-30T10:50:58Z</time></trkpt><trkpt lat="47.51507998148917" lon="0.31684622895531733"><ele>99.0</ele><time>2026-03-30T10:51:02Z</time></trkpt><trkpt lat="47.515146528513434" lon="0.3168305362851754"><ele>99.0</ele><time>2026-03-30T10:51:04Z</time></trkpt><trkpt lat="47.51521665841963" lon="0.3167944866319439"><ele>99.0</ele><time>2026-03-30T10:51:06Z</time></trkpt><trkpt lat="47.51528273657433" lon="0.3167679053168778"><ele>99.0</ele><time>2026-03-30T10:51:08Z</time></trkpt><trkpt lat="47.51534859583764" lon="0.31673561168317954"><ele>99.0</ele><time>2026-03-30T10:51:10Z</time></trkpt><trkpt lat="47.515415952532436" lon="0.3167070719947867"><ele>99.0</ele><time>2026-03-30T10:51:12Z</time></trkpt><trkpt lat="47.515481310614184" lon="0.31668524238061"><ele>99.0</ele><time>2026-03-30T10:51:14Z</time></trkpt><trkpt lat="47.515562133142254" lon="0.31664816247847205"><ele>99.28571428571429</ele><time>2026-03-30T10:51:17Z</time></trkpt><trkpt lat="47.51563088216936" lon="0.31663019135122616"><ele>99.57142857142857</ele><time>2026-03-30T10:51:19Z</time></trkpt><trkpt lat="47.515696309917736" lon="0.3166013196683446"><ele>99.85714285714286</ele><time>2026-03-30T10:51:21Z</time></trkpt><trkpt lat="47.515761072733476" lon="0.3165769809157066"><ele>100.14285714285714</ele><time>2026-03-30T10:51:23Z</time></trkpt><trkpt lat="47.51582415306462" lon="0.31655081015416203"><ele>100.42857142857142</ele><time>2026-03-30T10:51:25Z</time></trkpt><trkpt lat="47.515886715659974" lon="0.3165249240350512"><ele>100.71428571428571</ele><time>2026-03-30T10:51:27Z</time></trkpt><trkpt lat="47.515957781608506" lon="0.3165065922443593"><ele>101.0</ele><time>2026-03-30T10:51:29Z</time></trkpt><trkpt lat="47.51603401966298" lon="0.31647700871374657"><ele>100.99999999999999</ele><time>2026-03-30T10:51:31Z</time></trkpt><trkpt lat="47.51611001856792" lon="0.31646002026766834"><ele>101.0</ele><time>2026-03-30T10:51:33Z</time></trkpt><trkpt lat="47.516189347163234" lon="0.3164399837588881"><ele>101.0</ele><time>2026-03-30T10:51:35Z</time></trkpt><trkpt lat="47.51626944611325" lon="0.3164232246819798"><ele>101.0</ele><time>2026-03-30T10:51:37Z</time></trkpt><trkpt lat="47.51634900914445" lon="0.3164102473923526"><ele>100.99999999999999</ele><time>2026-03-30T10:51:39Z</time></trkpt><trkpt lat="47.51643473485791" lon="0.3164058011238608"><ele>101.0</ele><time>2026-03-30T10:51:41Z</time></trkpt><trkpt lat="47.51652450142874" lon="0.3164081316415785"><ele>101.19999999999999</ele><time>2026-03-30T10:51:43Z</time></trkpt><trkpt lat="47.51661735502283" lon="0.3164059500000517"><ele>101.39999999999999</ele><time>2026-03-30T10:51:45Z</time></trkpt><trkpt lat="47.51671273228063" lon="0.3164088449971026"><ele>101.6</ele><time>2026-03-30T10:51:47Z</time></trkpt><trkpt lat="47.51680986683931" lon="0.31642574369994964"><ele>101.8</ele><time>2026-03-30T10:51:49Z</time></trkpt><trkpt lat="47.516903387014644" lon="0.3164355866461904"><ele>102.0</ele><time>2026-03-30T10:51:51Z</time></trkpt><trkpt lat="47.51699928936788" lon="0.31645363556070977"><ele>102.39999999999999</ele><time>2026-03-30T10:51:53Z</time></trkpt><trkpt lat="47.51709375723502" lon="0.31647956849560754"><ele>102.8</ele><time>2026-03-30T10:51:55Z</time></trkpt><trkpt lat="47.51719424703911" lon="0.31651287931123767"><ele>103.2</ele><time>2026-03-30T10:51:57Z</time></trkpt><trkpt lat="47.5172962875903" lon="0.3165420324140348"><ele>103.6</ele><time>2026-03-30T10:51:59Z</time></trkpt><trkpt lat="47.51740027491574" lon="0.3165738566651324"><ele>104.0</ele><time>2026-03-30T10:52:01Z</time></trkpt><trkpt lat="47.51749797530903" lon="0.31659961890574534"><ele>103.99999999999999</ele><time>2026-03-30T10:52:03Z</time></trkpt><trkpt lat="47.517587978642794" lon="0.31663755746939415"><ele>104.0</ele><time>2026-03-30T10:52:05Z</time></trkpt><trkpt lat="47.51767701278737" lon="0.3166655678277455"><ele>104.0</ele><time>2026-03-30T10:52:07Z</time></trkpt><trkpt lat="47.51775716926192" lon="0.31668333513902663"><ele>104.0</ele><time>2026-03-30T10:52:09Z</time></trkpt><trkpt lat="47.51784533552407" lon="0.31671471411014407"><ele>103.99999999999999</ele><time>2026-03-30T10:52:11Z</time></trkpt><trkpt lat="47.51793474722814" lon="0.3167408719653944"><ele>104.0</ele><time>2026-03-30T10:52:13Z</time></trkpt><trkpt lat="47.51802802480486" lon="0.31677223546246447"><ele>103.6</ele><time>2026-03-30T10:52:15Z</time></trkpt><trkpt lat="47.518124358590356" lon="0.31680053177625667"><ele>103.2</ele><time>2026-03-30T10:52:17Z</time></trkpt><trkpt lat="47.51822092460696" lon="0.31680473895358774"><ele>102.8</ele><time>2026-03-30T10:52:19Z</time></trkpt><trkpt lat="47.51831922764728" lon="0.3168531871361369"><ele>102.39999999999999</ele><time>2026-03-30T10:52:21Z</time></trkpt><trkpt lat="47.518447058014644" lon="0.3168830333237373"><ele>102.0</ele><time>2026-03-30T10:52:23Z</time></trkpt><trkpt lat="47.51853708191496" lon="0.3169161476953667"><ele>102.0</ele><time>2026-03-30T10:52:25Z</time></trkpt><trkpt lat="47.51863792678926" lon="0.31696001450234657"><ele>102.0</ele><time>2026-03-30T10:52:27Z</time></trkpt><trkpt lat="47.51873487034125" lon="0.3170032697262346"><ele>102.0</ele><time>2026-03-30T10:52:29Z</time></trkpt><trkpt lat="47.51882546536001" lon="0.3170255411995895"><ele>102.0</ele><time>2026-03-30T10:52:31Z</time></trkpt><trkpt lat="47.51890967946813" lon="0.317069351398457"><ele>102.0</ele><time>2026-03-30T10:52:33Z</time></trkpt><trkpt lat="47.519002648301964" lon="0.31709126037889346"><ele>102.8</ele><time>2026-03-30T10:52:35Z</time></trkpt><trkpt lat="47.51909027967183" lon="0.31711914700712973"><ele>103.6</ele><time>2026-03-30T10:52:37Z</time></trkpt><trkpt lat="47.519175025738406" lon="0.3171518754847806"><ele>104.39999999999999</ele><time>2026-03-30T10:52:39Z</time></trkpt><trkpt lat="47.519264419660466" lon="0.3171749478363254"><ele>105.19999999999999</ele><time>2026-03-30T10:52:40.999Z</time></trkpt><trkpt lat="47.5193564756622" lon="0.31719846130114177"><ele>106.0</ele><time>2026-03-30T10:52:42.999Z</time></trkpt><trkpt lat="47.519452909700526" lon="0.31722086160012003"><ele>106.0</ele><time>2026-03-30T10:52:44.999Z</time></trkpt><trkpt lat="47.519548917299936" lon="0.3172502944493324"><ele>106.0</ele><time>2026-03-30T10:52:46.999Z</time></trkpt><trkpt lat="47.51965070906573" lon="0.31727988676731717"><ele>106.0</ele><time>2026-03-30T10:52:48.999Z</time></trkpt><trkpt lat="47.519751603389615" lon="0.3172994550618809"><ele>106.0</ele><time>2026-03-30T10:52:50.999Z</time></trkpt><trkpt lat="47.51984543956298" lon="0.3173376881914509"><ele>106.0</ele><time>2026-03-30T10:52:52.999Z</time></trkpt><trkpt lat="47.51993497664387" lon="0.31735958949286963"><ele>106.00000000000001</ele><time>2026-03-30T10:52:54.999Z</time></trkpt><trkpt lat="47.5200165979582" lon="0.3173832951144923"><ele>106.0</ele><time>2026-03-30T10:52:56.999Z</time></trkpt><trkpt lat="47.520089606024364" lon="0.3174043420724065"><ele>106.0</ele><time>2026-03-30T10:52:58.999Z</time></trkpt><trkpt lat="47.52016860255307" lon="0.3174365524532727"><ele>106.0</ele><time>2026-03-30T10:53:01Z</time></trkpt><trkpt lat="47.520252348180776" lon="0.31747617699989017"><ele>106.00000000000001</ele><time>2026-03-30T10:53:03Z</time></trkpt><trkpt lat="47.52034054659666" lon="0.3175032952056865"><ele>106.0</ele><time>2026-03-30T10:53:05Z</time></trkpt><trkpt lat="47.520427592571664" lon="0.31752887906756583"><ele>106.00000000000001</ele><time>2026-03-30T10:53:07Z</time></trkpt><trkpt lat="47.52051041893254" lon="0.3175499577666531"><ele>106.0</ele><time>2026-03-30T10:53:09Z</time></trkpt><trkpt lat="47.52059996003851" lon="0.31758309940409185"><ele>106.0</ele><time>2026-03-30T10:53:11Z</time></trkpt><trkpt lat="47.52068192205232" lon="0.3176042495067805"><ele>106.0</ele><time>2026-03-30T10:53:13Z</time></trkpt><trkpt lat="47.520769648322066" lon="0.31762408119367935"><ele>106.00000000000001</ele><time>2026-03-30T10:53:15Z</time></trkpt><trkpt lat="47.520855086440896" lon="0.3176570598609746"><ele>106.0</ele><time>2026-03-30T10:53:17Z</time></trkpt><trkpt lat="47.52094627054435" lon="0.31768224617823404"><ele>106.00000000000001</ele><time>2026-03-30T10:53:19Z</time></trkpt><trkpt lat="47.5210334852551" lon="0.31771987469568846"><ele>106.0</ele><time>2026-03-30T10:53:21Z</time></trkpt><trkpt lat="47.52111123980665" lon="0.31774910431859954"><ele>106.0</ele><time>2026-03-30T10:53:23Z</time></trkpt><trkpt lat="47.52118283301792" lon="0.31776174069887225"><ele>106.0</ele><time>2026-03-30T10:53:25Z</time></trkpt><trkpt lat="47.521253385442485" lon="0.3177853798663831"><ele>106.00000000000001</ele><time>2026-03-30T10:53:27Z</time></trkpt><trkpt lat="47.521337664586916" lon="0.31781055693512983"><ele>106.0</ele><time>2026-03-30T10:53:29Z</time></trkpt><trkpt lat="47.52141571979808" lon="0.31783420146607444"><ele>105.50000000000001</ele><time>2026-03-30T10:53:31Z</time></trkpt><trkpt lat="47.52149802013022" lon="0.3178618064906179"><ele>105.0</ele><time>2026-03-30T10:53:33Z</time></trkpt><trkpt lat="47.521580559537774" lon="0.3179190427610388"><ele>104.5</ele><time>2026-03-30T10:53:35Z</time></trkpt><trkpt lat="47.521658737760994" lon="0.31794896536993705"><ele>104.0</ele><time>2026-03-30T10:53:37Z</time></trkpt><trkpt lat="47.52172418575768" lon="0.3179648863748714"><ele>103.50000000000001</ele><time>2026-03-30T10:53:39Z</time></trkpt><trkpt lat="47.521790755280016" lon="0.31800866273462997"><ele>103.0</ele><time>2026-03-30T10:53:42Z</time></trkpt><trkpt lat="47.52178564642339" lon="0.3181056465624217"><ele>103.00000000000001</ele><time>2026-03-30T10:54:40Z</time></trkpt><trkpt lat="47.52175230871816" lon="0.31802186297673934"><ele>103.0</ele><time>2026-03-30T10:58:01Z</time></trkpt><trkpt lat="47.52178391976424" lon="0.3181236876832361"><ele>103.0</ele><time>2026-03-30T10:59:15.999Z</time></trkpt><trkpt lat="47.52185295192915" lon="0.3180993096818834"><ele>103.0</ele><time>2026-03-30T10:59:32Z</time></trkpt><trkpt lat="47.52192168854015" lon="0.3180034161763088"><ele>103.00000000000001</ele><time>2026-03-30T10:59:35Z</time></trkpt><trkpt lat="47.521980469662616" lon="0.3179643772669939"><ele>103.0</ele><time>2026-03-30T10:59:37Z</time></trkpt><trkpt lat="47.52206145893571" lon="0.3178996449783034"><ele>102.50000000000001</ele><time>2026-03-30T10:59:40Z</time></trkpt><trkpt lat="47.52212605350916" lon="0.317863964827934"><ele>102.0</ele><time>2026-03-30T10:59:42Z</time></trkpt><trkpt lat="47.522195984198866" lon="0.31781773158142873"><ele>101.5</ele><time>2026-03-30T10:59:44Z</time></trkpt><trkpt lat="47.52227334131576" lon="0.31776494590187704"><ele>101.0</ele><time>2026-03-30T10:59:46Z</time></trkpt><trkpt lat="47.52235423665169" lon="0.31770208763678465"><ele>100.50000000000001</ele><time>2026-03-30T10:59:48Z</time></trkpt><trkpt lat="47.52243712559663" lon="0.31763333642987185"><ele>100.0</ele><time>2026-03-30T10:59:50Z</time></trkpt><trkpt lat="47.522528090152775" lon="0.31757690244320264"><ele>100.0</ele><time>2026-03-30T10:59:52Z</time></trkpt><trkpt lat="47.522619275837485" lon="0.31750990922655525"><ele>100.0</ele><time>2026-03-30T10:59:54Z</time></trkpt><trkpt lat="47.5227142736447" lon="0.31745192033659175"><ele>100.0</ele><time>2026-03-30T10:59:56Z</time></trkpt><trkpt lat="47.52280704270711" lon="0.31737159304781926"><ele>100.0</ele><time>2026-03-30T10:59:58Z</time></trkpt><trkpt lat="47.52288334927609" lon="0.3173185624668292"><ele>100.0</ele><time>2026-03-30T11:00:01Z</time></trkpt><trkpt lat="47.523041800203664" lon="0.3172406267237566"><ele>99.6</ele><time>2026-03-30T11:00:02Z</time></trkpt><trkpt lat="47.52313372965301" lon="0.3171695074502727"><ele>99.2</ele><time>2026-03-30T11:00:04Z</time></trkpt><trkpt lat="47.52322258324281" lon="0.31710001256022424"><ele>98.80000000000001</ele><time>2026-03-30T11:00:06Z</time></trkpt><trkpt lat="47.52331504773753" lon="0.3170438623942583"><ele>98.4</ele><time>2026-03-30T11:00:08Z</time></trkpt><trkpt lat="47.52341381827153" lon="0.31700265673134775"><ele>98.0</ele><time>2026-03-30T11:00:10Z</time></trkpt><trkpt lat="47.523521397545785" lon="0.3169779074068887"><ele>98.0</ele><time>2026-03-30T11:00:12Z</time></trkpt><trkpt lat="47.52363935221339" lon="0.3169670597241059"><ele>98.0</ele><time>2026-03-30T11:00:14Z</time></trkpt><trkpt lat="47.523761817704575" lon="0.31692765924097205"><ele>98.0</ele><time>2026-03-30T11:00:16Z</time></trkpt><trkpt lat="47.523831916650195" lon="0.31691275997505897"><ele>98.0</ele><time>2026-03-30T11:00:17Z</time></trkpt><trkpt lat="47.52390478038578" lon="0.31694158976132836"><ele>98.0</ele><time>2026-03-30T11:00:18Z</time></trkpt><trkpt lat="47.52397176217402" lon="0.3169047065958297"><ele>98.0</ele><time>2026-03-30T11:00:19Z</time></trkpt><trkpt lat="47.524049184514084" lon="0.31689490655379166"><ele>98.0</ele><time>2026-03-30T11:00:20Z</time></trkpt><trkpt lat="47.524134573917394" lon="0.31687924453350247"><ele>98.0</ele><time>2026-03-30T11:00:21Z</time></trkpt><trkpt lat="47.52426459429516" lon="0.3168747160376642"><ele>98.0</ele><time>2026-03-30T11:00:23Z</time></trkpt><trkpt lat="47.52435009208374" lon="0.31685882376809676"><ele>98.0</ele><time>2026-03-30T11:00:24Z</time></trkpt><trkpt lat="47.52444421906527" lon="0.3168420908519459"><ele>97.99999999999999</ele><time>2026-03-30T11:00:25Z</time></trkpt><trkpt lat="47.52452922503289" lon="0.31682697937562104"><ele>98.0</ele><time>2026-03-30T11:00:26Z</time></trkpt><trkpt lat="47.52461077709159" lon="0.3168124818975421"><ele>98.0</ele><time>2026-03-30T11:00:27Z</time></trkpt><trkpt lat="47.52469072931401" lon="0.3167977584127049"><ele>98.0</ele><time>2026-03-30T11:00:28Z</time></trkpt><trkpt lat="47.52476772891576" lon="0.31678349812490686"><ele>97.99999999999999</ele><time>2026-03-30T11:00:29Z</time></trkpt><trkpt lat="47.52484361093171" lon="0.31676944482421376"><ele>98.0</ele><time>2026-03-30T11:00:30Z</time></trkpt><trkpt lat="47.5249159881836" lon="0.3167550374771351"><ele>99.2</ele><time>2026-03-30T11:00:31Z</time></trkpt><trkpt lat="47.52498394663799" lon="0.316720764090473"><ele>100.4</ele><time>2026-03-30T11:00:32Z</time></trkpt><trkpt lat="47.52505081938667" lon="0.31670789310007297"><ele>101.60000000000001</ele><time>2026-03-30T11:00:33Z</time></trkpt><trkpt lat="47.52516851714081" lon="0.31665724937160045"><ele>102.80000000000001</ele><time>2026-03-30T11:00:35Z</time></trkpt><trkpt lat="47.52528145546835" lon="0.3165903182822316"><ele>104.0</ele><time>2026-03-30T11:00:37Z</time></trkpt><trkpt lat="47.525388781152074" lon="0.31651096000476625"><ele>104.4</ele><time>2026-03-30T11:00:39Z</time></trkpt><trkpt lat="47.525490878550876" lon="0.31643115645797415"><ele>104.80000000000001</ele><time>2026-03-30T11:00:41Z</time></trkpt><trkpt lat="47.52558295693209" lon="0.3163410677859324"><ele>105.19999999999999</ele><time>2026-03-30T11:00:43Z</time></trkpt><trkpt lat="47.52567571773616" lon="0.31625496638080586"><ele>105.6</ele><time>2026-03-30T11:00:45Z</time></trkpt><trkpt lat="47.52576997599628" lon="0.31617058863580816"><ele>106.0</ele><time>2026-03-30T11:00:47Z</time></trkpt><trkpt lat="47.52586306279601" lon="0.3160954397049269"><ele>106.4</ele><time>2026-03-30T11:00:49Z</time></trkpt><trkpt lat="47.52594806054939" lon="0.3159928320915615"><ele>106.8</ele><time>2026-03-30T11:00:51Z</time></trkpt><trkpt lat="47.52602382742325" lon="0.3159096858284697"><ele>107.20000000000002</ele><time>2026-03-30T11:00:53Z</time></trkpt><trkpt lat="47.52610992677618" lon="0.31581974258910667"><ele>107.60000000000001</ele><time>2026-03-30T11:00:55Z</time></trkpt><trkpt lat="47.526192706950646" lon="0.3157162113175942"><ele>108.0</ele><time>2026-03-30T11:00:57Z</time></trkpt><trkpt lat="47.52627526165836" lon="0.31561552457857667"><ele>107.4</ele><time>2026-03-30T11:00:59Z</time></trkpt><trkpt lat="47.52634396608947" lon="0.3155053797007569"><ele>106.80000000000001</ele><time>2026-03-30T11:01:01Z</time></trkpt><trkpt lat="47.5264080432981" lon="0.3153873428162808"><ele>106.2</ele><time>2026-03-30T11:01:03Z</time></trkpt><trkpt lat="47.52647870585344" lon="0.3152889470804277"><ele>105.6</ele><time>2026-03-30T11:01:05Z</time></trkpt><trkpt lat="47.526541073646854" lon="0.3151982811141653"><ele>105.0</ele><time>2026-03-30T11:01:07Z</time></trkpt><trkpt lat="47.52661197932357" lon="0.3151009739070738"><ele>105.0</ele><time>2026-03-30T11:01:09Z</time></trkpt><trkpt lat="47.526718188175096" lon="0.3150551270323382"><ele>105.0</ele><time>2026-03-30T11:01:11Z</time></trkpt><trkpt lat="47.526822201295055" lon="0.3150348406967609"><ele>105.0</ele><time>2026-03-30T11:01:13Z</time></trkpt><trkpt lat="47.52692308147095" lon="0.3150368413077743"><ele>105.0</ele><time>2026-03-30T11:01:15Z</time></trkpt><trkpt lat="47.52702108124874" lon="0.31503765007033757"><ele>105.0</ele><time>2026-03-30T11:01:16.999Z</time></trkpt><trkpt lat="47.52713049491285" lon="0.31502023176070243"><ele>104.6</ele><time>2026-03-30T11:01:18.999Z</time></trkpt><trkpt lat="47.52723434335148" lon="0.31498891199045687"><ele>104.2</ele><time>2026-03-30T11:01:20.999Z</time></trkpt><trkpt lat="47.527334689018325" lon="0.3149729290077183"><ele>103.80000000000001</ele><time>2026-03-30T11:01:22.999Z</time></trkpt><trkpt lat="47.52743879361371" lon="0.31492611687640826"><ele>103.4</ele><time>2026-03-30T11:01:25Z</time></trkpt><trkpt lat="47.52750983357566" lon="0.31487452872067"><ele>103.0</ele><time>2026-03-30T11:01:27Z</time></trkpt><trkpt lat="47.52773765580274" lon="0.3147963306070404"><ele>103.0</ele><time>2026-03-30T11:01:30Z</time></trkpt><trkpt lat="47.52785288139047" lon="0.31476358618358197"><ele>103.0</ele><time>2026-03-30T11:01:32Z</time></trkpt><trkpt lat="47.52796944333019" lon="0.3147359796671929"><ele>103.0</ele><time>2026-03-30T11:01:34Z</time></trkpt><trkpt lat="47.528080932832054" lon="0.31469902770472674"><ele>103.0</ele><time>2026-03-30T11:01:36Z</time></trkpt><trkpt lat="47.52818716728021" lon="0.31467459205969767"><ele>103.2</ele><time>2026-03-30T11:01:38Z</time></trkpt><trkpt lat="47.528282873491165" lon="0.3146475012813419"><ele>103.4</ele><time>2026-03-30T11:01:40Z</time></trkpt><trkpt lat="47.52838375459692" lon="0.3146194597616972"><ele>103.60000000000001</ele><time>2026-03-30T11:01:42Z</time></trkpt><trkpt lat="47.528491840492634" lon="0.3145895732512312"><ele>103.80000000000001</ele><time>2026-03-30T11:01:44Z</time></trkpt><trkpt lat="47.528597170070725" lon="0.31455740757709627"><ele>104.0</ele><time>2026-03-30T11:01:46Z</time></trkpt><trkpt lat="47.52870525273697" lon="0.31453373072655844"><ele>104.5</ele><time>2026-03-30T11:01:49Z</time></trkpt><trkpt lat="47.52876477579882" lon="0.3144971183147853"><ele>105.0</ele><time>2026-03-30T11:01:53Z</time></trkpt><trkpt lat="47.52893224005091" lon="0.31440263953621156"><ele>105.5</ele><time>2026-03-30T11:01:55Z</time></trkpt><trkpt lat="47.52909803987356" lon="0.31434833296600817"><ele>106.0</ele><time>2026-03-30T11:01:57Z</time></trkpt><trkpt lat="47.52919953749073" lon="0.31428191185768733"><ele>106.0</ele><time>2026-03-30T11:01:59Z</time></trkpt><trkpt lat="47.52929276213157" lon="0.3142123199919349"><ele>106.0</ele><time>2026-03-30T11:02:01Z</time></trkpt><trkpt lat="47.52938180313178" lon="0.3141558562103353"><ele>106.0</ele><time>2026-03-30T11:02:03Z</time></trkpt><trkpt lat="47.52946672020147" lon="0.3141027123763417"><ele>106.0</ele><time>2026-03-30T11:02:05Z</time></trkpt><trkpt lat="47.52954332920586" lon="0.3140460403795727"><ele>106.0</ele><time>2026-03-30T11:02:07Z</time></trkpt><trkpt lat="47.52962692222908" lon="0.3139965099754295"><ele>106.0</ele><time>2026-03-30T11:02:09Z</time></trkpt><trkpt lat="47.52970190934054" lon="0.31395028313690426"><ele>106.0</ele><time>2026-03-30T11:02:11Z</time></trkpt><trkpt lat="47.52979169400569" lon="0.3138854656811428"><ele>106.0</ele><time>2026-03-30T11:02:13Z</time></trkpt><trkpt lat="47.52987256572443" lon="0.31383438882484815"><ele>106.0</ele><time>2026-03-30T11:02:15Z</time></trkpt><trkpt lat="47.52995315185246" lon="0.313760615957669"><ele>106.0</ele><time>2026-03-30T11:02:19Z</time></trkpt><trkpt lat="47.530051387676636" lon="0.3137152071660803"><ele>106.66666666666667</ele><time>2026-03-30T11:02:22Z</time></trkpt><trkpt lat="47.530136284081294" lon="0.313675990201835"><ele>107.33333333333334</ele><time>2026-03-30T11:02:24Z</time></trkpt><trkpt lat="47.5302269689814" lon="0.31361147610069606"><ele>108.0</ele><time>2026-03-30T11:02:26Z</time></trkpt><trkpt lat="47.53028489233687" lon="0.3135740209748732"><ele>108.66666666666666</ele><time>2026-03-30T11:02:28Z</time></trkpt><trkpt lat="47.53035195008034" lon="0.3135316332086583"><ele>109.33333333333333</ele><time>2026-03-30T11:02:30Z</time></trkpt><trkpt lat="47.530412942357465" lon="0.3134940656475314"><ele>110.0</ele><time>2026-03-30T11:02:32Z</time></trkpt><trkpt lat="47.530486782390575" lon="0.31345176504968114"><ele>110.2</ele><time>2026-03-30T11:02:34Z</time></trkpt><trkpt lat="47.53056002020177" lon="0.31340030807384783"><ele>110.4</ele><time>2026-03-30T11:02:36Z</time></trkpt><trkpt lat="47.53064738570089" lon="0.31332965938083784"><ele>110.6</ele><time>2026-03-30T11:02:38.999Z</time></trkpt><trkpt lat="47.53074115427112" lon="0.3132584660766555"><ele>110.8</ele><time>2026-03-30T11:02:40.999Z</time></trkpt><trkpt lat="47.53084388119859" lon="0.3131737497228707"><ele>111.0</ele><time>2026-03-30T11:02:42.999Z</time></trkpt><trkpt lat="47.530952555533915" lon="0.313102586689345"><ele>111.66666666666667</ele><time>2026-03-30T11:02:44.999Z</time></trkpt><trkpt lat="47.5310334000015" lon="0.3130440883479866"><ele>112.33333333333334</ele><time>2026-03-30T11:02:47.999Z</time></trkpt><trkpt lat="47.531115267789275" lon="0.31302278319708066"><ele>113.0</ele><time>2026-03-30T11:02:49.999Z</time></trkpt><trkpt lat="47.53118286180051" lon="0.3130070507439458"><ele>113.66666666666667</ele><time>2026-03-30T11:02:51.999Z</time></trkpt><trkpt lat="47.53127413143977" lon="0.3130034635078175"><ele>114.33333333333334</ele><time>2026-03-30T11:02:54.999Z</time></trkpt><trkpt lat="47.531368557908614" lon="0.3130161475110328"><ele>115.0</ele><time>2026-03-30T11:02:56.999Z</time></trkpt><trkpt lat="47.53147457713992" lon="0.31298403659608015"><ele>115.2</ele><time>2026-03-30T11:02:58.999Z</time></trkpt><trkpt lat="47.53155161346054" lon="0.3129812244533552"><ele>115.4</ele><time>2026-03-30T11:03:00.999Z</time></trkpt><trkpt lat="47.53163297662104" lon="0.31297922103380094"><ele>115.6</ele><time>2026-03-30T11:03:02.999Z</time></trkpt><trkpt lat="47.5317164661343" lon="0.3129844770143062"><ele>115.8</ele><time>2026-03-30T11:03:04.999Z</time></trkpt><trkpt lat="47.53181413625273" lon="0.3129757388344221"><ele>116.0</ele><time>2026-03-30T11:03:06.999Z</time></trkpt><trkpt lat="47.53192648416408" lon="0.3129832735281335"><ele>116.0</ele><time>2026-03-30T11:03:09.999Z</time></trkpt><trkpt lat="47.531990115816285" lon="0.3129531623607436"><ele>116.0</ele><time>2026-03-30T11:03:11.999Z</time></trkpt><trkpt lat="47.532261122139" lon="0.31291512679655903"><ele>116.0</ele><time>2026-03-30T11:03:13.999Z</time></trkpt><trkpt lat="47.5323283807694" lon="0.31291454603844143"><ele>116.0</ele><time>2026-03-30T11:03:15.999Z</time></trkpt><trkpt lat="47.532415150868815" lon="0.31290481578551854"><ele>115.99999999999999</ele><time>2026-03-30T11:03:17.999Z</time></trkpt><trkpt lat="47.53250861778524" lon="0.31289188484812414"><ele>116.0</ele><time>2026-03-30T11:03:19.999Z</time></trkpt><trkpt lat="47.532600307816054" lon="0.31289590359613517"><ele>116.0</ele><time>2026-03-30T11:03:21.999Z</time></trkpt><trkpt lat="47.53266584216612" lon="0.3128866689773511"><ele>116.0</ele><time>2026-03-30T11:03:25.999Z</time></trkpt><trkpt lat="47.53275867051495" lon="0.31289624515725983"><ele>115.99999999999999</ele><time>2026-03-30T11:03:28.999Z</time></trkpt><trkpt lat="47.532829880633344" lon="0.31290773801262933"><ele>116.0</ele><time>2026-03-30T11:03:32Z</time></trkpt><trkpt lat="47.532932346400635" lon="0.3128868944343211"><ele>115.49999999999999</ele><time>2026-03-30T11:03:35Z</time></trkpt><trkpt lat="47.53300801714063" lon="0.31289504827310566"><ele>115.0</ele><time>2026-03-30T11:03:38Z</time></trkpt><trkpt lat="47.53308759584808" lon="0.3128767893982247"><ele>114.5</ele><time>2026-03-30T11:03:40Z</time></trkpt><trkpt lat="47.533163388014415" lon="0.3128789576259645"><ele>114.0</ele><time>2026-03-30T11:03:42Z</time></trkpt><trkpt lat="47.53325888339332" lon="0.31287879579801164"><ele>113.49999999999999</ele><time>2026-03-30T11:03:45Z</time></trkpt><trkpt lat="47.53332450004917" lon="0.3128604579481147"><ele>113.0</ele><time>2026-03-30T11:03:47Z</time></trkpt><trkpt lat="47.53338788340136" lon="0.3128356561607528"><ele>112.99999999999999</ele><time>2026-03-30T11:03:49Z</time></trkpt><trkpt lat="47.53346395457705" lon="0.3128441020057302"><ele>113.0</ele><time>2026-03-30T11:03:52Z</time></trkpt><trkpt lat="47.53353993704092" lon="0.31283498093871076"><ele>113.0</ele><time>2026-03-30T11:03:55Z</time></trkpt><trkpt lat="47.53360333679625" lon="0.31284305067019613"><ele>113.0</ele><time>2026-03-30T11:03:57Z</time></trkpt><trkpt lat="47.53369112599074" lon="0.3128581806530122"><ele>112.99999999999999</ele><time>2026-03-30T11:04:00Z</time></trkpt><trkpt lat="47.53378351852727" lon="0.3128643979730588"><ele>113.0</ele><time>2026-03-30T11:04:03Z</time></trkpt><trkpt lat="47.533865834201634" lon="0.31287226099068555"><ele>112.80000000000001</ele><time>2026-03-30T11:04:06Z</time></trkpt><trkpt lat="47.533945593238" lon="0.31287560680012816"><ele>112.60000000000001</ele><time>2026-03-30T11:04:09Z</time></trkpt><trkpt lat="47.5340207599835" lon="0.3128614479216689"><ele>112.39999999999999</ele><time>2026-03-30T11:04:11Z</time></trkpt><trkpt lat="47.53415438778758" lon="0.3128909280552845"><ele>112.19999999999999</ele><time>2026-03-30T11:04:16Z</time></trkpt><trkpt lat="47.53425812936918" lon="0.31290281695742417"><ele>112.0</ele><time>2026-03-30T11:04:20Z</time></trkpt><trkpt lat="47.53438030861176" lon="0.31291027081427536"><ele>112.00000000000001</ele><time>2026-03-30T11:04:25Z</time></trkpt><trkpt lat="47.53446919374763" lon="0.312927891758763"><ele>112.0</ele><time>2026-03-30T11:04:28Z</time></trkpt><trkpt lat="47.53453283169207" lon="0.31293276548533"><ele>112.0</ele><time>2026-03-30T11:04:31Z</time></trkpt><trkpt lat="47.53461714155698" lon="0.31293970364528695"><ele>112.0</ele><time>2026-03-30T11:04:34Z</time></trkpt><trkpt lat="47.53469064809447" lon="0.31295531588782177"><ele>112.00000000000001</ele><time>2026-03-30T11:04:37Z</time></trkpt><trkpt lat="47.53475761723747" lon="0.3129574339654816"><ele>112.0</ele><time>2026-03-30T11:04:39Z</time></trkpt><trkpt lat="47.534838020182356" lon="0.31295741664317916"><ele>111.66666666666667</ele><time>2026-03-30T11:04:42Z</time></trkpt><trkpt lat="47.53491774403901" lon="0.31298245485037934"><ele>111.33333333333334</ele><time>2026-03-30T11:04:45Z</time></trkpt><trkpt lat="47.53498292593828" lon="0.31300878491886475"><ele>111.0</ele><time>2026-03-30T11:04:48Z</time></trkpt><trkpt lat="47.53505353345425" lon="0.3130299040897113"><ele>110.66666666666666</ele><time>2026-03-30T11:04:51Z</time></trkpt><trkpt lat="47.535134363083834" lon="0.3130348363405573"><ele>110.33333333333333</ele><time>2026-03-30T11:04:53Z</time></trkpt><trkpt lat="47.535256544572135" lon="0.3130353047190325"><ele>110.0</ele><time>2026-03-30T11:04:56Z</time></trkpt><trkpt lat="47.53533549288051" lon="0.31304791075873245"><ele>110.16666666666666</ele><time>2026-03-30T11:04:58Z</time></trkpt><trkpt lat="47.535411563608406" lon="0.31305080171480026"><ele>110.33333333333333</ele><time>2026-03-30T11:05:00Z</time></trkpt><trkpt lat="47.535537556950956" lon="0.31305490187474005"><ele>110.5</ele><time>2026-03-30T11:05:04Z</time></trkpt><trkpt lat="47.53560839303436" lon="0.3130647473085147"><ele>110.66666666666666</ele><time>2026-03-30T11:05:06Z</time></trkpt><trkpt lat="47.53569172093169" lon="0.31307151072291184"><ele>110.83333333333333</ele><time>2026-03-30T11:05:08Z</time></trkpt><trkpt lat="47.53576163620329" lon="0.3130790830164561"><ele>111.0</ele><time>2026-03-30T11:05:10Z</time></trkpt><trkpt lat="47.535880106742475" lon="0.3130838775956464"><ele>111.0</ele><time>2026-03-30T11:05:13Z</time></trkpt><trkpt lat="47.53594483870083" lon="0.3131042163617364"><ele>111.0</ele><time>2026-03-30T11:05:15Z</time></trkpt><trkpt lat="47.53603847891948" lon="0.31310007154715114"><ele>111.0</ele><time>2026-03-30T11:05:17Z</time></trkpt><trkpt lat="47.53611552846404" lon="0.31311342057482405"><ele>111.0</ele><time>2026-03-30T11:05:19Z</time></trkpt><trkpt lat="47.53618656290498" lon="0.31311336623741554"><ele>111.0</ele><time>2026-03-30T11:05:21Z</time></trkpt><trkpt lat="47.536257450822575" lon="0.3131285977109215"><ele>111.0</ele><time>2026-03-30T11:05:23Z</time></trkpt><trkpt lat="47.53636157603766" lon="0.3131376012028106"><ele>110.0</ele><time>2026-03-30T11:05:25Z</time></trkpt><trkpt lat="47.536459026847275" lon="0.3131506699073862"><ele>109.0</ele><time>2026-03-30T11:05:27Z</time></trkpt><trkpt lat="47.53655351621874" lon="0.31316268320894786"><ele>108.0</ele><time>2026-03-30T11:05:29Z</time></trkpt><trkpt lat="47.5366494417277" lon="0.3131729095027155"><ele>107.0</ele><time>2026-03-30T11:05:31Z</time></trkpt><trkpt lat="47.53676766351385" lon="0.3131848090047856"><ele>106.0</ele><time>2026-03-30T11:05:33Z</time></trkpt><trkpt lat="47.53689149176599" lon="0.3131777453645497"><ele>106.00000000000001</ele><time>2026-03-30T11:05:36Z</time></trkpt><trkpt lat="47.53696878795077" lon="0.3131534993118048"><ele>106.0</ele><time>2026-03-30T11:05:38Z</time></trkpt><trkpt lat="47.5370533040244" lon="0.31311564127198227"><ele>106.0</ele><time>2026-03-30T11:05:41Z</time></trkpt><trkpt lat="47.53714011991665" lon="0.31308553443233594"><ele>106.0</ele><time>2026-03-30T11:07:06Z</time></trkpt><trkpt lat="47.53708806412613" lon="0.3130292695915112"><ele>106.00000000000001</ele><time>2026-03-30T11:07:57Z</time></trkpt><trkpt lat="47.537133589862066" lon="0.3129515812600286"><ele>106.0</ele><time>2026-03-30T11:09:36Z</time></trkpt><trkpt lat="47.53714973512462" lon="0.312852214574725"><ele>105.71428571428572</ele><time>2026-03-30T11:09:46Z</time></trkpt><trkpt lat="47.537143176861726" lon="0.3129528942308863"><ele>105.42857142857142</ele><time>2026-03-30T11:10:12Z</time></trkpt><trkpt lat="47.53713331240152" lon="0.3130560995831198"><ele>105.14285714285714</ele><time>2026-03-30T11:10:22Z</time></trkpt><trkpt lat="47.53713456725811" lon="0.3131541684308593"><ele>104.85714285714286</ele><time>2026-03-30T11:10:54Z</time></trkpt><trkpt lat="47.53710493569247" lon="0.31305710226076816"><ele>104.57142857142858</ele><time>2026-03-30T11:11:06Z</time></trkpt><trkpt lat="47.537120221423834" lon="0.3129525941095311"><ele>104.28571428571428</ele><time>2026-03-30T11:11:13Z</time></trkpt><trkpt lat="47.53716949298088" lon="0.3128902459092214"><ele>104.0</ele><time>2026-03-30T11:11:20Z</time></trkpt><trkpt lat="47.53724642810462" lon="0.31289639370026945"><ele>103.99999999999999</ele><time>2026-03-30T11:11:28Z</time></trkpt><trkpt lat="47.53729633125897" lon="0.31297803857218587"><ele>104.0</ele><time>2026-03-30T11:11:31Z</time></trkpt><trkpt lat="47.53735402735791" lon="0.31305852054682864"><ele>104.0</ele><time>2026-03-30T11:11:34Z</time></trkpt><trkpt lat="47.53741716656752" lon="0.3131503435931295"><ele>104.0</ele><time>2026-03-30T11:11:37Z</time></trkpt><trkpt lat="47.53748761215058" lon="0.3132403063278224"><ele>103.99999999999999</ele><time>2026-03-30T11:11:40Z</time></trkpt><trkpt lat="47.53754238786021" lon="0.31330419632467643"><ele>104.0</ele><time>2026-03-30T11:11:42Z</time></trkpt><trkpt lat="47.53760525105382" lon="0.31337079045025157"><ele>104.0</ele><time>2026-03-30T11:11:44Z</time></trkpt><trkpt lat="47.53767208867543" lon="0.3134329184547022"><ele>104.0</ele><time>2026-03-30T11:11:46Z</time></trkpt><trkpt lat="47.53774901910339" lon="0.3134904578360913"><ele>104.0</ele><time>2026-03-30T11:11:48Z</time></trkpt><trkpt lat="47.53784039806291" lon="0.31354614864180613"><ele>104.0</ele><time>2026-03-30T11:11:50Z</time></trkpt><trkpt lat="47.53794481772528" lon="0.3135922132468323"><ele>104.0</ele><time>2026-03-30T11:11:52Z</time></trkpt><trkpt lat="47.538062473337554" lon="0.313627665600038"><ele>103.33333333333333</ele><time>2026-03-30T11:11:54.001Z</time></trkpt><trkpt lat="47.53812581539935" lon="0.3136433898180588"><ele>102.66666666666666</ele><time>2026-03-30T11:11:55.001Z</time></trkpt><trkpt lat="47.53824048623574" lon="0.3136643303207408"><ele>102.0</ele><time>2026-03-30T11:11:57.001Z</time></trkpt><trkpt lat="47.5383030447785" lon="0.31368020467999386"><ele>101.33333333333334</ele><time>2026-03-30T11:11:58.001Z</time></trkpt><trkpt lat="47.53836945651386" lon="0.31369494083666366"><ele>100.66666666666667</ele><time>2026-03-30T11:11:59.001Z</time></trkpt><trkpt lat="47.53844128045614" lon="0.3137116015380711"><ele>100.0</ele><time>2026-03-30T11:12:00.001Z</time></trkpt><trkpt lat="47.53851701581243" lon="0.3137219634915925"><ele>100.00000000000001</ele><time>2026-03-30T11:12:01.001Z</time></trkpt><trkpt lat="47.53859610698049" lon="0.31373906320103856"><ele>100.0</ele><time>2026-03-30T11:12:02.001Z</time></trkpt><trkpt lat="47.53867866812996" lon="0.31375896106808343"><ele>100.0</ele><time>2026-03-30T11:12:03.001Z</time></trkpt><trkpt lat="47.53876360320106" lon="0.31377988699139137"><ele>100.0</ele><time>2026-03-30T11:12:04.001Z</time></trkpt><trkpt lat="47.538847846249425" lon="0.31379398667697134"><ele>100.00000000000001</ele><time>2026-03-30T11:12:05.001Z</time></trkpt><trkpt lat="47.53893653786328" lon="0.31381937155561357"><ele>100.0</ele><time>2026-03-30T11:12:06.001Z</time></trkpt><trkpt lat="47.53902933129601" lon="0.3138436680526815"><ele>99.0</ele><time>2026-03-30T11:12:07.001Z</time></trkpt><trkpt lat="47.5391260941723" lon="0.31385814593422645"><ele>98.0</ele><time>2026-03-30T11:12:08.001Z</time></trkpt><trkpt lat="47.53922454132921" lon="0.31388178887144635"><ele>97.0</ele><time>2026-03-30T11:12:09.001Z</time></trkpt><trkpt lat="47.539320161682966" lon="0.31391321939663974"><ele>96.0</ele><time>2026-03-30T11:12:10.001Z</time></trkpt><trkpt lat="47.53941904569677" lon="0.3139377974323969"><ele>95.0</ele><time>2026-03-30T11:12:11.001Z</time></trkpt><trkpt lat="47.539522283170314" lon="0.3139615221472422"><ele>92.8</ele><time>2026-03-30T11:12:12.001Z</time></trkpt><trkpt lat="47.53962461286813" lon="0.3139842963694992"><ele>90.6</ele><time>2026-03-30T11:12:13.001Z</time></trkpt><trkpt lat="47.53972830147793" lon="0.3140068399102325"><ele>88.4</ele><time>2026-03-30T11:12:14.001Z</time></trkpt><trkpt lat="47.53983315305565" lon="0.31402824877060775"><ele>86.2</ele><time>2026-03-30T11:12:15.001Z</time></trkpt><trkpt lat="47.5399328962454" lon="0.3140460178501039"><ele>84.0</ele><time>2026-03-30T11:12:16.001Z</time></trkpt><trkpt lat="47.54003876463142" lon="0.31406915183583245"><ele>84.0</ele><time>2026-03-30T11:12:17.001Z</time></trkpt><trkpt lat="47.540150723032085" lon="0.3140906732186783"><ele>84.0</ele><time>2026-03-30T11:12:18.001Z</time></trkpt><trkpt lat="47.54025876919159" lon="0.3141072569605031"><ele>84.0</ele><time>2026-03-30T11:12:19.001Z</time></trkpt><trkpt lat="47.5403652073265" lon="0.3141064505665019"><ele>84.0</ele><time>2026-03-30T11:12:20.001Z</time></trkpt><trkpt lat="47.540466944905376" lon="0.3140844488277111"><ele>84.0</ele><time>2026-03-30T11:12:21.001Z</time></trkpt><trkpt lat="47.54056591019588" lon="0.3140574685845158"><ele>84.16666666666667</ele><time>2026-03-30T11:12:22Z</time></trkpt><trkpt lat="47.540660371316775" lon="0.3140258371710484"><ele>84.33333333333333</ele><time>2026-03-30T11:12:23Z</time></trkpt><trkpt lat="47.54074399950557" lon="0.31398636067524116"><ele>84.5</ele><time>2026-03-30T11:12:24Z</time></trkpt><trkpt lat="47.54082469340981" lon="0.31394861687736625"><ele>84.66666666666666</ele><time>2026-03-30T11:12:25Z</time></trkpt><trkpt lat="47.54090201856315" lon="0.3139190667450073"><ele>84.83333333333333</ele><time>2026-03-30T11:12:26Z</time></trkpt><trkpt lat="47.54097029144155" lon="0.31388384320272805"><ele>85.0</ele><time>2026-03-30T11:12:27Z</time></trkpt><trkpt lat="47.54103558789392" lon="0.3138521517826847"><ele>85.33333333333333</ele><time>2026-03-30T11:12:28Z</time></trkpt><trkpt lat="47.54114743183069" lon="0.31381227549601737"><ele>85.66666666666666</ele><time>2026-03-30T11:12:30Z</time></trkpt><trkpt lat="47.54123868331997" lon="0.31378405773309687"><ele>86.0</ele><time>2026-03-30T11:12:32Z</time></trkpt><trkpt lat="47.541312440690405" lon="0.31376178724156484"><ele>86.33333333333333</ele><time>2026-03-30T11:12:34Z</time></trkpt><trkpt lat="47.54139284073129" lon="0.3137478651717764"><ele>86.66666666666667</ele><time>2026-03-30T11:12:36Z</time></trkpt><trkpt lat="47.541461614488945" lon="0.3137439614291336"><ele>87.0</ele><time>2026-03-30T11:12:38Z</time></trkpt><trkpt lat="47.54154383598651" lon="0.3137522545526535"><ele>87.0</ele><time>2026-03-30T11:12:40Z</time></trkpt><trkpt lat="47.541619984207195" lon="0.3137589476474475"><ele>87.0</ele><time>2026-03-30T11:12:42Z</time></trkpt><trkpt lat="47.54169796980426" lon="0.3137765512558568"><ele>87.0</ele><time>2026-03-30T11:12:44Z</time></trkpt><trkpt lat="47.541772045437526" lon="0.31379955362923456"><ele>87.0</ele><time>2026-03-30T11:12:46Z</time></trkpt><trkpt lat="47.54185557906458" lon="0.3138290010055445"><ele>87.0</ele><time>2026-03-30T11:12:48Z</time></trkpt><trkpt lat="47.5419356775892" lon="0.31385586643863367"><ele>87.0</ele><time>2026-03-30T11:12:50Z</time></trkpt><trkpt lat="47.542014284625886" lon="0.3138994592267388"><ele>86.75</ele><time>2026-03-30T11:12:52Z</time></trkpt><trkpt lat="47.54210059384502" lon="0.3139359184633966"><ele>86.5</ele><time>2026-03-30T11:12:54Z</time></trkpt><trkpt lat="47.54229667115452" lon="0.31402018860849357"><ele>86.25</ele><time>2026-03-30T11:12:57Z</time></trkpt><trkpt lat="47.54240133755071" lon="0.3140645951761349"><ele>86.0</ele><time>2026-03-30T11:12:59Z</time></trkpt><trkpt lat="47.54250824244637" lon="0.3141166345366148"><ele>86.0</ele><time>2026-03-30T11:13:01Z</time></trkpt><trkpt lat="47.54261816485682" lon="0.31416261022418"><ele>86.0</ele><time>2026-03-30T11:13:03Z</time></trkpt><trkpt lat="47.542729894459676" lon="0.3142176174038315"><ele>86.0</ele><time>2026-03-30T11:13:05Z</time></trkpt><trkpt lat="47.54285563143577" lon="0.3142795268830636"><ele>86.0</ele><time>2026-03-30T11:13:07Z</time></trkpt><trkpt lat="47.54292218889556" lon="0.3143084164198809"><ele>86.0</ele><time>2026-03-30T11:13:08Z</time></trkpt><trkpt lat="47.54299025029097" lon="0.3143399001971252"><ele>85.5</ele><time>2026-03-30T11:13:09Z</time></trkpt><trkpt lat="47.54306485463051" lon="0.31437351054608625"><ele>85.0</ele><time>2026-03-30T11:13:10Z</time></trkpt><trkpt lat="47.54313815298956" lon="0.31441159591617235"><ele>84.5</ele><time>2026-03-30T11:13:11Z</time></trkpt><trkpt lat="47.543223061774995" lon="0.3144457214352663"><ele>84.0</ele><time>2026-03-30T11:13:12Z</time></trkpt><trkpt lat="47.543304391725556" lon="0.31448376333729866"><ele>83.5</ele><time>2026-03-30T11:13:13Z</time></trkpt><trkpt lat="47.54338496415875" lon="0.3145215348246504"><ele>83.0</ele><time>2026-03-30T11:13:14Z</time></trkpt><trkpt lat="47.543525476436564" lon="0.31459571960435495"><ele>83.0</ele><time>2026-03-30T11:13:16Z</time></trkpt><trkpt lat="47.54360498241761" lon="0.31463674206696746"><ele>83.0</ele><time>2026-03-30T11:13:17Z</time></trkpt><trkpt lat="47.54368552232844" lon="0.3146722226584505"><ele>83.0</ele><time>2026-03-30T11:13:18Z</time></trkpt><trkpt lat="47.54375727657962" lon="0.31469981362077765"><ele>83.0</ele><time>2026-03-30T11:13:19Z</time></trkpt><trkpt lat="47.543834926054636" lon="0.3147355074527165"><ele>83.0</ele><time>2026-03-30T11:13:20Z</time></trkpt><trkpt lat="47.543911125646936" lon="0.31476844121781017"><ele>83.0</ele><time>2026-03-30T11:13:21Z</time></trkpt><trkpt lat="47.5439841018072" lon="0.31480520008972385"><ele>81.71428571428571</ele><time>2026-03-30T11:13:22Z</time></trkpt><trkpt lat="47.54405525033083" lon="0.31484587331925856"><ele>80.42857142857143</ele><time>2026-03-30T11:13:23Z</time></trkpt><trkpt lat="47.54412414124323" lon="0.31488053453928605"><ele>79.14285714285714</ele><time>2026-03-30T11:13:24Z</time></trkpt><trkpt lat="47.54418994552129" lon="0.31491618826998197"><ele>77.85714285714286</ele><time>2026-03-30T11:13:25Z</time></trkpt><trkpt lat="47.544254296167495" lon="0.31495285614575896"><ele>76.57142857142857</ele><time>2026-03-30T11:13:26Z</time></trkpt><trkpt lat="47.544317824716806" lon="0.3150028523349773"><ele>75.28571428571429</ele><time>2026-03-30T11:13:27Z</time></trkpt><trkpt lat="47.544381643538934" lon="0.31505184737874636"><ele>74.0</ele><time>2026-03-30T11:13:28Z</time></trkpt><trkpt lat="47.544447308051964" lon="0.31510312649689515"><ele>74.0</ele><time>2026-03-30T11:13:29Z</time></trkpt><trkpt lat="47.54451585105123" lon="0.3151563994148589"><ele>74.0</ele><time>2026-03-30T11:13:30Z</time></trkpt><trkpt lat="47.544576112954616" lon="0.31522238724748114"><ele>74.0</ele><time>2026-03-30T11:13:31Z</time></trkpt><trkpt lat="47.54463834544257" lon="0.31528569198289236"><ele>74.0</ele><time>2026-03-30T11:13:32Z</time></trkpt><trkpt lat="47.54470324896792" lon="0.31535357385854973"><ele>74.0</ele><time>2026-03-30T11:13:33Z</time></trkpt><trkpt lat="47.54476318762128" lon="0.3154181619761278"><ele>74.0</ele><time>2026-03-30T11:13:34Z</time></trkpt><trkpt lat="47.54482900162031" lon="0.3154858190109526"><ele>73.33333333333334</ele><time>2026-03-30T11:13:35Z</time></trkpt><trkpt lat="47.54489305832882" lon="0.31555576763750426"><ele>72.66666666666667</ele><time>2026-03-30T11:13:36Z</time></trkpt><trkpt lat="47.54495980772244" lon="0.31562646838366587"><ele>72.0</ele><time>2026-03-30T11:13:37Z</time></trkpt><trkpt lat="47.54502867408397" lon="0.315697170589284"><ele>71.33333333333333</ele><time>2026-03-30T11:13:38Z</time></trkpt><trkpt lat="47.545095711256835" lon="0.3157695936311024"><ele>70.66666666666666</ele><time>2026-03-30T11:13:39Z</time></trkpt><trkpt lat="47.545163245933544" lon="0.31583881208954334"><ele>70.0</ele><time>2026-03-30T11:13:40Z</time></trkpt><trkpt lat="47.54523049215127" lon="0.3159034886248648"><ele>70.0</ele><time>2026-03-30T11:13:41Z</time></trkpt><trkpt lat="47.54529798146203" lon="0.31596664477467384"><ele>70.0</ele><time>2026-03-30T11:13:42Z</time></trkpt><trkpt lat="47.54537147716626" lon="0.316023898532447"><ele>70.0</ele><time>2026-03-30T11:13:43Z</time></trkpt><trkpt lat="47.545440786078395" lon="0.3160687424567127"><ele>70.0</ele><time>2026-03-30T11:13:44Z</time></trkpt><trkpt lat="47.54550917971839" lon="0.3161203767696145"><ele>70.0</ele><time>2026-03-30T11:13:45Z</time></trkpt><trkpt lat="47.54558326688969" lon="0.31615605218898496"><ele>70.0</ele><time>2026-03-30T11:13:46Z</time></trkpt><trkpt lat="47.54565882748778" lon="0.3161927345806942"><ele>70.0</ele><time>2026-03-30T11:13:47Z</time></trkpt><trkpt lat="47.545731060298564" lon="0.31622767591771456"><ele>70.0</ele><time>2026-03-30T11:13:48Z</time></trkpt><trkpt lat="47.54580104684802" lon="0.31626125061439625"><ele>70.0</ele><time>2026-03-30T11:13:49Z</time></trkpt><trkpt lat="47.54586916783584" lon="0.31629199529277735"><ele>70.0</ele><time>2026-03-30T11:13:50Z</time></trkpt><trkpt lat="47.545940630246" lon="0.31631429863005917"><ele>70.0</ele><time>2026-03-30T11:13:51Z</time></trkpt><trkpt lat="47.54600505783134" lon="0.31634240697808597"><ele>70.0</ele><time>2026-03-30T11:13:52Z</time></trkpt><trkpt lat="47.54611571481745" lon="0.3163798688454946"><ele>72.2</ele><time>2026-03-30T11:13:54Z</time></trkpt><trkpt lat="47.54622614993752" lon="0.3164172018225081"><ele>74.4</ele><time>2026-03-30T11:13:56Z</time></trkpt><trkpt lat="47.54632383634797" lon="0.316448601127364"><ele>76.6</ele><time>2026-03-30T11:13:58Z</time></trkpt><trkpt lat="47.5464098603368" lon="0.31649552401597275"><ele>78.8</ele><time>2026-03-30T11:14:00.001Z</time></trkpt><trkpt lat="47.546509937397424" lon="0.3165637173252026"><ele>81.0</ele><time>2026-03-30T11:14:02.001Z</time></trkpt><trkpt lat="47.546592946636196" lon="0.31663000905016336"><ele>81.0</ele><time>2026-03-30T11:14:04.001Z</time></trkpt><trkpt lat="47.54667145366127" lon="0.3166910041076062"><ele>81.0</ele><time>2026-03-30T11:14:06.001Z</time></trkpt><trkpt lat="47.546737638759694" lon="0.3167445945436219"><ele>81.0</ele><time>2026-03-30T11:14:09.001Z</time></trkpt><trkpt lat="47.54689543087645" lon="0.3168440572204206"><ele>81.0</ele><time>2026-03-30T11:14:11.001Z</time></trkpt><trkpt lat="47.54696240778587" lon="0.31690036444228026"><ele>81.0</ele><time>2026-03-30T11:14:13.001Z</time></trkpt><trkpt lat="47.54703004108901" lon="0.31696393741208356"><ele>81.14285714285714</ele><time>2026-03-30T11:14:15.001Z</time></trkpt><trkpt lat="47.54709116369457" lon="0.3170264057179104"><ele>81.28571428571428</ele><time>2026-03-30T11:14:17.001Z</time></trkpt><trkpt lat="47.547144883424416" lon="0.3170883886588675"><ele>81.42857142857142</ele><time>2026-03-30T11:14:19.001Z</time></trkpt><trkpt lat="47.547200533892386" lon="0.3171528675383975"><ele>81.57142857142857</ele><time>2026-03-30T11:14:21.001Z</time></trkpt><trkpt lat="47.54726141604113" lon="0.31721837892729254"><ele>81.71428571428571</ele><time>2026-03-30T11:14:23.001Z</time></trkpt><trkpt lat="47.5473211217486" lon="0.31728733528492425"><ele>81.85714285714285</ele><time>2026-03-30T11:14:25.001Z</time></trkpt><trkpt lat="47.547386746414325" lon="0.31734764920158626"><ele>82.0</ele><time>2026-03-30T11:14:27.001Z</time></trkpt><trkpt lat="47.54744874632603" lon="0.3174124254044451"><ele>82.39999999999999</ele><time>2026-03-30T11:14:29Z</time></trkpt><trkpt lat="47.54750913379769" lon="0.3174807191668295"><ele>82.8</ele><time>2026-03-30T11:14:31Z</time></trkpt><trkpt lat="47.54757884319914" lon="0.31756906115752"><ele>83.2</ele><time>2026-03-30T11:14:35Z</time></trkpt><trkpt lat="47.54770076756433" lon="0.31769126652028834"><ele>83.6</ele><time>2026-03-30T11:14:37Z</time></trkpt><trkpt lat="47.547771006060664" lon="0.3177642088288896"><ele>84.0</ele><time>2026-03-30T11:14:39Z</time></trkpt><trkpt lat="47.54784442900362" lon="0.3178401129753858"><ele>83.83333333333333</ele><time>2026-03-30T11:14:41Z</time></trkpt><trkpt lat="47.54791625783391" lon="0.3179114288015736"><ele>83.66666666666667</ele><time>2026-03-30T11:14:43Z</time></trkpt><trkpt lat="47.54799125410366" lon="0.3179791166292359"><ele>83.5</ele><time>2026-03-30T11:14:45Z</time></trkpt><trkpt lat="47.54805836236606" lon="0.3180563497848788"><ele>83.33333333333334</ele><time>2026-03-30T11:14:47Z</time></trkpt><trkpt lat="47.548136957781885" lon="0.31812621338981967"><ele>83.16666666666667</ele><time>2026-03-30T11:14:49Z</time></trkpt><trkpt lat="47.54820454873695" lon="0.31820377067929123"><ele>83.0</ele><time>2026-03-30T11:14:51Z</time></trkpt><trkpt lat="47.548273744294534" lon="0.3182700926107603"><ele>83.2</ele><time>2026-03-30T11:14:53Z</time></trkpt><trkpt lat="47.5483402792575" lon="0.31835786931780913"><ele>83.4</ele><time>2026-03-30T11:14:56Z</time></trkpt><trkpt lat="47.54841153654614" lon="0.3184291592189742"><ele>83.60000000000001</ele><time>2026-03-30T11:14:58Z</time></trkpt><trkpt lat="47.548503217940365" lon="0.3185189702353609"><ele>83.80000000000001</ele><time>2026-03-30T11:15:01Z</time></trkpt><trkpt lat="47.548580798191516" lon="0.3185997963555221"><ele>84.0</ele><time>2026-03-30T11:15:03Z</time></trkpt><trkpt lat="47.54875313387972" lon="0.31872195424178346"><ele>84.0</ele><time>2026-03-30T11:15:06Z</time></trkpt><trkpt lat="47.548817822679155" lon="0.31877699087190536"><ele>84.0</ele><time>2026-03-30T11:15:08Z</time></trkpt><trkpt lat="47.548880390849064" lon="0.3188212617949931"><ele>84.0</ele><time>2026-03-30T11:15:11Z</time></trkpt><trkpt lat="47.54895742149503" lon="0.31886751464822566"><ele>84.0</ele><time>2026-03-30T11:15:15Z</time></trkpt><trkpt lat="47.549019621334025" lon="0.3188458567073101"><ele>84.0</ele><time>2026-03-30T11:15:17Z</time></trkpt><trkpt lat="47.54908342488236" lon="0.31875809883877376"><ele>84.0</ele><time>2026-03-30T11:15:19Z</time></trkpt><trkpt lat="47.549137677203504" lon="0.31864817564159964"><ele>84.0</ele><time>2026-03-30T11:15:21Z</time></trkpt><trkpt lat="47.549155674126645" lon="0.31852415069413503"><ele>84.0</ele><time>2026-03-30T11:15:23Z</time></trkpt><trkpt lat="47.54920822797197" lon="0.31839679364238843"><ele>84.0</ele><time>2026-03-30T11:15:25Z</time></trkpt><trkpt lat="47.549293572997954" lon="0.31830343038787756"><ele>84.0</ele><time>2026-03-30T11:15:27Z</time></trkpt><trkpt lat="47.54936127317925" lon="0.31817124062538527"><ele>84.0</ele><time>2026-03-30T11:15:29Z</time></trkpt><trkpt lat="47.5494221726724" lon="0.318054379967187"><ele>83.66666666666667</ele><time>2026-03-30T11:15:31Z</time></trkpt><trkpt lat="47.54948589113039" lon="0.31794634874292077"><ele>83.33333333333333</ele><time>2026-03-30T11:15:33Z</time></trkpt><trkpt lat="47.54954850920313" lon="0.31783886894841723"><ele>83.0</ele><time>2026-03-30T11:15:35Z</time></trkpt><trkpt lat="47.549615088360454" lon="0.31773962860652216"><ele>82.66666666666666</ele><time>2026-03-30T11:15:37Z</time></trkpt><trkpt lat="47.549678872239234" lon="0.3176655224414279"><ele>82.33333333333333</ele><time>2026-03-30T11:15:39Z</time></trkpt><trkpt lat="47.549746759036864" lon="0.3176910124452006"><ele>82.0</ele><time>2026-03-30T11:15:41Z</time></trkpt><trkpt lat="47.549801194188255" lon="0.3177654794000343"><ele>81.8</ele><time>2026-03-30T11:15:42Z</time></trkpt><trkpt lat="47.54986663690939" lon="0.31788630272705837"><ele>81.6</ele><time>2026-03-30T11:15:44Z</time></trkpt><trkpt lat="47.54994627453316" lon="0.3180087454231642"><ele>81.39999999999999</ele><time>2026-03-30T11:15:46Z</time></trkpt><trkpt lat="47.55002942962594" lon="0.31815264406589616"><ele>81.19999999999999</ele><time>2026-03-30T11:15:48Z</time></trkpt><trkpt lat="47.55007351989043" lon="0.31822443984954146"><ele>81.0</ele><time>2026-03-30T11:15:49Z</time></trkpt><trkpt lat="47.550123340902715" lon="0.318294078554119"><ele>80.71428571428572</ele><time>2026-03-30T11:15:50Z</time></trkpt><trkpt lat="47.550163824636776" lon="0.3183728782783817"><ele>80.42857142857143</ele><time>2026-03-30T11:15:51Z</time></trkpt><trkpt lat="47.55020829370477" lon="0.318448046466266"><ele>80.14285714285714</ele><time>2026-03-30T11:15:52Z</time></trkpt><trkpt lat="47.550259774879514" lon="0.31851882429858136"><ele>79.85714285714286</ele><time>2026-03-30T11:15:53Z</time></trkpt><trkpt lat="47.55030792408272" lon="0.3185919916298964"><ele>79.57142857142857</ele><time>2026-03-30T11:15:54Z</time></trkpt><trkpt lat="47.55035479995392" lon="0.3186634944729591"><ele>79.28571428571429</ele><time>2026-03-30T11:15:55Z</time></trkpt><trkpt lat="47.550403821469764" lon="0.3187352424708499"><ele>79.0</ele><time>2026-03-30T11:15:56Z</time></trkpt><trkpt lat="47.550480190924915" lon="0.3188871830065818"><ele>78.71428571428572</ele><time>2026-03-30T11:15:58Z</time></trkpt><trkpt lat="47.55052728196852" lon="0.31896549279030784"><ele>78.42857142857143</ele><time>2026-03-30T11:15:59Z</time></trkpt><trkpt lat="47.55057723982757" lon="0.3190567633727608"><ele>78.14285714285714</ele><time>2026-03-30T11:16:00Z</time></trkpt><trkpt lat="47.55063108591122" lon="0.31912124010793025"><ele>77.85714285714286</ele><time>2026-03-30T11:16:01Z</time></trkpt><trkpt lat="47.55068567250831" lon="0.31919543901932207"><ele>77.57142857142857</ele><time>2026-03-30T11:16:02Z</time></trkpt><trkpt lat="47.55074192769961" lon="0.3192605272690751"><ele>77.28571428571429</ele><time>2026-03-30T11:16:03Z</time></trkpt><trkpt lat="47.55079806008573" lon="0.3193147419766488"><ele>77.0</ele><time>2026-03-30T11:16:04Z</time></trkpt><trkpt lat="47.55085872383925" lon="0.3193662335544192"><ele>77.0</ele><time>2026-03-30T11:16:05Z</time></trkpt><trkpt lat="47.55092232051693" lon="0.31940863670761166"><ele>77.0</ele><time>2026-03-30T11:16:06.001Z</time></trkpt><trkpt lat="47.5509884043279" lon="0.3194433496841254"><ele>77.0</ele><time>2026-03-30T11:16:07.001Z</time></trkpt><trkpt lat="47.55105211597877" lon="0.3194742125887773"><ele>77.0</ele><time>2026-03-30T11:16:08.001Z</time></trkpt><trkpt lat="47.551115222504734" lon="0.31950353971092965"><ele>77.0</ele><time>2026-03-30T11:16:09.001Z</time></trkpt><trkpt lat="47.55118522433729" lon="0.3195318848972489"><ele>77.0</ele><time>2026-03-30T11:16:10.001Z</time></trkpt><trkpt lat="47.55125513822224" lon="0.31956433933229933"><ele>77.0</ele><time>2026-03-30T11:16:11.001Z</time></trkpt><trkpt lat="47.55132487817306" lon="0.31959313998498556"><ele>76.42857142857143</ele><time>2026-03-30T11:16:12.001Z</time></trkpt><trkpt lat="47.55139629018127" lon="0.31962104075452064"><ele>75.85714285714286</ele><time>2026-03-30T11:16:13.001Z</time></trkpt><trkpt lat="47.55146826927778" lon="0.3196541066338923"><ele>75.28571428571428</ele><time>2026-03-30T11:16:14.001Z</time></trkpt><trkpt lat="47.551536769148136" lon="0.3196914556982831"><ele>74.71428571428572</ele><time>2026-03-30T11:16:15.001Z</time></trkpt><trkpt lat="47.55160772904353" lon="0.3197200310152163"><ele>74.14285714285714</ele><time>2026-03-30T11:16:16.001Z</time></trkpt><trkpt lat="47.55166960942707" lon="0.3197505877482606"><ele>73.57142857142857</ele><time>2026-03-30T11:16:17.001Z</time></trkpt><trkpt lat="47.55174254069413" lon="0.3197781091849281"><ele>73.0</ele><time>2026-03-30T11:16:18.001Z</time></trkpt><trkpt lat="47.55180686332409" lon="0.31980492186403164"><ele>72.71428571428571</ele><time>2026-03-30T11:16:19.001Z</time></trkpt><trkpt lat="47.55186815650709" lon="0.3198381912276133"><ele>72.42857142857143</ele><time>2026-03-30T11:16:20.001Z</time></trkpt><trkpt lat="47.55193723565433" lon="0.3198656095179138"><ele>72.14285714285714</ele><time>2026-03-30T11:16:21.001Z</time></trkpt><trkpt lat="47.55200027671817" lon="0.3198909739523832"><ele>71.85714285714286</ele><time>2026-03-30T11:16:22.001Z</time></trkpt><trkpt lat="47.55206764769365" lon="0.3199197934369329"><ele>71.57142857142857</ele><time>2026-03-30T11:16:23.001Z</time></trkpt><trkpt lat="47.55213116873367" lon="0.31994386957059573"><ele>71.28571428571428</ele><time>2026-03-30T11:16:24.001Z</time></trkpt><trkpt lat="47.5522021937116" lon="0.3199644461735086"><ele>71.0</ele><time>2026-03-30T11:16:25.001Z</time></trkpt><trkpt lat="47.552268741913466" lon="0.3199785352185215"><ele>70.42857142857143</ele><time>2026-03-30T11:16:26.001Z</time></trkpt><trkpt lat="47.55233550659229" lon="0.31999012817444356"><ele>69.85714285714285</ele><time>2026-03-30T11:16:27.001Z</time></trkpt><trkpt lat="47.552402416387416" lon="0.3200092322097981"><ele>69.28571428571428</ele><time>2026-03-30T11:16:28.001Z</time></trkpt><trkpt lat="47.55246465555528" lon="0.32002800648998575"><ele>68.71428571428571</ele><time>2026-03-30T11:16:29.001Z</time></trkpt><trkpt lat="47.55253224912464" lon="0.32003997510181986"><ele>68.14285714285714</ele><time>2026-03-30T11:16:30.001Z</time></trkpt><trkpt lat="47.55259743563822" lon="0.32005151113011987"><ele>67.57142857142857</ele><time>2026-03-30T11:16:31.001Z</time></trkpt><trkpt lat="47.55266628017846" lon="0.3200670320176392"><ele>67.0</ele><time>2026-03-30T11:16:32Z</time></trkpt><trkpt lat="47.55273404254052" lon="0.3200788231727281"><ele>67.0</ele><time>2026-03-30T11:16:33Z</time></trkpt><trkpt lat="47.55280070177819" lon="0.32009337334077137"><ele>67.0</ele><time>2026-03-30T11:16:34Z</time></trkpt><trkpt lat="47.55286805629545" lon="0.3201104864215344"><ele>67.0</ele><time>2026-03-30T11:16:35Z</time></trkpt><trkpt lat="47.55293641445929" lon="0.32011885912878446"><ele>67.0</ele><time>2026-03-30T11:16:36Z</time></trkpt><trkpt lat="47.55299867311344" lon="0.3201391288323449"><ele>67.0</ele><time>2026-03-30T11:16:37Z</time></trkpt><trkpt lat="47.553116184125685" lon="0.32015916846103587"><ele>67.0</ele><time>2026-03-30T11:16:39Z</time></trkpt><trkpt lat="47.553179479017025" lon="0.32017183540320143"><ele>66.8</ele><time>2026-03-30T11:16:40Z</time></trkpt><trkpt lat="47.55329814234096" lon="0.32019038388408155"><ele>66.6</ele><time>2026-03-30T11:16:42Z</time></trkpt><trkpt lat="47.553360403430524" lon="0.32020557734475996"><ele>66.39999999999999</ele><time>2026-03-30T11:16:43Z</time></trkpt><trkpt lat="47.553473281938224" lon="0.32022775660183267"><ele>66.2</ele><time>2026-03-30T11:16:45Z</time></trkpt><trkpt lat="47.55357868117396" lon="0.32023869632000324"><ele>66.0</ele><time>2026-03-30T11:16:47Z</time></trkpt><trkpt lat="47.55369084368203" lon="0.3202459188250827"><ele>65.6</ele><time>2026-03-30T11:16:49Z</time></trkpt><trkpt lat="47.553794609057384" lon="0.32026355724186184"><ele>65.19999999999999</ele><time>2026-03-30T11:16:51Z</time></trkpt><trkpt lat="47.55390356641013" lon="0.3202788729881868"><ele>64.80000000000001</ele><time>2026-03-30T11:16:53Z</time></trkpt><trkpt lat="47.55401801270096" lon="0.3202872759779322"><ele>64.4</ele><time>2026-03-30T11:16:55Z</time></trkpt><trkpt lat="47.55413170861939" lon="0.3203057053564189"><ele>64.0</ele><time>2026-03-30T11:16:57Z</time></trkpt><trkpt lat="47.55424146347807" lon="0.3203171198384668"><ele>64.0</ele><time>2026-03-30T11:16:59Z</time></trkpt><trkpt lat="47.55434643386602" lon="0.32034630710452483"><ele>64.0</ele><time>2026-03-30T11:17:01Z</time></trkpt><trkpt lat="47.55444575401011" lon="0.3203641442889488"><ele>64.0</ele><time>2026-03-30T11:17:03Z</time></trkpt><trkpt lat="47.55454133866617" lon="0.3203829224235835"><ele>64.0</ele><time>2026-03-30T11:17:05Z</time></trkpt><trkpt lat="47.55463810373792" lon="0.32041174839250663"><ele>64.0</ele><time>2026-03-30T11:17:07Z</time></trkpt><trkpt lat="47.55472626871715" lon="0.32043339041439184"><ele>63.99999999999999</ele><time>2026-03-30T11:17:09Z</time></trkpt><trkpt lat="47.55480779250042" lon="0.32045977565344924"><ele>64.0</ele><time>2026-03-30T11:17:11Z</time></trkpt><trkpt lat="47.554890215124516" lon="0.3204981589458038"><ele>64.0</ele><time>2026-03-30T11:17:13Z</time></trkpt><trkpt lat="47.554978447561446" lon="0.3205294565404892"><ele>64.0</ele><time>2026-03-30T11:17:15Z</time></trkpt><trkpt lat="47.55505878569482" lon="0.32055346491077596"><ele>63.99999999999999</ele><time>2026-03-30T11:17:17Z</time></trkpt><trkpt lat="47.55513927663699" lon="0.3205890772291939"><ele>64.0</ele><time>2026-03-30T11:17:19Z</time></trkpt><trkpt lat="47.55522835008548" lon="0.3206255913499623"><ele>64.0</ele><time>2026-03-30T11:17:21Z</time></trkpt><trkpt lat="47.555317477267735" lon="0.3206635799157526"><ele>64.0</ele><time>2026-03-30T11:17:23Z</time></trkpt><trkpt lat="47.555406350793724" lon="0.3207035651057967"><ele>64.0</ele><time>2026-03-30T11:17:25Z</time></trkpt><trkpt lat="47.55549405350603" lon="0.32073924157997796"><ele>64.0</ele><time>2026-03-30T11:17:27Z</time></trkpt><trkpt lat="47.55558970008212" lon="0.3207724056385935"><ele>64.0</ele><time>2026-03-30T11:17:29Z</time></trkpt><trkpt lat="47.555692909252954" lon="0.3208082022161397"><ele>64.2</ele><time>2026-03-30T11:17:31Z</time></trkpt><trkpt lat="47.555801544117664" lon="0.3208487431632458"><ele>64.4</ele><time>2026-03-30T11:17:33Z</time></trkpt><trkpt lat="47.55591513150474" lon="0.3208946301701065"><ele>64.6</ele><time>2026-03-30T11:17:35Z</time></trkpt><trkpt lat="47.55603548227521" lon="0.32093579765574054"><ele>64.8</ele><time>2026-03-30T11:17:37Z</time></trkpt><trkpt lat="47.556097156512074" lon="0.32096037628474033"><ele>65.0</ele><time>2026-03-30T11:17:38Z</time></trkpt><trkpt lat="47.5561609105958" lon="0.32098478360793353"><ele>64.83333333333334</ele><time>2026-03-30T11:17:39Z</time></trkpt><trkpt lat="47.556226137144336" lon="0.32100859211173066"><ele>64.66666666666667</ele><time>2026-03-30T11:17:40Z</time></trkpt><trkpt lat="47.556292363479486" lon="0.3210297834532668"><ele>64.5</ele><time>2026-03-30T11:17:41Z</time></trkpt><trkpt lat="47.556356451621554" lon="0.32105233144394646"><ele>64.33333333333333</ele><time>2026-03-30T11:17:42Z</time></trkpt><trkpt lat="47.55642244846913" lon="0.3210713285598501"><ele>64.16666666666666</ele><time>2026-03-30T11:17:43Z</time></trkpt><trkpt lat="47.55648703902633" lon="0.32108947734741633"><ele>64.0</ele><time>2026-03-30T11:17:44Z</time></trkpt><trkpt lat="47.55661263434493" lon="0.3211173262762684"><ele>64.0</ele><time>2026-03-30T11:17:46Z</time></trkpt><trkpt lat="47.5567295317854" lon="0.3211359123078022"><ele>64.0</ele><time>2026-03-30T11:17:48Z</time></trkpt><trkpt lat="47.5568451195854" lon="0.3211460176158567"><ele>64.0</ele><time>2026-03-30T11:17:50Z</time></trkpt><trkpt lat="47.556946093980436" lon="0.32114584350907716"><ele>64.0</ele><time>2026-03-30T11:17:52Z</time></trkpt><trkpt lat="47.557043137401095" lon="0.3211557280338851"><ele>64.0</ele><time>2026-03-30T11:17:54Z</time></trkpt><trkpt lat="47.55712511304076" lon="0.32114262567698737"><ele>64.16666666666666</ele><time>2026-03-30T11:17:56Z</time></trkpt><trkpt lat="47.55719966407725" lon="0.32113174068988803"><ele>64.33333333333333</ele><time>2026-03-30T11:17:58Z</time></trkpt><trkpt lat="47.5572652609304" lon="0.32112895733574714"><ele>64.5</ele><time>2026-03-30T11:18:00Z</time></trkpt><trkpt lat="47.55734250479209" lon="0.32110994045693825"><ele>64.66666666666667</ele><time>2026-03-30T11:18:03Z</time></trkpt><trkpt lat="47.557410413932956" lon="0.32109099498929383"><ele>64.83333333333334</ele><time>2026-03-30T11:19:26Z</time></trkpt><trkpt lat="47.55748999788468" lon="0.3210577101081561"><ele>65.0</ele><time>2026-03-30T11:19:30Z</time></trkpt><trkpt lat="47.55756551884412" lon="0.3210183275448686"><ele>65.0</ele><time>2026-03-30T11:19:33Z</time></trkpt><trkpt lat="47.55765175932263" lon="0.3209919165003923"><ele>65.0</ele><time>2026-03-30T11:19:36Z</time></trkpt><trkpt lat="47.557719280483774" lon="0.3209692055551666"><ele>65.0</ele><time>2026-03-30T11:19:38Z</time></trkpt><trkpt lat="47.5577949689682" lon="0.3209487153387888"><ele>65.0</ele><time>2026-03-30T11:19:40Z</time></trkpt><trkpt lat="47.55786771997435" lon="0.3209061511005326"><ele>65.0</ele><time>2026-03-30T11:19:42Z</time></trkpt><trkpt lat="47.557949407847204" lon="0.3208911308757451"><ele>65.0</ele><time>2026-03-30T11:19:44Z</time></trkpt><trkpt lat="47.55803345958377" lon="0.32086115309652014"><ele>65.33333333333334</ele><time>2026-03-30T11:19:46Z</time></trkpt><trkpt lat="47.55810978209067" lon="0.3208371692944953"><ele>65.66666666666667</ele><time>2026-03-30T11:19:48Z</time></trkpt><trkpt lat="47.55818640836167" lon="0.3208134376889759"><ele>66.0</ele><time>2026-03-30T11:19:50Z</time></trkpt><trkpt lat="47.55827317121408" lon="0.3207996251268805"><ele>66.33333333333333</ele><time>2026-03-30T11:19:52Z</time></trkpt><trkpt lat="47.55835395800757" lon="0.32077621284322233"><ele>66.66666666666666</ele><time>2026-03-30T11:19:54Z</time></trkpt><trkpt lat="47.55843764103698" lon="0.3207620618958508"><ele>67.0</ele><time>2026-03-30T11:19:56Z</time></trkpt><trkpt lat="47.558517117303644" lon="0.3207500984413278"><ele>67.0</ele><time>2026-03-30T11:19:58Z</time></trkpt><trkpt lat="47.55859222831578" lon="0.3207397345221384"><ele>67.0</ele><time>2026-03-30T11:20:00Z</time></trkpt><trkpt lat="47.55866813389112" lon="0.32073175939406107"><ele>67.0</ele><time>2026-03-30T11:20:02Z</time></trkpt><trkpt lat="47.55873954942243" lon="0.32071888789751635"><ele>67.0</ele><time>2026-03-30T11:20:04Z</time></trkpt><trkpt lat="47.558810556343666" lon="0.32071348499014646"><ele>67.0</ele><time>2026-03-30T11:20:06Z</time></trkpt><trkpt lat="47.55888121589511" lon="0.3207222678664495"><ele>67.0</ele><time>2026-03-30T11:20:08Z</time></trkpt><trkpt lat="47.55895140381431" lon="0.3207275922759219"><ele>67.0</ele><time>2026-03-30T11:20:10Z</time></trkpt><trkpt lat="47.55904058542607" lon="0.3207397524143461"><ele>67.57142857142857</ele><time>2026-03-30T11:20:13Z</time></trkpt><trkpt lat="47.55910186806662" lon="0.32071456826908995"><ele>68.14285714285714</ele><time>2026-03-30T11:20:15Z</time></trkpt><trkpt lat="47.559178218256854" lon="0.32073245093195485"><ele>68.71428571428571</ele><time>2026-03-30T11:20:17Z</time></trkpt><trkpt lat="47.559245032952916" lon="0.3207225835469294"><ele>69.28571428571428</ele><time>2026-03-30T11:20:19Z</time></trkpt><trkpt lat="47.55931039056847" lon="0.32071451507243576"><ele>69.85714285714285</ele><time>2026-03-30T11:20:21Z</time></trkpt><trkpt lat="47.55937661234114" lon="0.3207103509419215"><ele>70.42857142857143</ele><time>2026-03-30T11:20:23Z</time></trkpt><trkpt lat="47.55945302190184" lon="0.3207001695480813"><ele>71.0</ele><time>2026-03-30T11:20:25Z</time></trkpt><trkpt lat="47.559528368468115" lon="0.32068881743966726"><ele>71.33333333333334</ele><time>2026-03-30T11:20:27Z</time></trkpt><trkpt lat="47.5596004955872" lon="0.32067317341838164"><ele>71.66666666666667</ele><time>2026-03-30T11:20:29Z</time></trkpt><trkpt lat="47.55967517685406" lon="0.32064729092764055"><ele>72.0</ele><time>2026-03-30T11:20:31Z</time></trkpt><trkpt lat="47.55974953373617" lon="0.3206149041509764"><ele>72.33333333333333</ele><time>2026-03-30T11:20:33Z</time></trkpt><trkpt lat="47.55982219905021" lon="0.3205777233730228"><ele>72.66666666666666</ele><time>2026-03-30T11:20:35Z</time></trkpt><trkpt lat="47.559893258817745" lon="0.3205387258348037"><ele>73.0</ele><time>2026-03-30T11:20:37Z</time></trkpt><trkpt lat="47.55996318619537" lon="0.3204926561450999"><ele>72.66666666666666</ele><time>2026-03-30T11:20:39Z</time></trkpt><trkpt lat="47.560034322519286" lon="0.3204396853444392"><ele>72.33333333333333</ele><time>2026-03-30T11:20:41Z</time></trkpt><trkpt lat="47.56011061380084" lon="0.32039933207635257"><ele>72.0</ele><time>2026-03-30T11:20:43Z</time></trkpt><trkpt lat="47.56018038657634" lon="0.3203412015445954"><ele>71.66666666666667</ele><time>2026-03-30T11:20:45Z</time></trkpt><trkpt lat="47.560252117725305" lon="0.32030401104442824"><ele>71.33333333333334</ele><time>2026-03-30T11:20:47Z</time></trkpt><trkpt lat="47.560328199246584" lon="0.32025942173137756"><ele>71.0</ele><time>2026-03-30T11:20:49Z</time></trkpt><trkpt lat="47.560405713502306" lon="0.32020472291317026"><ele>71.0</ele><time>2026-03-30T11:20:51Z</time></trkpt><trkpt lat="47.56048794569879" lon="0.320160357831015"><ele>71.0</ele><time>2026-03-30T11:20:53Z</time></trkpt><trkpt lat="47.560575712375936" lon="0.32011393539534244"><ele>71.0</ele><time>2026-03-30T11:20:55Z</time></trkpt><trkpt lat="47.56066901446297" lon="0.3200686332419614"><ele>71.0</ele><time>2026-03-30T11:20:57Z</time></trkpt><trkpt lat="47.56076347054906" lon="0.3200284338066329"><ele>71.0</ele><time>2026-03-30T11:20:59Z</time></trkpt><trkpt lat="47.56086061263086" lon="0.3199821007244871"><ele>71.0</ele><time>2026-03-30T11:21:01Z</time></trkpt><trkpt lat="47.560955163443225" lon="0.3199437719514484"><ele>71.0</ele><time>2026-03-30T11:21:03Z</time></trkpt><trkpt lat="47.5610406136644" lon="0.3199114792895408"><ele>71.0</ele><time>2026-03-30T11:21:05Z</time></trkpt><trkpt lat="47.56111316577881" lon="0.31986137521344027"><ele>71.0</ele><time>2026-03-30T11:21:07Z</time></trkpt><trkpt lat="47.56118370546212" lon="0.31981110676137353"><ele>71.0</ele><time>2026-03-30T11:21:09Z</time></trkpt><trkpt lat="47.561262280200225" lon="0.3197559207656779"><ele>71.0</ele><time>2026-03-30T11:21:11Z</time></trkpt><trkpt lat="47.56133991085681" lon="0.31969031033763395"><ele>70.8</ele><time>2026-03-30T11:21:13Z</time></trkpt><trkpt lat="47.56141198741798" lon="0.31960145123100386"><ele>70.6</ele><time>2026-03-30T11:21:15Z</time></trkpt><trkpt lat="47.561487991110845" lon="0.3194855987794743"><ele>70.4</ele><time>2026-03-30T11:21:17Z</time></trkpt><trkpt lat="47.561564451936334" lon="0.3193586761723129"><ele>70.2</ele><time>2026-03-30T11:21:19Z</time></trkpt><trkpt lat="47.5616443223803" lon="0.31923359714547656"><ele>70.0</ele><time>2026-03-30T11:21:21Z</time></trkpt><trkpt lat="47.5617255977695" lon="0.31910823998423865"><ele>70.0</ele><time>2026-03-30T11:21:23Z</time></trkpt><trkpt lat="47.56180755615528" lon="0.31898171175736617"><ele>70.0</ele><time>2026-03-30T11:21:25Z</time></trkpt><trkpt lat="47.56188902465961" lon="0.3188612570059663"><ele>70.0</ele><time>2026-03-30T11:21:27Z</time></trkpt><trkpt lat="47.56197284524207" lon="0.3187462131938066"><ele>70.0</ele><time>2026-03-30T11:21:29Z</time></trkpt><trkpt lat="47.562057142994234" lon="0.31864009350419764"><ele>69.6</ele><time>2026-03-30T11:21:31Z</time></trkpt><trkpt lat="47.56214561882419" lon="0.3185437504533557"><ele>69.2</ele><time>2026-03-30T11:21:33Z</time></trkpt><trkpt lat="47.56222399414193" lon="0.3184413741030942"><ele>68.8</ele><time>2026-03-30T11:21:35Z</time></trkpt><trkpt lat="47.56230342339724" lon="0.31835687980517635"><ele>68.4</ele><time>2026-03-30T11:21:37Z</time></trkpt><trkpt lat="47.56239040715382" lon="0.3182869756587453"><ele>68.0</ele><time>2026-03-30T11:21:39Z</time></trkpt><trkpt lat="47.56246971844437" lon="0.3182167110495834"><ele>68.0</ele><time>2026-03-30T11:21:41Z</time></trkpt><trkpt lat="47.562536856320264" lon="0.3181509147841005"><ele>68.0</ele><time>2026-03-30T11:21:43Z</time></trkpt><trkpt lat="47.56261000691598" lon="0.31810247638065037"><ele>68.0</ele><time>2026-03-30T11:21:45Z</time></trkpt><trkpt lat="47.56268701800247" lon="0.3180491486464723"><ele>68.0</ele><time>2026-03-30T11:21:47Z</time></trkpt><trkpt lat="47.56276448634052" lon="0.31799126870876027"><ele>68.0</ele><time>2026-03-30T11:21:49Z</time></trkpt><trkpt lat="47.56284925794586" lon="0.31794270697773763"><ele>68.0</ele><time>2026-03-30T11:21:51Z</time></trkpt><trkpt lat="47.56293068090953" lon="0.3178958617002299"><ele>67.85714285714285</ele><time>2026-03-30T11:21:53Z</time></trkpt><trkpt lat="47.5630039067872" lon="0.31786145462091864"><ele>67.71428571428571</ele><time>2026-03-30T11:21:55Z</time></trkpt><trkpt lat="47.56307645851151" lon="0.317826391497224"><ele>67.57142857142857</ele><time>2026-03-30T11:21:57Z</time></trkpt><trkpt lat="47.56314922279437" lon="0.3177955520089829"><ele>67.42857142857142</ele><time>2026-03-30T11:21:59Z</time></trkpt><trkpt lat="47.5632159978376" lon="0.31776177358309926"><ele>67.28571428571428</ele><time>2026-03-30T11:22:01Z</time></trkpt><trkpt lat="47.56328597260454" lon="0.3177399192798148"><ele>67.14285714285714</ele><time>2026-03-30T11:22:03Z</time></trkpt><trkpt lat="47.56335708304371" lon="0.3177202511413057"><ele>67.0</ele><time>2026-03-30T11:22:05Z</time></trkpt><trkpt lat="47.563432378719085" lon="0.3176893082499002"><ele>67.0</ele><time>2026-03-30T11:22:07Z</time></trkpt><trkpt lat="47.56352071861647" lon="0.3176598628346502"><ele>67.0</ele><time>2026-03-30T11:22:09Z</time></trkpt><trkpt lat="47.56360403945363" lon="0.31764034096742383"><ele>67.0</ele><time>2026-03-30T11:22:11Z</time></trkpt><trkpt lat="47.5636881789986" lon="0.3176236444006465"><ele>67.0</ele><time>2026-03-30T11:22:13Z</time></trkpt><trkpt lat="47.56377387658555" lon="0.3176009220018713"><ele>67.0</ele><time>2026-03-30T11:22:15Z</time></trkpt><trkpt lat="47.5638635564388" lon="0.31757283038030765"><ele>67.0</ele><time>2026-03-30T11:22:17Z</time></trkpt><trkpt lat="47.56394742062711" lon="0.3175506405252135"><ele>66.83333333333333</ele><time>2026-03-30T11:22:19Z</time></trkpt><trkpt lat="47.564030504629116" lon="0.31753099573079535"><ele>66.66666666666666</ele><time>2026-03-30T11:22:21Z</time></trkpt><trkpt lat="47.56411000602037" lon="0.31750410992969136"><ele>66.5</ele><time>2026-03-30T11:22:23Z</time></trkpt><trkpt lat="47.564194873614696" lon="0.31748177522344934"><ele>66.33333333333333</ele><time>2026-03-30T11:22:25Z</time></trkpt><trkpt lat="47.56428580708341" lon="0.31745689633928714"><ele>66.16666666666667</ele><time>2026-03-30T11:22:27Z</time></trkpt><trkpt lat="47.56438230736029" lon="0.3174200401746353"><ele>66.0</ele><time>2026-03-30T11:22:29Z</time></trkpt><trkpt lat="47.56448602868905" lon="0.31739885181977706"><ele>66.2</ele><time>2026-03-30T11:22:31Z</time></trkpt><trkpt lat="47.564593377975456" lon="0.31736459186555915"><ele>66.39999999999999</ele><time>2026-03-30T11:22:33Z</time></trkpt><trkpt lat="47.56469920246193" lon="0.31733495074359713"><ele>66.6</ele><time>2026-03-30T11:22:35Z</time></trkpt><trkpt lat="47.56480508263029" lon="0.3172961479715604"><ele>66.8</ele><time>2026-03-30T11:22:37Z</time></trkpt><trkpt lat="47.56490866022554" lon="0.31725544469419303"><ele>67.0</ele><time>2026-03-30T11:22:39Z</time></trkpt><trkpt lat="47.565017126249465" lon="0.3172222636498375"><ele>66.4</ele><time>2026-03-30T11:22:41Z</time></trkpt><trkpt lat="47.56512585457418" lon="0.3171826954306594"><ele>65.80000000000001</ele><time>2026-03-30T11:22:43Z</time></trkpt><trkpt lat="47.565229025503136" lon="0.31713729503904964"><ele>65.2</ele><time>2026-03-30T11:22:45Z</time></trkpt><trkpt lat="47.565335299365515" lon="0.3170992910117365"><ele>64.60000000000001</ele><time>2026-03-30T11:22:47Z</time></trkpt><trkpt lat="47.56543637343262" lon="0.31705680949203835"><ele>64.0</ele><time>2026-03-30T11:22:49Z</time></trkpt><trkpt lat="47.56553915904665" lon="0.3170184299352326"><ele>64.0</ele><time>2026-03-30T11:22:51Z</time></trkpt><trkpt lat="47.565639407479956" lon="0.3169792179823168"><ele>64.0</ele><time>2026-03-30T11:22:53Z</time></trkpt><trkpt lat="47.56573920727136" lon="0.3169591682045863"><ele>64.0</ele><time>2026-03-30T11:22:55Z</time></trkpt><trkpt lat="47.56583560910566" lon="0.3169356295323728"><ele>64.0</ele><time>2026-03-30T11:22:57Z</time></trkpt><trkpt lat="47.565936617678865" lon="0.3169012934723879"><ele>64.0</ele><time>2026-03-30T11:22:59Z</time></trkpt><trkpt lat="47.56604220164871" lon="0.31687213593740154"><ele>64.0</ele><time>2026-03-30T11:23:01Z</time></trkpt><trkpt lat="47.56615218184408" lon="0.31684148152032954"><ele>64.0</ele><time>2026-03-30T11:23:03Z</time></trkpt><trkpt lat="47.56626264796966" lon="0.31681152073697294"><ele>64.0</ele><time>2026-03-30T11:23:05Z</time></trkpt><trkpt lat="47.5663818276784" lon="0.31678818949214915"><ele>64.0</ele><time>2026-03-30T11:23:07Z</time></trkpt><trkpt lat="47.56649801064545" lon="0.3167726412805937"><ele>64.0</ele><time>2026-03-30T11:23:09Z</time></trkpt><trkpt lat="47.56661063120045" lon="0.3167612418793904"><ele>64.0</ele><time>2026-03-30T11:23:11Z</time></trkpt><trkpt lat="47.56672265857275" lon="0.31674334474813093"><ele>64.0</ele><time>2026-03-30T11:23:13Z</time></trkpt><trkpt lat="47.56682683348679" lon="0.3167349679910711"><ele>64.0</ele><time>2026-03-30T11:23:15Z</time></trkpt><trkpt lat="47.56693159031652" lon="0.3167259991953841"><ele>64.0</ele><time>2026-03-30T11:23:17Z</time></trkpt><trkpt lat="47.56703244538135" lon="0.31671301090449727"><ele>64.4</ele><time>2026-03-30T11:23:19Z</time></trkpt><trkpt lat="47.56713147100447" lon="0.31670414020946513"><ele>64.80000000000001</ele><time>2026-03-30T11:23:21Z</time></trkpt><trkpt lat="47.567227411056436" lon="0.31669288780926247"><ele>65.19999999999999</ele><time>2026-03-30T11:23:23Z</time></trkpt><trkpt lat="47.56731936316472" lon="0.3166714938655231"><ele>65.6</ele><time>2026-03-30T11:23:25Z</time></trkpt><trkpt lat="47.567411782611494" lon="0.3166492158906815"><ele>66.0</ele><time>2026-03-30T11:23:27Z</time></trkpt><trkpt lat="47.567503436977766" lon="0.31662583126669325"><ele>66.0</ele><time>2026-03-30T11:23:29Z</time></trkpt><trkpt lat="47.567594969757856" lon="0.31661089399345604"><ele>66.0</ele><time>2026-03-30T11:23:31Z</time></trkpt><trkpt lat="47.56768750259253" lon="0.316601985947454"><ele>66.0</ele><time>2026-03-30T11:23:33Z</time></trkpt><trkpt lat="47.56777985720859" lon="0.3165808908818481"><ele>66.0</ele><time>2026-03-30T11:23:35Z</time></trkpt><trkpt lat="47.567870878637116" lon="0.31657642808955994"><ele>66.0</ele><time>2026-03-30T11:23:37Z</time></trkpt><trkpt lat="47.56796387066715" lon="0.31657710454903937"><ele>66.33333333333333</ele><time>2026-03-30T11:23:39Z</time></trkpt><trkpt lat="47.56805572543234" lon="0.31656510519578124"><ele>66.66666666666667</ele><time>2026-03-30T11:23:41Z</time></trkpt><trkpt lat="47.56814656528245" lon="0.3165534565963828"><ele>67.0</ele><time>2026-03-30T11:23:43Z</time></trkpt><trkpt lat="47.56823571538693" lon="0.31657195546656175"><ele>67.33333333333334</ele><time>2026-03-30T11:23:45Z</time></trkpt><trkpt lat="47.568324681907185" lon="0.3165876425914029"><ele>67.66666666666667</ele><time>2026-03-30T11:23:47Z</time></trkpt><trkpt lat="47.56840757426713" lon="0.31660950102418367"><ele>68.0</ele><time>2026-03-30T11:23:49Z</time></trkpt><trkpt lat="47.56849677505567" lon="0.3166227834908447"><ele>68.0</ele><time>2026-03-30T11:23:51Z</time></trkpt><trkpt lat="47.56858449219124" lon="0.3166358393194204"><ele>68.0</ele><time>2026-03-30T11:23:53Z</time></trkpt><trkpt lat="47.56867289176347" lon="0.3166351277618907"><ele>68.0</ele><time>2026-03-30T11:23:55Z</time></trkpt><trkpt lat="47.568756606987336" lon="0.316675708416817"><ele>68.0</ele><time>2026-03-30T11:23:57Z</time></trkpt><trkpt lat="47.56883855478897" lon="0.3166860141491839"><ele>68.0</ele><time>2026-03-30T11:23:59Z</time></trkpt><trkpt lat="47.568923352800134" lon="0.3166835476484122"><ele>68.0</ele><time>2026-03-30T11:24:01Z</time></trkpt><trkpt lat="47.56900852073287" lon="0.3166848933392794"><ele>68.16666666666667</ele><time>2026-03-30T11:24:03Z</time></trkpt><trkpt lat="47.56909329825099" lon="0.31669267034804344"><ele>68.33333333333334</ele><time>2026-03-30T11:24:05Z</time></trkpt><trkpt lat="47.56917529959547" lon="0.31669315816075455"><ele>68.5</ele><time>2026-03-30T11:24:07Z</time></trkpt><trkpt lat="47.56925897447149" lon="0.3166756284604923"><ele>68.66666666666667</ele><time>2026-03-30T11:24:09Z</time></trkpt><trkpt lat="47.5693454593448" lon="0.31667249060651365"><ele>68.83333333333333</ele><time>2026-03-30T11:24:11Z</time></trkpt><trkpt lat="47.569435254667745" lon="0.31665514311504867"><ele>69.0</ele><time>2026-03-30T11:24:13Z</time></trkpt><trkpt lat="47.56951797375224" lon="0.31662803012835705"><ele>69.0</ele><time>2026-03-30T11:24:15Z</time></trkpt><trkpt lat="47.56959178367716" lon="0.31657226508145603"><ele>69.0</ele><time>2026-03-30T11:24:17Z</time></trkpt><trkpt lat="47.56967702868513" lon="0.3165207031067978"><ele>69.0</ele><time>2026-03-30T11:24:19Z</time></trkpt><trkpt lat="47.56976040192306" lon="0.3164435126544957"><ele>69.0</ele><time>2026-03-30T11:24:21Z</time></trkpt><trkpt lat="47.5698458423835" lon="0.3163812822331466"><ele>69.0</ele><time>2026-03-30T11:24:23Z</time></trkpt><trkpt lat="47.56992185210523" lon="0.3163026737519437"><ele>68.2</ele><time>2026-03-30T11:24:25Z</time></trkpt><trkpt lat="47.57000819323608" lon="0.3162402465028048"><ele>67.4</ele><time>2026-03-30T11:24:27Z</time></trkpt><trkpt lat="47.570094916086106" lon="0.3161708427651205"><ele>66.6</ele><time>2026-03-30T11:24:29.001Z</time></trkpt><trkpt lat="47.5701768159868" lon="0.3160910755860253"><ele>65.8</ele><time>2026-03-30T11:24:31.001Z</time></trkpt><trkpt lat="47.570268493730104" lon="0.31601981804387347"><ele>65.0</ele><time>2026-03-30T11:24:33.001Z</time></trkpt><trkpt lat="47.570369218246725" lon="0.3159883280339262"><ele>65.0</ele><time>2026-03-30T11:24:35.001Z</time></trkpt><trkpt lat="47.57046838380455" lon="0.3159334734185804"><ele>65.0</ele><time>2026-03-30T11:24:37.001Z</time></trkpt><trkpt lat="47.57057203406471" lon="0.31594425163058065"><ele>65.0</ele><time>2026-03-30T11:24:39.001Z</time></trkpt><trkpt lat="47.57067212992415" lon="0.31598069208279234"><ele>65.0</ele><time>2026-03-30T11:24:41.001Z</time></trkpt><trkpt lat="47.5707638702796" lon="0.31603607373308457"><ele>65.0</ele><time>2026-03-30T11:24:43.001Z</time></trkpt><trkpt lat="47.570850271473425" lon="0.3161023378785301"><ele>65.0</ele><time>2026-03-30T11:24:45.001Z</time></trkpt><trkpt lat="47.570943752259836" lon="0.3161517806734729"><ele>65.0</ele><time>2026-03-30T11:24:47.001Z</time></trkpt><trkpt lat="47.571027777241525" lon="0.3162270457924324"><ele>65.0</ele><time>2026-03-30T11:24:49.001Z</time></trkpt><trkpt lat="47.57111908535195" lon="0.3163035098577471"><ele>65.0</ele><time>2026-03-30T11:24:51.001Z</time></trkpt><trkpt lat="47.571220278133325" lon="0.3163603448236433"><ele>65.0</ele><time>2026-03-30T11:24:53.001Z</time></trkpt><trkpt lat="47.57132855391938" lon="0.3163893211734273"><ele>64.5</ele><time>2026-03-30T11:24:55.001Z</time></trkpt><trkpt lat="47.57143820365078" lon="0.31637787201253337"><ele>64.0</ele><time>2026-03-30T11:24:57.001Z</time></trkpt><trkpt lat="47.57154095671626" lon="0.31629768254820484"><ele>63.5</ele><time>2026-03-30T11:24:59.001Z</time></trkpt><trkpt lat="47.571634779073364" lon="0.316191741865946"><ele>63.0</ele><time>2026-03-30T11:25:01.001Z</time></trkpt><trkpt lat="47.571721047323116" lon="0.3160719844829374"><ele>63.0</ele><time>2026-03-30T11:25:03.001Z</time></trkpt><trkpt lat="47.5718091254783" lon="0.31595699579856096"><ele>63.0</ele><time>2026-03-30T11:25:05.001Z</time></trkpt><trkpt lat="47.57189116181517" lon="0.3158327264472982"><ele>63.0</ele><time>2026-03-30T11:25:07.001Z</time></trkpt><trkpt lat="47.57198073990124" lon="0.31571217213520125"><ele>63.0</ele><time>2026-03-30T11:25:09.001Z</time></trkpt><trkpt lat="47.572025560906184" lon="0.3156415177070747"><ele>63.0</ele><time>2026-03-30T11:25:10.001Z</time></trkpt><trkpt lat="47.57207267111333" lon="0.3155766285602167"><ele>62.5</ele><time>2026-03-30T11:25:11.001Z</time></trkpt><trkpt lat="47.572169872218545" lon="0.31545324814888165"><ele>62.0</ele><time>2026-03-30T11:25:12.999Z</time></trkpt><trkpt lat="47.5722174420452" lon="0.3153789206849353"><ele>61.5</ele><time>2026-03-30T11:25:13.999Z</time></trkpt><trkpt lat="47.57226919205075" lon="0.31532116228694934"><ele>61.0</ele><time>2026-03-30T11:25:14.999Z</time></trkpt><trkpt lat="47.572319066093236" lon="0.31526282009018725"><ele>60.5</ele><time>2026-03-30T11:25:15.999Z</time></trkpt><trkpt lat="47.572365925815404" lon="0.31519960238279"><ele>60.0</ele><time>2026-03-30T11:25:16.999Z</time></trkpt><trkpt lat="47.572454515940805" lon="0.3150705362855313"><ele>60.0</ele><time>2026-03-30T11:25:18.999Z</time></trkpt><trkpt lat="47.572543142264465" lon="0.3149516316545436"><ele>60.0</ele><time>2026-03-30T11:25:20.999Z</time></trkpt><trkpt lat="47.572628706871555" lon="0.3148534463260279"><ele>60.0</ele><time>2026-03-30T11:25:22.999Z</time></trkpt><trkpt lat="47.57269461515659" lon="0.3147540321398937"><ele>60.0</ele><time>2026-03-30T11:25:24.999Z</time></trkpt><trkpt lat="47.57276126674888" lon="0.3146526192678196"><ele>60.0</ele><time>2026-03-30T11:25:26.999Z</time></trkpt><trkpt lat="47.57282695906161" lon="0.3145535236329473"><ele>59.8</ele><time>2026-03-30T11:25:28.999Z</time></trkpt><trkpt lat="47.572899379768224" lon="0.3144640763330086"><ele>59.6</ele><time>2026-03-30T11:25:30.999Z</time></trkpt><trkpt lat="47.57297420646166" lon="0.3143753251026004"><ele>59.400000000000006</ele><time>2026-03-30T11:25:32.999Z</time></trkpt><trkpt lat="47.57304318568806" lon="0.3142709115099726"><ele>59.2</ele><time>2026-03-30T11:25:34.999Z</time></trkpt><trkpt lat="47.57312087001121" lon="0.31418239825457983"><ele>59.0</ele><time>2026-03-30T11:25:36.999Z</time></trkpt><trkpt lat="47.57320055568873" lon="0.3141021917911569"><ele>59.0</ele><time>2026-03-30T11:25:38.999Z</time></trkpt><trkpt lat="47.57327846934505" lon="0.3140156777748949"><ele>59.00000000000001</ele><time>2026-03-30T11:25:40.999Z</time></trkpt><trkpt lat="47.57335703158089" lon="0.3139410008237576"><ele>59.00000000000001</ele><time>2026-03-30T11:25:42.999Z</time></trkpt><trkpt lat="47.57344148879658" lon="0.31388473902342856"><ele>59.0</ele><time>2026-03-30T11:25:44.999Z</time></trkpt><trkpt lat="47.57352879799685" lon="0.313832818797588"><ele>59.0</ele><time>2026-03-30T11:25:46.999Z</time></trkpt><trkpt lat="47.57361517509599" lon="0.31379274170003935"><ele>59.14285714285714</ele><time>2026-03-30T11:25:48.999Z</time></trkpt><trkpt lat="47.573701334259795" lon="0.3137531431450422"><ele>59.28571428571429</ele><time>2026-03-30T11:25:50.999Z</time></trkpt><trkpt lat="47.57377741443447" lon="0.313720558852226"><ele>59.42857142857143</ele><time>2026-03-30T11:25:52.999Z</time></trkpt><trkpt lat="47.57384179348799" lon="0.31369079524723564"><ele>59.57142857142857</ele><time>2026-03-30T11:25:54.999Z</time></trkpt><trkpt lat="47.57389922660159" lon="0.313652086538022"><ele>59.71428571428571</ele><time>2026-03-30T11:25:56.999Z</time></trkpt><trkpt lat="47.573963595768454" lon="0.313656320435977"><ele>59.85714285714286</ele><time>2026-03-30T11:25:58.999Z</time></trkpt><trkpt lat="47.57402888357235" lon="0.3136474191797121"><ele>60.0</ele><time>2026-03-30T11:26:00.999Z</time></trkpt><trkpt lat="47.57409639320138" lon="0.31364215712963617"><ele>60.0</ele><time>2026-03-30T11:26:02.999Z</time></trkpt><trkpt lat="47.574168141646965" lon="0.3136388789066711"><ele>60.0</ele><time>2026-03-30T11:26:04.999Z</time></trkpt><trkpt lat="47.574244787098294" lon="0.3136411573340153"><ele>60.0</ele><time>2026-03-30T11:26:06.999Z</time></trkpt><trkpt lat="47.574322840115265" lon="0.3136393141176517"><ele>60.0</ele><time>2026-03-30T11:26:08.999Z</time></trkpt><trkpt lat="47.574397956509145" lon="0.3136236063255599"><ele>60.0</ele><time>2026-03-30T11:26:10.999Z</time></trkpt><trkpt lat="47.574478126009424" lon="0.31364677430296345"><ele>60.0</ele><time>2026-03-30T11:26:13.999Z</time></trkpt><trkpt lat="47.574549577403545" lon="0.3136470257045907"><ele>59.714285714285715</ele><time>2026-03-30T11:26:17.999Z</time></trkpt><trkpt lat="47.57462933142533" lon="0.31360590183623344"><ele>59.42857142857143</ele><time>2026-03-30T11:26:43Z</time></trkpt><trkpt lat="47.57470077869864" lon="0.3136100223968142"><ele>59.142857142857146</ele><time>2026-03-30T11:27:21Z</time></trkpt><trkpt lat="47.574757968663405" lon="0.31369504971924983"><ele>58.85714285714286</ele><time>2026-03-30T11:27:40Z</time></trkpt><trkpt lat="47.5747062920564" lon="0.31361933698702166"><ele>58.57142857142857</ele><time>2026-03-30T11:27:54.999Z</time></trkpt><trkpt lat="47.57464034180098" lon="0.3136483557234602"><ele>58.28571428571429</ele><time>2026-03-30T11:38:02.999Z</time></trkpt><trkpt lat="47.574621119256115" lon="0.31354721414349745"><ele>58.00000000000001</ele><time>2026-03-30T11:38:18.999Z</time></trkpt><trkpt lat="47.57468684652371" lon="0.31357324215587784"><ele>58.0</ele><time>2026-03-30T11:43:43Z</time></trkpt><trkpt lat="47.574666093182636" lon="0.3136759489726882"><ele>58.0</ele><time>2026-03-30T11:50:28.999Z</time></trkpt></trkseg></trk></gpx>